Darstellungsparameter: Aktuell verwendete Einstellungen:
Skalierung der Graphiken ... ?
xyx+y,   Skalierungsfaktor:      Skalierung: Modus: x, Faktor: 1
Darstellungszeitraum ... ?
Vom - - bis: - -   Zeitraum: 05.09.2006 - 05.10.2006
Min/Max/Avg-Anzeige ... ?
Zeige MMA aktuell
Zeige MMA Monat
Zeige MMA alles
Zeige --A aktuell
Zeige --A Monat
Zeige --A alles
Keine MMA-Anzeige
MMA:
Average (ber die Originaldaten)
MMA-Basis: 05.09.2006 - 05.10.2006
Quicknavigation für Darstellung... ?
Tage:      1T, 2T, 3T, 5T -1T -2T -3T -5T +1T +2T +3T +5T
Wochen: 1W, 2W, 3W -1W -2W -3W +1W +2W +3W
Monate: 1M, 3M, 6M -1M -3M -6M +1M +3M +6M
Jahre:    1J, 3J, 5J, 10J -1J -3J -5J -10J +1J +3J +5J +10J
Nutze für die Darstellung ... ?
Originaldaten oder Mittelwerte auf ...
Stundenbasis Tagesbasis Wochenbasis
Monatsbasis Jahresbasis      Datenbasis: Original-Daten
Darstellen als:
Statistik (Auto) Statistik J:M      Darstellung:
Zur Graphik,    zurück zur Übersicht aller Sensoren.
 
Tabellarische Datenbersicht: ?
 
Sensor: Nr:Datum:Temp:Abs-Feuchte:Windchill:Wind:
Aussen-T/F 1 05-09-2006 00:06:02 19.2 C 10.06 g/m*3 19.2 C 0 km/h
2 05-09-2006 00:16:02 19.1 C 10.16 g/m*3 19.1 C 0 km/h
3 05-09-2006 00:26:02 19 C 10.1 g/m*3 19 C 0 km/h
4 05-09-2006 00:36:03 18.8 C 10.31 g/m*3 18.8 C 0 km/h
5 05-09-2006 00:46:03 18.6 C 10.35 g/m*3 18.6 C 0 km/h
6 05-09-2006 00:56:03 18.4 C 10.38 g/m*3 18.4 C 0 km/h
7 05-09-2006 01:06:03 18.3 C 10.32 g/m*3 18.3 C 0 km/h
8 05-09-2006 01:16:03 18.3 C 10.32 g/m*3 18.3 C 0 km/h
9 05-09-2006 01:26:03 18.2 C 10.41 g/m*3 18.2 C 0 km/h
10 05-09-2006 01:36:03 18.1 C 10.51 g/m*3 18.1 C 0 km/h
11 05-09-2006 01:46:01 17.8 C 10.62 g/m*3 17.8 C 0 km/h
12 05-09-2006 01:56:01 17.8 C 10.62 g/m*3 17.8 C 0 km/h
13 05-09-2006 02:06:01 17.7 C 10.56 g/m*3 17.7 C 0 km/h
14 05-09-2006 02:16:02 17.7 C 10.71 g/m*3 17.7 C 0 km/h
15 05-09-2006 02:26:02 17.7 C 10.71 g/m*3 17.7 C 0 km/h
16 05-09-2006 02:36:01 17.5 C 10.59 g/m*3 17.5 C 0 km/h
17 05-09-2006 02:47:03 17.3 C 10.61 g/m*3 17.3 C 0 km/h
18 05-09-2006 02:57:04 17.2 C 10.69 g/m*3 17.2 C 0 km/h
19 05-09-2006 03:07:04 17 C 10.56 g/m*3 17 C 0 km/h
20 05-09-2006 03:17:04 16.9 C 10.64 g/m*3 16.9 C 0 km/h
21 05-09-2006 03:27:04 16.6 C 10.45 g/m*3 16.6 C 0 km/h
22 05-09-2006 03:37:01 16.6 C 10.31 g/m*3 16.6 C 0 km/h
23 05-09-2006 03:47:01 16.4 C 10.19 g/m*3 16.4 C 0 km/h
24 05-09-2006 03:57:01 16.2 C 10.07 g/m*3 16.2 C 0 km/h
25 05-09-2006 04:07:01 16.1 C 10.14 g/m*3 16.1 C 0 km/h
Sensor: Nr:Datum:Temp:Abs-Feuchte:Windchill:Wind:
Aussen-T/F 26 05-09-2006 04:17:02 15.7 C 10.57 g/m*3 15.7 C 0 km/h
27 05-09-2006 04:27:02 15.6 C 10.64 g/m*3 15.6 C 0 km/h
28 05-09-2006 04:37:02 15.5 C 10.57 g/m*3 15.5 C 0 km/h
29 05-09-2006 04:47:02 15.4 C 10.51 g/m*3 15.4 C 0 km/h
30 05-09-2006 04:57:02 15.3 C 10.32 g/m*3 15.3 C 0 km/h
31 05-09-2006 05:07:03 15.3 C 10.45 g/m*3 15.3 C 0 km/h
32 05-09-2006 05:17:03 15.1 C 10.58 g/m*3 15.1 C 0 km/h
33 05-09-2006 05:27:03 15 C 10.51 g/m*3 15 C 0 km/h
34 05-09-2006 05:37:03 14.9 C 10.58 g/m*3 14.9 C 0 km/h
35 05-09-2006 05:47:02 14.8 C 10.51 g/m*3 14.8 C 0 km/h
36 05-09-2006 05:57:02 14.6 C 10.26 g/m*3 14.6 C 0 km/h
37 05-09-2006 06:07:02 14.6 C 10.26 g/m*3 14.6 C 0 km/h
38 05-09-2006 06:17:02 14.6 C 10.39 g/m*3 14.6 C 0 km/h
39 05-09-2006 06:27:02 14.5 C 10.32 g/m*3 14.5 C 0 km/h
40 05-09-2006 06:37:02 14.4 C 10.26 g/m*3 14.4 C 0 km/h
41 05-09-2006 06:47:02 14.2 C 10.26 g/m*3 14.2 C 0 km/h
42 05-09-2006 06:57:02 14.2 C 10.38 g/m*3 14.2 C 0 km/h
43 05-09-2006 07:07:02 14.1 C 10.32 g/m*3 14.1 C 0 km/h
44 05-09-2006 07:17:02 14.1 C 10.32 g/m*3 14.1 C 0 km/h
45 05-09-2006 07:27:02 14.1 C 10.32 g/m*3 14.1 C 0 km/h
46 05-09-2006 07:37:02 14.1 C 10.44 g/m*3 14.1 C 0 km/h
47 05-09-2006 07:47:02 14.1 C 10.44 g/m*3 14.1 C 0 km/h
48 05-09-2006 07:57:02 14 C 10.25 g/m*3 14 C 0 km/h
49 05-09-2006 08:07:02 14.2 C 10.38 g/m*3 14.2 C 0 km/h
50 05-09-2006 08:17:02 14.3 C 10.44 g/m*3 14.3 C 0 km/h
Sensor: Nr:Datum:Temp:Abs-Feuchte:Windchill:Wind:
Aussen-T/F 51 05-09-2006 08:27:02 14.4 C 10.51 g/m*3 14.4 C 0 km/h
52 05-09-2006 08:37:02 14.6 C 10.64 g/m*3 14.6 C 0 km/h
53 05-09-2006 08:47:02 14.8 C 10.77 g/m*3 14.8 C 0 km/h
54 05-09-2006 08:57:02 15.1 C 10.71 g/m*3 15.1 C 0 km/h
55 05-09-2006 09:07:02 15.3 C 10.84 g/m*3 15.3 C 0 km/h
56 05-09-2006 09:17:02 16 C 11.04 g/m*3 16 C 0 km/h
57 05-09-2006 09:27:02 16.6 C 10.74 g/m*3 16.6 C 0 km/h
58 05-09-2006 09:37:02 17.1 C 10.77 g/m*3 17.1 C 0 km/h
59 05-09-2006 09:47:02 17 C 10.71 g/m*3 17 C 0 km/h
60 05-09-2006 09:57:02 17.4 C 10.97 g/m*3 17.4 C 0 km/h
61 05-09-2006 10:07:02 18.1 C 11.12 g/m*3 18.1 C 0 km/h
62 05-09-2006 10:17:02 17.9 C 10.99 g/m*3 17.9 C 0 km/h
63 05-09-2006 10:27:02 18 C 10.91 g/m*3 18 C 0 km/h
64 05-09-2006 10:37:02 18.3 C 11.1 g/m*3 18.3 C 0 km/h
65 05-09-2006 10:47:03 18.7 C 11.21 g/m*3 18.7 C 0 km/h
66 05-09-2006 10:57:03 18.7 C 11.21 g/m*3 18.7 C 0 km/h
67 05-09-2006 11:07:03 19.6 C 11.14 g/m*3 19.6 C 0 km/h
68 05-09-2006 11:17:03 19.6 C 10.97 g/m*3 19.6 C 0 km/h
69 05-09-2006 11:27:03 20.3 C 11.08 g/m*3 20.3 C 0 km/h
70 05-09-2006 11:37:03 21.2 C 10.56 g/m*3 21.2 C 0 km/h
71 05-09-2006 11:47:03 21.5 C 10.37 g/m*3 21.5 C 0 km/h
72 05-09-2006 11:57:03 21.6 C 10.24 g/m*3 21.6 C 0 km/h
73 05-09-2006 12:07:03 21.5 C 10.18 g/m*3 21.5 C 0 km/h
74 05-09-2006 12:17:03 21.7 C 10.49 g/m*3 21.7 C 0 km/h
75 05-09-2006 12:27:03 22.1 C 9.96 g/m*3 22.1 C 0 km/h
Sensor: Nr:Datum:Temp:Abs-Feuchte:Windchill:Wind:
Aussen-T/F 76 05-09-2006 12:37:02 22.5 C 10.39 g/m*3 22.5 C 0 km/h
77 05-09-2006 12:47:03 22.8 C 10.16 g/m*3 22.8 C 0 km/h
78 05-09-2006 12:57:03 22.8 C 10.16 g/m*3 22.8 C 0 km/h
79 05-09-2006 13:07:05 23.5 C 9.94 g/m*3 23.5 C 0 km/h
80 05-09-2006 13:17:03 23.6 C 9.78 g/m*3 23.6 C 0 km/h
81 05-09-2006 13:27:03 23.5 C 9.73 g/m*3 23.5 C 0 km/h
82 05-09-2006 13:37:02 23.5 C 9.73 g/m*3 23.5 C 0 km/h
83 05-09-2006 13:47:02 23.5 C 9.73 g/m*3 23.5 C 0 km/h
84 05-09-2006 13:57:02 24.9 C 9.84 g/m*3 24.9 C 0 km/h
85 05-09-2006 14:07:02 25.8 C 9.63 g/m*3 25.8 C 0 km/h
86 05-09-2006 14:17:02 26.6 C 9.82 g/m*3 26.6 C 0 km/h
87 05-09-2006 14:27:02 27.3 C 9.68 g/m*3 27.3 C 0 km/h
88 05-09-2006 14:37:02 26.1 C 9.79 g/m*3 26.1 C 0 km/h
89 05-09-2006 14:47:02 26 C 9.74 g/m*3 26 C 0 km/h
90 05-09-2006 14:57:02 26 C 9.74 g/m*3 26 C 0 km/h
91 05-09-2006 15:07:02 26.6 C 10.07 g/m*3 26.6 C 0 km/h
92 05-09-2006 15:17:02 26.9 C 10.49 g/m*3 26.9 C 0 km/h
93 05-09-2006 15:27:02 27.3 C 9.68 g/m*3 27.3 C 0 km/h
94 05-09-2006 15:37:01 27.9 C 10.01 g/m*3 27.9 C 0 km/h
95 05-09-2006 15:47:02 27 C 10.81 g/m*3 27 C 0 km/h
96 05-09-2006 15:57:02 25.9 C 10.89 g/m*3 25.9 C 0 km/h
97 05-09-2006 16:07:02 25.3 C 11.24 g/m*3 25.3 C 0 km/h
98 05-09-2006 16:17:02 25.2 C 11.17 g/m*3 25.2 C 0 km/h
99 05-09-2006 16:27:02 25.4 C 11.77 g/m*3 25.4 C 0 km/h
100 05-09-2006 16:37:02 25.4 C 11.77 g/m*3 25.4 C 0 km/h
Sensor: Nr:Datum:Temp:Abs-Feuchte:Windchill:Wind:
Aussen-T/F 101 05-09-2006 16:47:03 25.1 C 11.57 g/m*3 25.1 C 0 km/h
102 05-09-2006 16:57:03 25 C 11.97 g/m*3 25 C 0 km/h
103 05-09-2006 17:07:04 25.1 C 12.04 g/m*3 25.1 C 0 km/h
104 05-09-2006 17:17:03 25.8 C 11.8 g/m*3 25.8 C 0 km/h
105 05-09-2006 17:27:03 25.9 C 11.38 g/m*3 25.9 C 0 km/h
106 05-09-2006 17:37:02 26 C 10.96 g/m*3 26 C 0 km/h
107 05-09-2006 17:47:02 26 C 10.96 g/m*3 26 C 0 km/h
108 05-09-2006 17:57:02 25.8 C 11.56 g/m*3 25.8 C 0 km/h
109 05-09-2006 18:07:02 25.9 C 11.86 g/m*3 25.9 C 0 km/h
110 05-09-2006 18:17:02 25.9 C 11.86 g/m*3 25.9 C 0 km/h
111 05-09-2006 18:27:02 25.4 C 11.77 g/m*3 25.4 C 0 km/h
112 05-09-2006 18:37:02 25 C 11.97 g/m*3 25 C 0 km/h
113 05-09-2006 18:47:02 25.5 C 11.84 g/m*3 25.5 C 0 km/h
114 05-09-2006 18:57:02 25.8 C 12.04 g/m*3 25.8 C 0 km/h
115 05-09-2006 19:07:02 25.6 C 12.14 g/m*3 25.6 C 0 km/h
116 05-09-2006 19:17:02 25.2 C 12.11 g/m*3 25.2 C 0 km/h
117 05-09-2006 19:27:02 24.9 C 12.13 g/m*3 24.9 C 0 km/h
118 05-09-2006 19:37:02 23.9 C 12.33 g/m*3 23.9 C 0 km/h
119 05-09-2006 19:47:02 23.5 C 12.48 g/m*3 23.5 C 0 km/h
120 05-09-2006 19:57:02 23.5 C 12.48 g/m*3 23.5 C 0 km/h
121 05-09-2006 20:07:02 22.2 C 12.37 g/m*3 22.2 C 0 km/h
122 05-09-2006 20:17:02 21.7 C 12.4 g/m*3 21.7 C 0 km/h
123 05-09-2006 20:27:02 21.6 C 12.52 g/m*3 21.6 C 0 km/h
124 05-09-2006 20:37:02 20.9 C 12.38 g/m*3 20.9 C 0 km/h
125 05-09-2006 20:47:02 20.6 C 12.35 g/m*3 20.6 C 0 km/h
Sensor: Nr:Datum:Temp:Abs-Feuchte:Windchill:Wind:
Aussen-T/F 126 05-09-2006 20:57:02 20.5 C 12.63 g/m*3 20.5 C 0 km/h
127 05-09-2006 21:07:03 20.3 C 12.49 g/m*3 20.3 C 0 km/h
128 05-09-2006 21:17:02 20.2 C 12.41 g/m*3 20.2 C 0 km/h
129 05-09-2006 21:27:02 20 C 12.44 g/m*3 20 C 0 km/h
130 05-09-2006 21:37:02 19.9 C 12.71 g/m*3 19.9 C 0 km/h
131 05-09-2006 21:47:02 19.7 C 12.57 g/m*3 19.7 C 0 km/h
132 05-09-2006 21:57:02 19.6 C 12.66 g/m*3 19.6 C 0 km/h
133 05-09-2006 22:07:01 19.5 C 12.59 g/m*3 19.5 C 0 km/h
134 05-09-2006 22:17:01 19.3 C 12.44 g/m*3 19.3 C 0 km/h
135 05-09-2006 22:27:01 19.3 C 12.44 g/m*3 19.3 C 0 km/h
136 05-09-2006 22:37:02 19 C 12.22 g/m*3 19 C 0 km/h
137 05-09-2006 22:47:02 18.9 C 12.47 g/m*3 18.9 C 0 km/h
138 05-09-2006 22:57:02 18.8 C 12.4 g/m*3 18.8 C 0 km/h
139 05-09-2006 23:07:01 18.7 C 12.49 g/m*3 18.7 C 0 km/h
140 05-09-2006 23:17:01 18.7 C 12.49 g/m*3 18.7 C 0 km/h
141 05-09-2006 23:27:01 18.5 C 12.5 g/m*3 18.5 C 0 km/h
142 05-09-2006 23:37:02 18.3 C 12.35 g/m*3 18.3 C 0 km/h
143 05-09-2006 23:47:02 18.2 C 12.28 g/m*3 18.2 C 0 km/h
144 05-09-2006 23:57:02 18.1 C 12.21 g/m*3 18.1 C 0 km/h
145 06-09-2006 00:07:01 17.9 C 12.37 g/m*3 17.9 C 0 km/h
146 06-09-2006 00:17:02 17.8 C 12.29 g/m*3 17.8 C 0 km/h
147 06-09-2006 00:27:02 17.7 C 12.22 g/m*3 17.7 C 0 km/h
148 06-09-2006 00:37:02 17.6 C 12.15 g/m*3 17.6 C 0 km/h
149 06-09-2006 00:47:02 17.5 C 12.23 g/m*3 17.5 C 0 km/h
150 06-09-2006 00:57:03 17.4 C 12.15 g/m*3 17.4 C 0 km/h
Sensor: Nr:Datum:Temp:Abs-Feuchte:Windchill:Wind:
Aussen-T/F 151 06-09-2006 01:07:03 17.3 C 12.08 g/m*3 17.3 C 0 km/h
152 06-09-2006 01:17:03 17.1 C 11.94 g/m*3 17.1 C 0 km/h
153 06-09-2006 01:27:03 17 C 11.87 g/m*3 17 C 0 km/h
154 06-09-2006 01:37:03 17 C 12.01 g/m*3 17 C 0 km/h
155 06-09-2006 01:47:03 17 C 12.15 g/m*3 17 C 0 km/h
156 06-09-2006 01:57:03 16.9 C 12.23 g/m*3 16.9 C 0 km/h
157 06-09-2006 02:07:03 16.7 C 11.94 g/m*3 16.7 C 0 km/h
158 06-09-2006 02:17:03 16.6 C 11.87 g/m*3 16.6 C 0 km/h
159 06-09-2006 02:27:03 16.5 C 11.8 g/m*3 16.5 C 0 km/h
160 06-09-2006 02:37:03 16.4 C 11.72 g/m*3 16.4 C 0 km/h
161 06-09-2006 02:48:03 16.3 C 11.79 g/m*3 16.3 C 0 km/h
162 06-09-2006 02:58:03 16.3 C 11.79 g/m*3 16.3 C 0 km/h
163 06-09-2006 03:08:03 16.4 C 12 g/m*3 16.4 C 0 km/h
164 06-09-2006 03:18:03 16.2 C 11.86 g/m*3 16.2 C 0 km/h
165 06-09-2006 03:28:03 16 C 11.72 g/m*3 16 C 0 km/h
166 06-09-2006 03:38:02 15.9 C 11.78 g/m*3 15.9 C 0 km/h
167 06-09-2006 03:48:02 15.8 C 11.71 g/m*3 15.8 C 0 km/h
168 06-09-2006 03:58:03 15.7 C 11.64 g/m*3 15.7 C 0 km/h
169 06-09-2006 04:08:02 15.7 C 11.64 g/m*3 15.7 C 0 km/h
170 06-09-2006 04:18:02 15.6 C 11.57 g/m*3 15.6 C 0 km/h
171 06-09-2006 04:28:02 15.8 C 11.71 g/m*3 15.8 C 0 km/h
172 06-09-2006 04:38:02 15.8 C 11.71 g/m*3 15.8 C 0 km/h
173 06-09-2006 04:48:02 15.9 C 11.78 g/m*3 15.9 C 0 km/h
174 06-09-2006 04:58:02 15.8 C 11.85 g/m*3 15.8 C 0 km/h
175 06-09-2006 05:08:01 15.6 C 11.7 g/m*3 15.6 C 0 km/h
Sensor: Nr:Datum:Temp:Abs-Feuchte:Windchill:Wind:
Aussen-T/F 176 06-09-2006 05:18:02 15.5 C 11.63 g/m*3 15.5 C 0 km/h
177 06-09-2006 05:28:02 15.4 C 11.69 g/m*3 15.4 C 0 km/h
178 06-09-2006 05:38:02 15.4 C 11.69 g/m*3 15.4 C 0 km/h
179 06-09-2006 05:48:03 15.3 C 11.62 g/m*3 15.3 C 0 km/h
180 06-09-2006 05:58:03 15.2 C 11.55 g/m*3 15.2 C 0 km/h
181 06-09-2006 06:08:03 15.3 C 11.62 g/m*3 15.3 C 0 km/h
182 06-09-2006 06:18:02 15.3 C 11.49 g/m*3 15.3 C 0 km/h
183 06-09-2006 06:28:02 15.4 C 11.56 g/m*3 15.4 C 0 km/h
184 06-09-2006 06:38:02 15.5 C 11.63 g/m*3 15.5 C 0 km/h
185 06-09-2006 06:48:02 15.5 C 11.63 g/m*3 15.5 C 0 km/h
186 06-09-2006 06:58:02 15.4 C 11.56 g/m*3 15.4 C 0 km/h
187 06-09-2006 07:08:02 15.5 C 11.63 g/m*3 15.5 C 0 km/h
188 06-09-2006 07:18:01 15.4 C 11.56 g/m*3 15.4 C 0 km/h
189 06-09-2006 07:28:01 15.5 C 11.76 g/m*3 15.5 C 0 km/h
190 06-09-2006 07:38:01 15.1 C 11.35 g/m*3 15.1 C 0 km/h
191 06-09-2006 07:48:03 15 C 11.28 g/m*3 15 C 0 km/h
192 06-09-2006 07:58:03 15.1 C 11.35 g/m*3 15.1 C 0 km/h
193 06-09-2006 08:08:02 15.3 C 11.62 g/m*3 15.3 C 0 km/h
194 06-09-2006 08:18:02 15.3 C 11.49 g/m*3 15.3 C 0 km/h
195 06-09-2006 08:28:02 15.2 C 11.29 g/m*3 15.2 C 0 km/h
196 06-09-2006 08:38:02 15.1 C 11.35 g/m*3 15.1 C 0 km/h
197 06-09-2006 08:48:02 15.4 C 11.56 g/m*3 15.4 C 0 km/h
198 06-09-2006 08:58:02 15.6 C 11.7 g/m*3 15.6 C 0 km/h
199 06-09-2006 09:08:02 15.7 C 11.64 g/m*3 15.7 C 0 km/h
200 06-09-2006 09:18:02 16.6 C 12.01 g/m*3 16.6 C 0 km/h
Sensor: Nr:Datum:Temp:Abs-Feuchte:Windchill:Wind:
Aussen-T/F 201 06-09-2006 09:28:02 16.6 C 11.72 g/m*3 16.6 C 0 km/h
202 06-09-2006 09:38:02 16.5 C 11.51 g/m*3 16.5 C 0 km/h
203 06-09-2006 09:48:02 16.7 C 11.65 g/m*3 16.7 C 0 km/h
204 06-09-2006 09:58:02 17.1 C 11.79 g/m*3 17.1 C 0 km/h
205 06-09-2006 10:08:02 17.1 C 11.65 g/m*3 17.1 C 0 km/h
206 06-09-2006 10:18:02 17.4 C 12 g/m*3 17.4 C 0 km/h
207 06-09-2006 10:28:02 17.7 C 12.07 g/m*3 17.7 C 0 km/h
208 06-09-2006 10:38:02 18.1 C 12.21 g/m*3 18.1 C 0 km/h
209 06-09-2006 10:48:02 18.6 C 12.41 g/m*3 18.6 C 0 km/h
210 06-09-2006 10:58:02 19.1 C 12.13 g/m*3 19.1 C 0 km/h
211 06-09-2006 11:08:02 19.7 C 12.4 g/m*3 19.7 C 0 km/h
212 06-09-2006 11:18:02 20 C 12.27 g/m*3 20 C 0 km/h
213 06-09-2006 11:28:02 20.5 C 12.46 g/m*3 20.5 C 0 km/h
214 06-09-2006 11:38:02 21.2 C 12.6 g/m*3 21.2 C 0 km/h
215 06-09-2006 11:48:02 21.6 C 12.71 g/m*3 21.6 C 0 km/h
216 06-09-2006 11:58:02 22 C 12.81 g/m*3 22 C 0 km/h
217 06-09-2006 12:08:01 22.4 C 12.91 g/m*3 22.4 C 0 km/h
218 06-09-2006 12:18:01 23.2 C 12.89 g/m*3 23.2 C 0 km/h
219 06-09-2006 12:28:01 23.3 C 12.96 g/m*3 23.3 C 0 km/h
220 06-09-2006 12:38:01 23.7 C 12.83 g/m*3 23.7 C 0 km/h
221 06-09-2006 12:48:02 24.1 C 12.47 g/m*3 24.1 C 0 km/h
222 06-09-2006 12:58:02 24.4 C 12.69 g/m*3 24.4 C 0 km/h
223 06-09-2006 13:08:02 24.8 C 12.52 g/m*3 24.8 C 0 km/h
224 06-09-2006 13:18:01 25.3 C 12.64 g/m*3 25.3 C 0 km/h
225 06-09-2006 13:28:01 25.9 C 11.14 g/m*3 25.9 C 0 km/h
Sensor: Nr:Datum:Temp:Abs-Feuchte:Windchill:Wind:
Aussen-T/F 226 06-09-2006 13:38:01 26.3 C 10.89 g/m*3 26.3 C 0 km/h
227 06-09-2006 13:48:02 26.8 C 11.96 g/m*3 26.8 C 0 km/h
228 06-09-2006 13:58:02 27.3 C 10.2 g/m*3 27.3 C 0 km/h
229 06-09-2006 14:08:02 27.5 C 9.79 g/m*3 27.5 C 0 km/h
230 06-09-2006 14:18:01 28.3 C 9.95 g/m*3 28.3 C 0 km/h
231 06-09-2006 14:28:01 28.7 C 9.89 g/m*3 28.7 C 0 km/h
232 06-09-2006 14:38:01 29.2 C 9.58 g/m*3 29.2 C 0 km/h
233 06-09-2006 14:48:02 29.4 C 10.27 g/m*3 29.4 C 0 km/h
234 06-09-2006 14:58:02 29.7 C 10.14 g/m*3 29.7 C 0 km/h
235 06-09-2006 15:08:02 30.2 C 9.81 g/m*3 30.2 C 0 km/h
236 06-09-2006 15:18:02 30.3 C 9.86 g/m*3 30.3 C 0 km/h
237 06-09-2006 15:28:02 30.6 C 9.71 g/m*3 30.6 C 0 km/h
238 06-09-2006 15:38:02 30.4 C 10.85 g/m*3 30.4 C 0 km/h
239 06-09-2006 15:48:02 30.6 C 9.71 g/m*3 30.6 C 0 km/h
240 06-09-2006 15:58:02 30.7 C 9.76 g/m*3 30.7 C 0 km/h
241 06-09-2006 16:08:01 30.4 C 9.61 g/m*3 30.4 C 0 km/h
242 06-09-2006 16:18:01 30.7 C 9.45 g/m*3 30.7 C 0 km/h
243 06-09-2006 16:28:01 31.3 C 11.06 g/m*3 31.3 C 0 km/h
244 06-09-2006 16:38:01 31.5 C 10.19 g/m*3 31.5 C 0 km/h
245 06-09-2006 16:48:02 31.7 C 10.3 g/m*3 31.7 C 0 km/h
246 06-09-2006 16:58:02 31.8 C 9.69 g/m*3 31.8 C 0 km/h
247 06-09-2006 17:08:02 32 C 9.11 g/m*3 32 C 0 km/h
248 06-09-2006 17:18:02 32.1 C 9.16 g/m*3 32.1 C 0 km/h
249 06-09-2006 17:28:02 31.9 C 9.74 g/m*3 31.9 C 0 km/h
250 06-09-2006 17:38:02 31.9 C 8.73 g/m*3 31.9 C 0 km/h
Sensor: Nr:Datum:Temp:Abs-Feuchte:Windchill:Wind:
Aussen-T/F 251 06-09-2006 17:48:02 32.1 C 10.18 g/m*3 32.1 C 0 km/h
252 06-09-2006 17:58:03 32.1 C 10.18 g/m*3 32.1 C 0 km/h
253 06-09-2006 18:08:02 31.8 C 10.02 g/m*3 31.8 C 0 km/h
254 06-09-2006 18:18:03 31.5 C 9.2 g/m*3 31.5 C 0 km/h
255 06-09-2006 18:28:03 31.4 C 9.48 g/m*3 31.4 C 0 km/h
256 06-09-2006 18:38:03 31 C 10.56 g/m*3 31 C 0 km/h
257 06-09-2006 18:48:02 30.7 C 10.39 g/m*3 30.7 C 0 km/h
258 06-09-2006 18:58:02 30.3 C 10.79 g/m*3 30.3 C 0 km/h
259 06-09-2006 19:08:02 29.3 C 10.8 g/m*3 29.3 C 0 km/h
260 06-09-2006 19:18:02 28.2 C 10.72 g/m*3 28.2 C 0 km/h
261 06-09-2006 19:28:02 27.5 C 10.85 g/m*3 27.5 C 0 km/h
262 06-09-2006 19:38:02 27.1 C 10.61 g/m*3 27.1 C 0 km/h
263 06-09-2006 19:48:02 26.5 C 10.76 g/m*3 26.5 C 0 km/h
264 06-09-2006 19:58:02 25.8 C 10.83 g/m*3 25.8 C 0 km/h
265 06-09-2006 20:08:02 25.3 C 10.77 g/m*3 25.3 C 0 km/h
266 06-09-2006 20:18:01 24.9 C 10.99 g/m*3 24.9 C 0 km/h
267 06-09-2006 20:28:01 24.8 C 10.7 g/m*3 24.8 C 0 km/h
268 06-09-2006 20:38:01 24.6 C 10.8 g/m*3 24.6 C 0 km/h
269 06-09-2006 20:48:02 24.5 C 10.97 g/m*3 24.5 C 0 km/h
270 06-09-2006 20:58:02 24.3 C 10.84 g/m*3 24.3 C 0 km/h
271 06-09-2006 21:08:03 24.1 C 11.16 g/m*3 24.1 C 0 km/h
272 06-09-2006 21:18:02 23.9 C 11.47 g/m*3 23.9 C 0 km/h
273 06-09-2006 21:28:03 23.6 C 11.27 g/m*3 23.6 C 0 km/h
274 06-09-2006 21:38:02 23.3 C 11.71 g/m*3 23.3 C 0 km/h
275 06-09-2006 21:48:02 22.9 C 12.06 g/m*3 22.9 C 0 km/h
Sensor: Nr:Datum:Temp:Abs-Feuchte:Windchill:Wind:
Aussen-T/F 276 06-09-2006 21:58:02 22.6 C 11.85 g/m*3 22.6 C 0 km/h
277 06-09-2006 22:08:03 22.3 C 12.24 g/m*3 22.3 C 0 km/h
278 06-09-2006 22:18:02 22 C 12.23 g/m*3 22 C 0 km/h
279 06-09-2006 22:28:02 21.7 C 12.21 g/m*3 21.7 C 0 km/h
280 06-09-2006 22:38:02 21.6 C 12.33 g/m*3 21.6 C 0 km/h
281 06-09-2006 22:48:02 21.4 C 12.19 g/m*3 21.4 C 0 km/h
282 06-09-2006 22:58:03 21 C 12.09 g/m*3 21 C 0 km/h
283 06-09-2006 23:08:02 20.8 C 12.31 g/m*3 20.8 C 0 km/h
284 06-09-2006 23:18:01 20.6 C 12.35 g/m*3 20.6 C 0 km/h
285 06-09-2006 23:28:01 20.5 C 12.28 g/m*3 20.5 C 0 km/h
286 06-09-2006 23:38:02 20.4 C 12.21 g/m*3 20.4 C 0 km/h
287 06-09-2006 23:48:02 20.2 C 12.24 g/m*3 20.2 C 0 km/h
288 06-09-2006 23:58:02 20 C 12.1 g/m*3 20 C 0 km/h
289 07-09-2006 00:08:01 19.9 C 12.37 g/m*3 19.9 C 0 km/h
290 07-09-2006 00:18:02 19.7 C 12.23 g/m*3 19.7 C 0 km/h
291 07-09-2006 00:28:02 19.6 C 12.15 g/m*3 19.6 C 0 km/h
292 07-09-2006 00:38:01 19.5 C 12.25 g/m*3 19.5 C 0 km/h
293 07-09-2006 00:48:03 19.3 C 12.11 g/m*3 19.3 C 0 km/h
294 07-09-2006 00:58:03 19.3 C 12.11 g/m*3 19.3 C 0 km/h
295 07-09-2006 01:08:03 19 C 12.22 g/m*3 19 C 0 km/h
296 07-09-2006 01:18:03 18.9 C 12.15 g/m*3 18.9 C 0 km/h
297 07-09-2006 01:28:03 18.7 C 12.17 g/m*3 18.7 C 0 km/h
298 07-09-2006 01:38:03 18.5 C 12.02 g/m*3 18.5 C 0 km/h
299 07-09-2006 01:48:02 18.5 C 12.02 g/m*3 18.5 C 0 km/h
300 07-09-2006 01:58:02 18.4 C 12.11 g/m*3 18.4 C 0 km/h
Sensor: Nr:Datum:Temp:Abs-Feuchte:Windchill:Wind:
Aussen-T/F 301 07-09-2006 02:08:02 18.2 C 11.97 g/m*3 18.2 C 0 km/h
302 07-09-2006 02:18:02 18 C 11.83 g/m*3 18 C 0 km/h
303 07-09-2006 02:28:03 18 C 11.98 g/m*3 18 C 0 km/h
304 07-09-2006 02:38:02 17.9 C 12.06 g/m*3 17.9 C 0 km/h
305 07-09-2006 02:49:04 17.8 C 11.99 g/m*3 17.8 C 0 km/h
306 07-09-2006 02:59:04 17.7 C 11.92 g/m*3 17.7 C 0 km/h
307 07-09-2006 03:09:04 17.9 C 12.06 g/m*3 17.9 C 0 km/h
308 07-09-2006 03:19:03 17.4 C 11.86 g/m*3 17.4 C 0 km/h
309 07-09-2006 03:29:03 17.3 C 11.93 g/m*3 17.3 C 0 km/h
310 07-09-2006 03:39:02 17.2 C 11.86 g/m*3 17.2 C 0 km/h
311 07-09-2006 03:49:02 17.1 C 11.79 g/m*3 17.1 C 0 km/h
312 07-09-2006 03:59:02 17 C 11.72 g/m*3 17 C 0 km/h
313 07-09-2006 04:09:02 16.9 C 11.79 g/m*3 16.9 C 0 km/h
314 07-09-2006 04:19:02 16.8 C 11.72 g/m*3 16.8 C 0 km/h
315 07-09-2006 04:29:02 16.8 C 11.72 g/m*3 16.8 C 0 km/h
316 07-09-2006 04:39:02 16.6 C 11.72 g/m*3 16.6 C 0 km/h
317 07-09-2006 04:49:03 16.6 C 11.72 g/m*3 16.6 C 0 km/h
318 07-09-2006 04:59:03 16.5 C 11.65 g/m*3 16.5 C 0 km/h
319 07-09-2006 05:09:03 16.4 C 11.58 g/m*3 16.4 C 0 km/h
320 07-09-2006 05:19:02 16.4 C 11.72 g/m*3 16.4 C 0 km/h
321 07-09-2006 05:29:02 16.2 C 11.45 g/m*3 16.2 C 0 km/h
322 07-09-2006 05:39:02 16.1 C 11.51 g/m*3 16.1 C 0 km/h
323 07-09-2006 05:49:02 16 C 11.44 g/m*3 16 C 0 km/h
324 07-09-2006 05:59:02 15.9 C 11.51 g/m*3 15.9 C 0 km/h
325 07-09-2006 06:09:02 15.8 C 11.31 g/m*3 15.8 C 0 km/h
Sensor: Nr:Datum:Temp:Abs-Feuchte:Windchill:Wind:
Aussen-T/F 326 07-09-2006 06:19:01 15.7 C 11.37 g/m*3 15.7 C 0 km/h
327 07-09-2006 06:29:01 15.7 C 11.37 g/m*3 15.7 C 0 km/h
328 07-09-2006 06:39:02 15.7 C 11.37 g/m*3 15.7 C 0 km/h
329 07-09-2006 06:49:02 15.6 C 11.3 g/m*3 15.6 C 0 km/h
330 07-09-2006 06:59:02 15.6 C 11.44 g/m*3 15.6 C 0 km/h
331 07-09-2006 07:09:03 15.4 C 11.3 g/m*3 15.4 C 0 km/h
332 07-09-2006 07:19:02 15.3 C 11.23 g/m*3 15.3 C 0 km/h
333 07-09-2006 07:29:02 15.4 C 11.3 g/m*3 15.4 C 0 km/h
334 07-09-2006 07:39:01 15.2 C 11.29 g/m*3 15.2 C 0 km/h
335 07-09-2006 07:49:02 15.2 C 11.29 g/m*3 15.2 C 0 km/h
336 07-09-2006 07:59:02 15.2 C 11.42 g/m*3 15.2 C 0 km/h
337 07-09-2006 08:09:02 15.4 C 11.56 g/m*3 15.4 C 0 km/h
338 07-09-2006 08:19:02 15.4 C 11.56 g/m*3 15.4 C 0 km/h
339 07-09-2006 08:29:02 15.8 C 11.85 g/m*3 15.8 C 0 km/h
340 07-09-2006 08:39:02 16 C 11.72 g/m*3 16 C 0 km/h
341 07-09-2006 08:49:02 16.2 C 11.86 g/m*3 16.2 C 0 km/h
342 07-09-2006 08:59:02 16.6 C 12.15 g/m*3 16.6 C 0 km/h
343 07-09-2006 09:09:02 16.8 C 12.15 g/m*3 16.8 C 0 km/h
344 07-09-2006 09:19:02 16.8 C 11.87 g/m*3 16.8 C 0 km/h
345 07-09-2006 09:29:02 17.3 C 12.08 g/m*3 17.3 C 0 km/h
346 07-09-2006 09:39:02 17.2 C 11.86 g/m*3 17.2 C 0 km/h
347 07-09-2006 09:49:02 17.3 C 11.93 g/m*3 17.3 C 0 km/h
348 07-09-2006 09:59:02 17.7 C 12.22 g/m*3 17.7 C 0 km/h
349 07-09-2006 10:09:02 18 C 12.29 g/m*3 18 C 0 km/h
350 07-09-2006 10:19:02 18.5 C 12.5 g/m*3 18.5 C 0 km/h
Sensor: Nr:Datum:Temp:Abs-Feuchte:Windchill:Wind:
Aussen-T/F 351 07-09-2006 10:29:02 19 C 12.71 g/m*3 19 C 0 km/h
352 07-09-2006 10:39:02 19.5 C 12.75 g/m*3 19.5 C 0 km/h
353 07-09-2006 10:49:02 20 C 12.62 g/m*3 20 C 0 km/h
354 07-09-2006 10:59:02 20.5 C 12.99 g/m*3 20.5 C 0 km/h
355 07-09-2006 11:09:02 21 C 12.82 g/m*3 21 C 0 km/h
356 07-09-2006 11:19:02 21.5 C 13.01 g/m*3 21.5 C 0 km/h
357 07-09-2006 11:29:02 21.9 C 13.12 g/m*3 21.9 C 0 km/h
358 07-09-2006 11:39:02 22.4 C 13.31 g/m*3 22.4 C 0 km/h
359 07-09-2006 11:49:02 22.9 C 13.08 g/m*3 22.9 C 0 km/h
360 07-09-2006 11:59:02 23.8 C 13.12 g/m*3 23.8 C 0 km/h
361 07-09-2006 12:09:02 24.3 C 13.5 g/m*3 24.3 C 0 km/h
362 07-09-2006 12:19:02 24.6 C 13.05 g/m*3 24.6 C 0 km/h
363 07-09-2006 12:29:02 25.3 C 12.88 g/m*3 25.3 C 0 km/h
364 07-09-2006 12:39:02 25.3 C 13.11 g/m*3 25.3 C 0 km/h
365 07-09-2006 12:49:02 25.7 C 12.45 g/m*3 25.7 C 0 km/h
366 07-09-2006 12:59:02 25.9 C 12.35 g/m*3 25.9 C 0 km/h
367 07-09-2006 13:09:02 25.9 C 12.83 g/m*3 25.9 C 0 km/h
368 07-09-2006 13:19:02 26.3 C 12.87 g/m*3 26.3 C 0 km/h
369 07-09-2006 13:29:02 26.9 C 12.54 g/m*3 26.9 C 0 km/h
370 07-09-2006 13:39:01 27 C 12.1 g/m*3 27 C 0 km/h
371 07-09-2006 13:49:02 27.2 C 10.93 g/m*3 27.2 C 0 km/h
372 07-09-2006 13:59:02 27.5 C 11.38 g/m*3 27.5 C 0 km/h
373 07-09-2006 14:09:02 26.9 C 11.77 g/m*3 26.9 C 0 km/h
374 07-09-2006 14:19:02 27.1 C 11.39 g/m*3 27.1 C 0 km/h
375 07-09-2006 14:29:02 27.3 C 11.51 g/m*3 27.3 C 0 km/h
Sensor: Nr:Datum:Temp:Abs-Feuchte:Windchill:Wind:
Aussen-T/F 376 07-09-2006 14:39:01 26.4 C 12.2 g/m*3 26.4 C 0 km/h
377 07-09-2006 14:49:02 26.7 C 11.64 g/m*3 26.7 C 0 km/h
378 07-09-2006 14:59:02 26.4 C 11.95 g/m*3 26.4 C 0 km/h
379 07-09-2006 15:09:02 26.3 C 11.64 g/m*3 26.3 C 0 km/h
380 07-09-2006 15:19:02 24.8 C 11.61 g/m*3 24.8 C 0 km/h
381 07-09-2006 15:29:02 23.7 C 11.76 g/m*3 23.7 C 0 km/h
382 07-09-2006 15:39:02 23.1 C 11.78 g/m*3 23.1 C 0 km/h
383 07-09-2006 15:49:02 23.1 C 11.78 g/m*3 23.1 C 0 km/h
384 07-09-2006 15:59:02 23.3 C 11.92 g/m*3 23.3 C 0 km/h
385 07-09-2006 16:09:02 23 C 11.92 g/m*3 23 C 0 km/h
386 07-09-2006 16:19:02 21.7 C 11.83 g/m*3 21.7 C 0 km/h
387 07-09-2006 16:29:02 20.8 C 11.59 g/m*3 20.8 C 0 km/h
388 07-09-2006 16:39:02 20.1 C 11.3 g/m*3 20.1 C 0 km/h
389 07-09-2006 16:49:02 20.4 C 10.97 g/m*3 20.4 C 0 km/h
390 07-09-2006 16:59:02 20.4 C 10.61 g/m*3 20.4 C 0 km/h
391 07-09-2006 17:09:03 20.4 C 10.61 g/m*3 20.4 C 0 km/h
392 07-09-2006 17:19:03 19.7 C 10.7 g/m*3 19.7 C 0 km/h
393 07-09-2006 17:29:03 19.5 C 10.57 g/m*3 19.5 C 0 km/h
394 07-09-2006 17:39:02 19.6 C 10.8 g/m*3 19.6 C 0 km/h
395 07-09-2006 17:49:02 19.2 C 10.72 g/m*3 19.2 C 0 km/h
396 07-09-2006 17:59:02 18.9 C 11.02 g/m*3 18.9 C 0 km/h
397 07-09-2006 18:09:02 18.8 C 10.95 g/m*3 18.8 C 0 km/h
398 07-09-2006 18:19:02 18.8 C 10.63 g/m*3 18.8 C 0 km/h
399 07-09-2006 18:29:02 18.7 C 9.93 g/m*3 18.7 C 0 km/h
400 07-09-2006 18:39:02 18.6 C 9.87 g/m*3 18.6 C 0 km/h
Sensor: Nr:Datum:Temp:Abs-Feuchte:Windchill:Wind:
Aussen-T/F 401 07-09-2006 18:49:02 18.4 C 9.75 g/m*3 18.4 C 0 km/h
402 07-09-2006 18:59:02 18.3 C 9.54 g/m*3 18.3 C 0 km/h
403 07-09-2006 19:09:03 18.3 C 9.69 g/m*3 18.3 C 0 km/h
404 07-09-2006 19:19:02 18.5 C 9.81 g/m*3 18.5 C 0 km/h
405 07-09-2006 19:29:02 18.5 C 9.81 g/m*3 18.5 C 0 km/h
406 07-09-2006 19:39:02 18.1 C 9.58 g/m*3 18.1 C 0 km/h
407 07-09-2006 19:49:03 18.1 C 9.73 g/m*3 18.1 C 0 km/h
408 07-09-2006 19:59:03 18.2 C 9.95 g/m*3 18.2 C 0 km/h
409 07-09-2006 20:09:03 18.2 C 10.1 g/m*3 18.2 C 0 km/h
410 07-09-2006 20:19:03 18 C 9.98 g/m*3 18 C 0 km/h
411 07-09-2006 20:29:03 17.7 C 10.11 g/m*3 17.7 C 0 km/h
412 07-09-2006 20:39:02 17.3 C 10.02 g/m*3 17.3 C 0 km/h
413 07-09-2006 20:49:02 17.2 C 10.1 g/m*3 17.2 C 0 km/h
414 07-09-2006 20:59:02 17 C 10.27 g/m*3 17 C 0 km/h
415 07-09-2006 21:09:03 16.9 C 10.5 g/m*3 16.9 C 0 km/h
416 07-09-2006 21:19:02 16.7 C 10.52 g/m*3 16.7 C 0 km/h
417 07-09-2006 21:29:02 16.6 C 10.59 g/m*3 16.6 C 0 km/h
418 07-09-2006 21:39:02 16.6 C 10.45 g/m*3 16.6 C 0 km/h
419 07-09-2006 21:49:03 16.5 C 9.83 g/m*3 16.5 C 0 km/h
420 07-09-2006 21:59:03 16.4 C 9.49 g/m*3 16.4 C 0 km/h
421 07-09-2006 22:09:02 16.2 C 9.24 g/m*3 16.2 C 0 km/h
422 07-09-2006 22:19:02 16.1 C 8.91 g/m*3 16.1 C 0 km/h
423 07-09-2006 22:29:02 16 C 8.72 g/m*3 16 C 0 km/h
424 07-09-2006 22:39:02 15.9 C 8.53 g/m*3 15.9 C 0 km/h
425 07-09-2006 22:49:02 15.7 C 8.43 g/m*3 15.7 C 0 km/h
Sensor: Nr:Datum:Temp:Abs-Feuchte:Windchill:Wind:
Aussen-T/F 426 07-09-2006 22:59:02 15.5 C 8.46 g/m*3 15.5 C 0 km/h
427 07-09-2006 23:09:01 15.4 C 8.41 g/m*3 15.4 C 0 km/h
428 07-09-2006 23:19:01 15.3 C 8.23 g/m*3 15.3 C 0 km/h
429 07-09-2006 23:29:01 15.2 C 8.18 g/m*3 15.2 C 0 km/h
430 07-09-2006 23:39:02 15 C 8.08 g/m*3 15 C 0 km/h
431 07-09-2006 23:49:02 14.9 C 8.03 g/m*3 14.9 C 0 km/h
432 07-09-2006 23:59:02 14.6 C 8.01 g/m*3 14.6 C 0 km/h
433 08-09-2006 00:09:01 14.5 C 7.96 g/m*3 14.5 C 0 km/h
434 08-09-2006 00:19:02 14.4 C 8.03 g/m*3 14.4 C 0 km/h
435 08-09-2006 00:29:02 14.2 C 8.06 g/m*3 14.2 C 0 km/h
436 08-09-2006 00:39:01 14.2 C 8.18 g/m*3 14.2 C 0 km/h
437 08-09-2006 00:49:02 13.9 C 8.27 g/m*3 13.9 C 0 km/h
438 08-09-2006 00:59:02 13.8 C 8.22 g/m*3 13.8 C 0 km/h
439 08-09-2006 01:09:02 13.7 C 8.29 g/m*3 13.7 C 0 km/h
440 08-09-2006 01:19:02 13.6 C 8.24 g/m*3 13.6 C 0 km/h
441 08-09-2006 01:29:02 13.4 C 8.25 g/m*3 13.4 C 0 km/h
442 08-09-2006 01:39:03 13.2 C 8.27 g/m*3 13.2 C 0 km/h
443 08-09-2006 01:49:03 13 C 8.17 g/m*3 13 C 0 km/h
444 08-09-2006 01:59:03 13 C 8.17 g/m*3 13 C 0 km/h
445 08-09-2006 02:09:03 13.1 C 8.33 g/m*3 13.1 C 0 km/h
446 08-09-2006 02:19:02 13.3 C 8.32 g/m*3 13.3 C 0 km/h
447 08-09-2006 02:29:02 13.2 C 8.15 g/m*3 13.2 C 0 km/h
448 08-09-2006 02:39:02 12.9 C 8.23 g/m*3 12.9 C 0 km/h
449 08-09-2006 02:50:04 12.7 C 8.24 g/m*3 12.7 C 0 km/h
450 08-09-2006 03:00:04 12.9 C 8.34 g/m*3 12.9 C 0 km/h
Sensor: Nr:Datum:Temp:Abs-Feuchte:Windchill:Wind:
Aussen-T/F 451 08-09-2006 03:10:04 12.9 C 8.34 g/m*3 12.9 C 0 km/h
452 08-09-2006 03:20:04 13.1 C 8.33 g/m*3 13.1 C 0 km/h
453 08-09-2006 03:30:04 13.1 C 8.33 g/m*3 13.1 C 0 km/h
454 08-09-2006 03:40:03 13.2 C 8.27 g/m*3 13.2 C 0 km/h
455 08-09-2006 03:50:03 13.2 C 8.27 g/m*3 13.2 C 0 km/h
456 08-09-2006 04:00:03 13 C 8.28 g/m*3 13 C 0 km/h
457 08-09-2006 04:10:03 13 C 8.39 g/m*3 13 C 0 km/h
458 08-09-2006 04:20:02 13.1 C 8.44 g/m*3 13.1 C 0 km/h
459 08-09-2006 04:30:02 13 C 8.39 g/m*3 13 C 0 km/h
460 08-09-2006 04:40:02 12.8 C 8.51 g/m*3 12.8 C 0 km/h
461 08-09-2006 04:50:02 12.8 C 8.51 g/m*3 12.8 C 0 km/h
462 08-09-2006 05:00:02 12.5 C 8.58 g/m*3 12.5 C 0 km/h
463 08-09-2006 05:10:02 12.5 C 8.58 g/m*3 12.5 C 0 km/h
464 08-09-2006 05:20:02 12.5 C 8.58 g/m*3 12.5 C 0 km/h
465 08-09-2006 05:30:02 12.2 C 8.52 g/m*3 12.2 C 0 km/h
466 08-09-2006 05:40:01 12 C 8.53 g/m*3 12 C 0 km/h
467 08-09-2006 05:50:02 11.8 C 8.63 g/m*3 11.8 C 0 km/h
468 08-09-2006 06:00:02 11.7 C 8.68 g/m*3 11.7 C 0 km/h
469 08-09-2006 06:10:02 11.8 C 8.74 g/m*3 11.8 C 0 km/h
470 08-09-2006 06:20:02 11.9 C 8.9 g/m*3 11.9 C 0 km/h
471 08-09-2006 06:30:02 12.1 C 8.9 g/m*3 12.1 C 0 km/h
472 08-09-2006 06:40:02 12.2 C 8.74 g/m*3 12.2 C 0 km/h
473 08-09-2006 06:50:02 12.4 C 8.85 g/m*3 12.4 C 0 km/h
474 08-09-2006 07:00:02 12.2 C 8.74 g/m*3 12.2 C 0 km/h
475 08-09-2006 07:10:02 12.1 C 8.58 g/m*3 12.1 C 0 km/h
Sensor: Nr:Datum:Temp:Abs-Feuchte:Windchill:Wind:
Aussen-T/F 476 08-09-2006 07:20:02 12.1 C 8.69 g/m*3 12.1 C 0 km/h
477 08-09-2006 07:30:02 12.2 C 8.74 g/m*3 12.2 C 0 km/h
478 08-09-2006 07:40:03 12 C 8.63 g/m*3 12 C 0 km/h
479 08-09-2006 07:50:01 12 C 8.63 g/m*3 12 C 0 km/h
480 08-09-2006 08:00:01 12.4 C 8.96 g/m*3 12.4 C 0 km/h
481 08-09-2006 08:10:04 12.7 C 9.02 g/m*3 12.7 C 0 km/h
482 08-09-2006 08:20:02 12.7 C 8.79 g/m*3 12.7 C 0 km/h
483 08-09-2006 08:30:02 12.9 C 9.02 g/m*3 12.9 C 0 km/h
484 08-09-2006 08:40:02 13.3 C 9.13 g/m*3 13.3 C 0 km/h
485 08-09-2006 08:50:03 13.8 C 9.06 g/m*3 13.8 C 0 km/h
486 08-09-2006 09:00:03 13.8 C 8.94 g/m*3 13.8 C 0 km/h
487 08-09-2006 09:10:02 13.7 C 9 g/m*3 13.7 C 0 km/h
488 08-09-2006 09:20:02 13.6 C 8.94 g/m*3 13.6 C 0 km/h
489 08-09-2006 09:30:02 13.7 C 8.88 g/m*3 13.7 C 0 km/h
490 08-09-2006 09:40:02 14.2 C 8.79 g/m*3 14.2 C 0 km/h
491 08-09-2006 09:50:02 14.7 C 8.56 g/m*3 14.7 C 0 km/h
492 08-09-2006 10:00:02 15.2 C 8.57 g/m*3 15.2 C 0 km/h
493 08-09-2006 10:10:01 15 C 8.33 g/m*3 15 C 0 km/h
494 08-09-2006 10:20:01 14.8 C 8.11 g/m*3 14.8 C 0 km/h
495 08-09-2006 10:30:01 14.8 C 8.11 g/m*3 14.8 C 0 km/h
496 08-09-2006 10:40:01 16.2 C 8.27 g/m*3 16.2 C 0 km/h
497 08-09-2006 10:50:03 16.8 C 8.29 g/m*3 16.8 C 0 km/h
498 08-09-2006 11:00:03 16.9 C 7.91 g/m*3 16.9 C 0 km/h
499 08-09-2006 11:10:02 16.8 C 7.58 g/m*3 16.8 C 0 km/h
500 08-09-2006 11:20:02 17.2 C 7.61 g/m*3 17.2 C 0 km/h
Sensor: Nr:Datum:Temp:Abs-Feuchte:Windchill:Wind:
Aussen-T/F 501 08-09-2006 11:30:02 18.3 C 7.66 g/m*3 18.3 C 0 km/h
502 08-09-2006 11:40:02 17.3 C 7.07 g/m*3 17.3 C 0 km/h
503 08-09-2006 11:50:02 17.5 C 7.45 g/m*3 17.5 C 0 km/h
504 08-09-2006 12:00:02 18.1 C 7.11 g/m*3 18.1 C 0 km/h
505 08-09-2006 12:10:01 18.9 C 7.45 g/m*3 18.9 C 0 km/h
506 08-09-2006 12:20:01 19.4 C 7.01 g/m*3 19.4 C 0 km/h
507 08-09-2006 12:30:01 19 C 6.84 g/m*3 19 C 0 km/h
508 08-09-2006 12:40:01 18.5 C 6.65 g/m*3 18.5 C 0 km/h
509 08-09-2006 12:50:02 18.7 C 6.72 g/m*3 18.7 C 0 km/h
510 08-09-2006 13:00:02 18.7 C 6.56 g/m*3 18.7 C 0 km/h
511 08-09-2006 13:10:02 19.6 C 6.75 g/m*3 19.6 C 0 km/h
512 08-09-2006 13:20:01 19.3 C 6.63 g/m*3 19.3 C 0 km/h
513 08-09-2006 13:30:01 19.2 C 6.6 g/m*3 19.2 C 0 km/h
514 08-09-2006 13:40:01 20 C 6.57 g/m*3 20 C 0 km/h
515 08-09-2006 13:50:02 19.9 C 6.36 g/m*3 19.9 C 0 km/h
516 08-09-2006 14:00:02 21.5 C 6.98 g/m*3 21.5 C 0 km/h
517 08-09-2006 14:10:01 20.3 C 6.33 g/m*3 20.3 C 0 km/h
518 08-09-2006 14:20:01 20.1 C 6.61 g/m*3 20.1 C 0 km/h
519 08-09-2006 14:30:01 21.9 C 6.56 g/m*3 21.9 C 0 km/h
520 08-09-2006 14:40:01 21 C 6.41 g/m*3 21 C 0 km/h
521 08-09-2006 14:50:02 21.4 C 6.56 g/m*3 21.4 C 0 km/h
522 08-09-2006 15:00:02 22.7 C 6.47 g/m*3 22.7 C 0 km/h
523 08-09-2006 15:10:02 23.3 C 6.06 g/m*3 23.3 C 0 km/h
524 08-09-2006 15:20:03 22.7 C 6.47 g/m*3 22.7 C 0 km/h
525 08-09-2006 15:30:03 22.7 C 6.26 g/m*3 22.7 C 0 km/h
Sensor: Nr:Datum:Temp:Abs-Feuchte:Windchill:Wind:
Aussen-T/F 526 08-09-2006 15:40:02 23 C 6.37 g/m*3 23 C 0 km/h
527 08-09-2006 15:50:03 24.2 C 6.16 g/m*3 24.2 C 0 km/h
528 08-09-2006 16:00:04 23.4 C 6.1 g/m*3 23.4 C 0 km/h
529 08-09-2006 16:10:03 23.3 C 6.27 g/m*3 23.3 C 0 km/h
530 08-09-2006 16:20:02 24 C 5.87 g/m*3 24 C 0 km/h
531 08-09-2006 16:30:02 23.4 C 6.1 g/m*3 23.4 C 0 km/h
532 08-09-2006 16:40:02 24.3 C 5.97 g/m*3 24.3 C 0 km/h
533 08-09-2006 16:50:02 24.5 C 6.27 g/m*3 24.5 C 0 km/h
534 08-09-2006 17:00:02 22.5 C 5.99 g/m*3 22.5 C 0 km/h
535 08-09-2006 17:10:02 24.1 C 6.35 g/m*3 24.1 C 0 km/h
536 08-09-2006 17:20:01 24.3 C 5.97 g/m*3 24.3 C 0 km/h
537 08-09-2006 17:30:01 24.2 C 5.72 g/m*3 24.2 C 0 km/h
538 08-09-2006 17:40:02 23.6 C 5.96 g/m*3 23.6 C 0 km/h
539 08-09-2006 17:50:03 23.3 C 6.27 g/m*3 23.3 C 0 km/h
540 08-09-2006 18:00:03 23.3 C 5.85 g/m*3 23.3 C 0 km/h
541 08-09-2006 18:10:03 23.8 C 5.59 g/m*3 23.8 C 0 km/h
542 08-09-2006 18:20:03 22.9 C 5.72 g/m*3 22.9 C 0 km/h
543 08-09-2006 18:30:03 22.7 C 6.06 g/m*3 22.7 C 0 km/h
544 08-09-2006 18:40:03 22.4 C 6.16 g/m*3 22.4 C 0 km/h
545 08-09-2006 18:50:02 22.3 C 6.12 g/m*3 22.3 C 0 km/h
546 08-09-2006 19:00:03 22.1 C 6.05 g/m*3 22.1 C 0 km/h
547 08-09-2006 19:10:02 22.3 C 6.52 g/m*3 22.3 C 0 km/h
548 08-09-2006 19:20:02 22 C 6.4 g/m*3 22 C 0 km/h
549 08-09-2006 19:30:02 21.6 C 6.83 g/m*3 21.6 C 0 km/h
550 08-09-2006 19:40:03 20.6 C 7.16 g/m*3 20.6 C 0 km/h
Sensor: Nr:Datum:Temp:Abs-Feuchte:Windchill:Wind:
Aussen-T/F 551 08-09-2006 19:50:02 19.5 C 7.22 g/m*3 19.5 C 0 km/h
552 08-09-2006 20:00:02 18.4 C 7.24 g/m*3 18.4 C 0 km/h
553 08-09-2006 20:10:02 18 C 6.91 g/m*3 18 C 0 km/h
554 08-09-2006 20:20:01 17.5 C 7.01 g/m*3 17.5 C 0 km/h
555 08-09-2006 20:30:01 16.8 C 7.01 g/m*3 16.8 C 0 km/h
556 08-09-2006 20:40:04 16.3 C 7.08 g/m*3 16.3 C 0 km/h
557 08-09-2006 20:50:03 15.8 C 7.27 g/m*3 15.8 C 0 km/h
558 08-09-2006 21:00:03 15.6 C 7.31 g/m*3 15.6 C 0 km/h
559 08-09-2006 21:10:03 15.5 C 7.27 g/m*3 15.5 C 0 km/h
560 08-09-2006 21:20:02 15.1 C 7.22 g/m*3 15.1 C 0 km/h
561 08-09-2006 21:30:02 15.2 C 7.4 g/m*3 15.2 C 0 km/h
562 08-09-2006 21:40:02 15 C 7.44 g/m*3 15 C 0 km/h
563 08-09-2006 21:50:02 14.8 C 7.6 g/m*3 14.8 C 0 km/h
564 08-09-2006 22:00:02 14.6 C 7.63 g/m*3 14.6 C 0 km/h
565 08-09-2006 22:10:02 14.5 C 7.71 g/m*3 14.5 C 0 km/h
566 08-09-2006 22:20:02 14.5 C 7.71 g/m*3 14.5 C 0 km/h
567 08-09-2006 22:30:02 14.2 C 7.69 g/m*3 14.2 C 0 km/h
568 08-09-2006 22:40:02 14.1 C 7.65 g/m*3 14.1 C 0 km/h
569 08-09-2006 22:50:02 14.1 C 7.77 g/m*3 14.1 C 0 km/h
570 08-09-2006 23:00:02 13.8 C 7.74 g/m*3 13.8 C 0 km/h
571 08-09-2006 23:10:02 13.7 C 7.7 g/m*3 13.7 C 0 km/h
572 08-09-2006 23:20:01 13.5 C 7.6 g/m*3 13.5 C 0 km/h
573 08-09-2006 23:30:01 13.4 C 7.67 g/m*3 13.4 C 0 km/h
574 08-09-2006 23:40:02 13.2 C 7.46 g/m*3 13.2 C 0 km/h
575 08-09-2006 23:50:02 13.1 C 7.53 g/m*3 13.1 C 0 km/h
Sensor: Nr:Datum:Temp:Abs-Feuchte:Windchill:Wind:
Aussen-T/F 576 09-09-2006 00:00:02 12.9 C 7.66 g/m*3 12.9 C 0 km/h
577 09-09-2006 00:10:03 12.7 C 7.79 g/m*3 12.7 C 0 km/h
578 09-09-2006 00:20:04 12.5 C 7.59 g/m*3 12.5 C 0 km/h
579 09-09-2006 00:30:04 12.4 C 7.54 g/m*3 12.4 C 0 km/h
580 09-09-2006 00:40:03 12.2 C 7.55 g/m*3 12.2 C 0 km/h
581 09-09-2006 00:50:02 12.1 C 7.51 g/m*3 12.1 C 0 km/h
582 09-09-2006 01:00:02 12 C 7.57 g/m*3 12 C 0 km/h
583 09-09-2006 01:10:03 11.9 C 7.63 g/m*3 11.9 C 0 km/h
584 09-09-2006 01:20:03 11.6 C 7.48 g/m*3 11.6 C 0 km/h
585 09-09-2006 01:30:03 11.5 C 7.64 g/m*3 11.5 C 0 km/h
586 09-09-2006 01:40:02 11.4 C 7.6 g/m*3 11.4 C 0 km/h
587 09-09-2006 01:50:02 11.2 C 7.6 g/m*3 11.2 C 0 km/h
588 09-09-2006 02:00:03 11 C 7.51 g/m*3 11 C 0 km/h
589 09-09-2006 02:10:02 10.9 C 7.66 g/m*3 10.9 C 0 km/h
590 09-09-2006 02:20:03 10.9 C 7.76 g/m*3 10.9 C 0 km/h
591 09-09-2006 02:30:03 10.8 C 7.81 g/m*3 10.8 C 0 km/h
592 09-09-2006 02:40:02 10.7 C 7.76 g/m*3 10.7 C 0 km/h
593 09-09-2006 02:51:04 10.6 C 7.71 g/m*3 10.6 C 0 km/h
594 09-09-2006 03:01:04 10.5 C 7.76 g/m*3 10.5 C 0 km/h
595 09-09-2006 03:11:03 10.4 C 7.81 g/m*3 10.4 C 0 km/h
596 09-09-2006 03:21:04 10.4 C 7.81 g/m*3 10.4 C 0 km/h
597 09-09-2006 03:31:02 10.2 C 7.71 g/m*3 10.2 C 0 km/h
598 09-09-2006 03:41:03 10.1 C 7.66 g/m*3 10.1 C 0 km/h
599 09-09-2006 03:51:03 10.1 C 7.66 g/m*3 10.1 C 0 km/h
600 09-09-2006 04:01:03 9.9 C 7.66 g/m*3 9.9 C 0 km/h
Sensor: Nr:Datum:Temp:Abs-Feuchte:Windchill:Wind:
Aussen-T/F 601 09-09-2006 04:11:03 9.8 C 7.7 g/m*3 9.8 C 0 km/h
602 09-09-2006 04:21:03 9.8 C 7.79 g/m*3 9.8 C 0 km/h
603 09-09-2006 04:31:02 9.7 C 7.74 g/m*3 9.7 C 0 km/h
604 09-09-2006 04:41:02 9.6 C 7.69 g/m*3 9.6 C 0 km/h
605 09-09-2006 04:51:03 9.5 C 7.65 g/m*3 9.5 C 0 km/h
606 09-09-2006 05:01:02 9.4 C 7.69 g/m*3 9.4 C 0 km/h
607 09-09-2006 05:11:02 9.3 C 7.64 g/m*3 9.3 C 0 km/h
608 09-09-2006 05:21:02 9.2 C 7.59 g/m*3 9.2 C 0 km/h
609 09-09-2006 05:31:02 9.3 C 7.73 g/m*3 9.3 C 0 km/h
610 09-09-2006 05:41:02 9.1 C 7.54 g/m*3 9.1 C 0 km/h
611 09-09-2006 05:51:02 9.1 C 7.63 g/m*3 9.1 C 0 km/h
612 09-09-2006 06:01:02 9 C 7.58 g/m*3 9 C 0 km/h
613 09-09-2006 06:11:02 9 C 7.58 g/m*3 9 C 0 km/h
614 09-09-2006 06:21:02 8.9 C 7.62 g/m*3 8.9 C 0 km/h
615 09-09-2006 06:31:02 8.7 C 7.52 g/m*3 8.7 C 0 km/h
616 09-09-2006 06:41:02 8.7 C 7.52 g/m*3 8.7 C 0 km/h
617 09-09-2006 06:51:02 8.6 C 7.48 g/m*3 8.6 C 0 km/h
618 09-09-2006 07:01:02 8.6 C 7.48 g/m*3 8.6 C 0 km/h
619 09-09-2006 07:11:02 8.6 C 7.48 g/m*3 8.6 C 0 km/h
620 09-09-2006 07:21:01 8.6 C 7.56 g/m*3 8.6 C 0 km/h
621 09-09-2006 07:31:01 8.6 C 7.56 g/m*3 8.6 C 0 km/h
622 09-09-2006 07:41:01 8.7 C 7.61 g/m*3 8.7 C 0 km/h
623 09-09-2006 07:51:02 8.7 C 7.61 g/m*3 8.7 C 0 km/h
624 09-09-2006 08:01:02 8.8 C 7.75 g/m*3 8.8 C 0 km/h
625 09-09-2006 08:11:02 8.8 C 7.75 g/m*3 8.8 C 0 km/h
Sensor: Nr:Datum:Temp:Abs-Feuchte:Windchill:Wind:
Aussen-T/F 626 09-09-2006 08:21:02 8.9 C 7.8 g/m*3 8.9 C 0 km/h
627 09-09-2006 08:31:01 9 C 7.76 g/m*3 9 C 0 km/h
628 09-09-2006 08:41:01 9.2 C 7.86 g/m*3 9.2 C 0 km/h
629 09-09-2006 08:51:02 9.3 C 8 g/m*3 9.3 C 0 km/h
630 09-09-2006 09:01:02 9.6 C 8.15 g/m*3 9.6 C 0 km/h
631 09-09-2006 09:11:02 9.8 C 8.26 g/m*3 9.8 C 0 km/h
632 09-09-2006 09:21:01 10.1 C 8.32 g/m*3 10.1 C 0 km/h
633 09-09-2006 09:31:01 10.7 C 8.64 g/m*3 10.7 C 0 km/h
634 09-09-2006 09:41:01 11.1 C 8.76 g/m*3 11.1 C 0 km/h
635 09-09-2006 09:51:02 11.7 C 8.89 g/m*3 11.7 C 0 km/h
636 09-09-2006 10:01:02 12.4 C 8.74 g/m*3 12.4 C 0 km/h
637 09-09-2006 10:11:02 12.7 C 8.79 g/m*3 12.7 C 0 km/h
638 09-09-2006 10:21:02 13.4 C 8.25 g/m*3 13.4 C 0 km/h
639 09-09-2006 10:31:03 14 C 8.32 g/m*3 14 C 0 km/h
640 09-09-2006 10:41:03 14.4 C 8.16 g/m*3 14.4 C 0 km/h
641 09-09-2006 10:51:02 15 C 7.95 g/m*3 15 C 0 km/h
642 09-09-2006 11:01:02 15.4 C 8.01 g/m*3 15.4 C 0 km/h
643 09-09-2006 11:11:02 15.6 C 7.85 g/m*3 15.6 C 0 km/h
644 09-09-2006 11:21:02 16.2 C 8 g/m*3 16.2 C 0 km/h
645 09-09-2006 11:34:02 16.7 C 7.96 g/m*3 16.7 C 0 km/h
646 09-09-2006 11:44:02 17.2 C 7.91 g/m*3 17.2 C 0 km/h
647 09-09-2006 11:54:03 17.5 C 8.05 g/m*3 17.5 C 0 km/h
648 09-09-2006 12:04:03 18.1 C 7.88 g/m*3 18.1 C 0 km/h
649 09-09-2006 12:14:03 18.4 C 8.02 g/m*3 18.4 C 0 km/h
650 09-09-2006 12:24:02 18.7 C 7.84 g/m*3 18.7 C 0 km/h
Sensor: Nr:Datum:Temp:Abs-Feuchte:Windchill:Wind:
Aussen-T/F 651 09-09-2006 12:34:02 19.2 C 7.75 g/m*3 19.2 C 0 km/h
652 09-09-2006 12:44:02 19.4 C 7.84 g/m*3 19.4 C 0 km/h
653 09-09-2006 12:54:02 19.6 C 7.77 g/m*3 19.6 C 0 km/h
654 09-09-2006 13:04:02 19.9 C 7.9 g/m*3 19.9 C 0 km/h
655 09-09-2006 13:14:02 20.2 C 7.34 g/m*3 20.2 C 0 km/h
656 09-09-2006 13:24:01 20.9 C 7.47 g/m*3 20.9 C 0 km/h
657 09-09-2006 13:34:03 21.3 C 7.46 g/m*3 21.3 C 0 km/h
658 09-09-2006 13:44:03 21.7 C 7.06 g/m*3 21.7 C 0 km/h
659 09-09-2006 13:54:01 22.2 C 6.48 g/m*3 22.2 C 0 km/h
660 09-09-2006 14:04:02 22.8 C 6.71 g/m*3 22.8 C 0 km/h
661 09-09-2006 14:14:02 23.4 C 6.73 g/m*3 23.4 C 0 km/h
662 09-09-2006 14:24:01 23.7 C 6.42 g/m*3 23.7 C 0 km/h
663 09-09-2006 14:34:02 24 C 6.53 g/m*3 24 C 0 km/h
664 09-09-2006 14:44:02 24.6 C 6.53 g/m*3 24.6 C 0 km/h
665 09-09-2006 14:54:03 24.8 C 6.37 g/m*3 24.8 C 0 km/h
666 09-09-2006 15:04:03 25.1 C 6.25 g/m*3 25.1 C 0 km/h
667 09-09-2006 15:14:03 25.4 C 6.12 g/m*3 25.4 C 0 km/h
668 09-09-2006 15:24:03 25.6 C 5.95 g/m*3 25.6 C 0 km/h
669 09-09-2006 15:34:03 25.5 C 6.16 g/m*3 25.5 C 0 km/h
670 09-09-2006 15:44:03 26.3 C 6.44 g/m*3 26.3 C 0 km/h
671 09-09-2006 15:54:02 26.3 C 5.94 g/m*3 26.3 C 0 km/h
672 09-09-2006 16:04:03 26.8 C 6.36 g/m*3 26.8 C 0 km/h
673 09-09-2006 16:14:03 27 C 5.92 g/m*3 27 C 0 km/h
674 09-09-2006 16:24:02 27.3 C 6.02 g/m*3 27.3 C 0 km/h
675 09-09-2006 16:34:08 27.7 C 6.15 g/m*3 27.7 C 0 km/h
Sensor: Nr:Datum:Temp:Abs-Feuchte:Windchill:Wind:
Aussen-T/F 676 09-09-2006 16:44:08 28.2 C 5.77 g/m*3 28.2 C 0 km/h
677 09-09-2006 16:54:03 27.9 C 5.68 g/m*3 27.9 C 0 km/h
678 09-09-2006 17:04:02 28.3 C 5.81 g/m*3 28.3 C 0 km/h
679 09-09-2006 17:14:02 28.9 C 5.71 g/m*3 28.9 C 0 km/h
680 09-09-2006 17:24:02 28.7 C 5.65 g/m*3 28.7 C 0 km/h
681 09-09-2006 17:34:02 28.9 C 5.71 g/m*3 28.9 C 0 km/h
682 09-09-2006 17:44:02 28.9 C 5.71 g/m*3 28.9 C 0 km/h
683 09-09-2006 17:54:02 28.8 C 5.68 g/m*3 28.8 C 0 km/h
684 09-09-2006 18:04:02 28.7 C 5.65 g/m*3 28.7 C 0 km/h
685 09-09-2006 18:14:02 28.3 C 5.81 g/m*3 28.3 C 0 km/h
686 09-09-2006 18:24:02 27.4 C 5.26 g/m*3 27.4 C 0 km/h
687 09-09-2006 18:34:02 27.9 C 5.68 g/m*3 27.9 C 0 km/h
688 09-09-2006 18:44:02 27.5 C 5.56 g/m*3 27.5 C 0 km/h
689 09-09-2006 18:54:02 27.3 C 6.54 g/m*3 27.3 C 0 km/h
690 09-09-2006 19:04:03 26.9 C 6.65 g/m*3 26.9 C 0 km/h
691 09-09-2006 19:14:03 26.1 C 6.12 g/m*3 26.1 C 0 km/h
692 09-09-2006 19:24:02 24.5 C 6.71 g/m*3 24.5 C 0 km/h
693 09-09-2006 19:34:02 23.4 C 6.73 g/m*3 23.4 C 0 km/h
694 09-09-2006 19:44:02 22.3 C 6.71 g/m*3 22.3 C 0 km/h
695 09-09-2006 19:54:02 21.2 C 6.86 g/m*3 21.2 C 0 km/h
696 09-09-2006 20:04:02 20.6 C 6.98 g/m*3 20.6 C 0 km/h
697 09-09-2006 20:14:02 19.9 C 6.87 g/m*3 19.9 C 0 km/h
698 09-09-2006 20:24:02 19.6 C 6.92 g/m*3 19.6 C 0 km/h
699 09-09-2006 20:34:02 19.4 C 7.01 g/m*3 19.4 C 0 km/h
700 09-09-2006 20:44:02 19.1 C 7.05 g/m*3 19.1 C 0 km/h
Sensor: Nr:Datum:Temp:Abs-Feuchte:Windchill:Wind:
Aussen-T/F 701 09-09-2006 20:54:02 18.7 C 7.2 g/m*3 18.7 C 0 km/h
702 09-09-2006 21:04:03 18.1 C 7.11 g/m*3 18.1 C 0 km/h
703 09-09-2006 21:14:03 17.8 C 7.29 g/m*3 17.8 C 0 km/h
704 09-09-2006 21:24:02 17.7 C 7.24 g/m*3 17.7 C 0 km/h
705 09-09-2006 21:34:02 17.5 C 7.31 g/m*3 17.5 C 0 km/h
706 09-09-2006 21:44:02 17.3 C 7.37 g/m*3 17.3 C 0 km/h
707 09-09-2006 21:54:01 17.2 C 7.47 g/m*3 17.2 C 0 km/h
708 09-09-2006 22:04:01 17 C 7.38 g/m*3 17 C 0 km/h
709 09-09-2006 22:14:01 16.8 C 7.58 g/m*3 16.8 C 0 km/h
710 09-09-2006 22:24:02 16.4 C 7.54 g/m*3 16.4 C 0 km/h
711 09-09-2006 22:34:02 16.4 C 7.68 g/m*3 16.4 C 0 km/h
712 09-09-2006 22:44:02 16.2 C 7.72 g/m*3 16.2 C 0 km/h
713 09-09-2006 22:54:02 15.9 C 7.72 g/m*3 15.9 C 0 km/h
714 09-09-2006 23:04:02 15.6 C 7.71 g/m*3 15.6 C 0 km/h
715 09-09-2006 23:14:02 15.4 C 7.75 g/m*3 15.4 C 0 km/h
716 09-09-2006 23:24:01 15.1 C 7.74 g/m*3 15.1 C 0 km/h
717 09-09-2006 23:34:01 15.1 C 7.87 g/m*3 15.1 C 0 km/h
718 09-09-2006 23:44:01 14.8 C 7.98 g/m*3 14.8 C 0 km/h
719 09-09-2006 23:54:02 14.8 C 8.11 g/m*3 14.8 C 0 km/h
720 10-09-2006 00:04:02 14.6 C 8.01 g/m*3 14.6 C 0 km/h
721 10-09-2006 00:14:02 14.3 C 7.99 g/m*3 14.3 C 0 km/h
722 10-09-2006 00:24:03 14.3 C 7.99 g/m*3 14.3 C 0 km/h
723 10-09-2006 00:34:02 14.3 C 7.99 g/m*3 14.3 C 0 km/h
724 10-09-2006 00:44:02 14.3 C 7.99 g/m*3 14.3 C 0 km/h
725 10-09-2006 00:54:02 14.3 C 7.99 g/m*3 14.3 C 0 km/h
Sensor: Nr:Datum:Temp:Abs-Feuchte:Windchill:Wind:
Aussen-T/F 726 10-09-2006 01:04:02 14.3 C 7.99 g/m*3 14.3 C 0 km/h
727 10-09-2006 01:14:02 14.3 C 7.99 g/m*3 14.3 C 0 km/h
728 10-09-2006 01:24:03 14.3 C 7.99 g/m*3 14.3 C 0 km/h
729 10-09-2006 01:34:02 14.3 C 7.99 g/m*3 14.3 C 0 km/h
730 10-09-2006 01:44:02 14.3 C 7.99 g/m*3 14.3 C 0 km/h
731 10-09-2006 01:54:03 14.3 C 7.99 g/m*3 14.3 C 0 km/h
732 10-09-2006 02:04:03 14.3 C 7.99 g/m*3 14.3 C 0 km/h
733 10-09-2006 02:14:03 14.3 C 7.99 g/m*3 14.3 C 0 km/h
734 10-09-2006 02:24:02 14.3 C 7.99 g/m*3 14.3 C 0 km/h
735 10-09-2006 02:34:02 14.3 C 7.99 g/m*3 14.3 C 0 km/h
736 10-09-2006 02:44:02 14.3 C 7.99 g/m*3 14.3 C 0 km/h
737 10-09-2006 02:55:05 14.3 C 7.99 g/m*3 14.3 C 0 km/h
738 10-09-2006 03:05:05 14.3 C 7.99 g/m*3 14.3 C 0 km/h
739 10-09-2006 03:15:04 14.3 C 7.99 g/m*3 14.3 C 0 km/h
740 10-09-2006 03:25:04 14.3 C 7.99 g/m*3 14.3 C 0 km/h
741 10-09-2006 03:35:02 14.3 C 7.99 g/m*3 14.3 C 0 km/h
742 10-09-2006 03:45:02 14.3 C 7.99 g/m*3 14.3 C 0 km/h
743 10-09-2006 03:55:02 14.3 C 7.99 g/m*3 14.3 C 0 km/h
744 10-09-2006 04:05:03 14.3 C 7.99 g/m*3 14.3 C 0 km/h
745 10-09-2006 04:15:02 14.3 C 7.99 g/m*3 14.3 C 0 km/h
746 10-09-2006 04:25:03 14.3 C 7.99 g/m*3 14.3 C 0 km/h
747 10-09-2006 04:35:02 14.3 C 7.99 g/m*3 14.3 C 0 km/h
748 10-09-2006 04:45:03 14.3 C 7.99 g/m*3 14.3 C 0 km/h
749 10-09-2006 04:55:03 14.3 C 7.99 g/m*3 14.3 C 0 km/h
750 10-09-2006 05:05:02 14.3 C 7.99 g/m*3 14.3 C 0 km/h
Sensor: Nr:Datum:Temp:Abs-Feuchte:Windchill:Wind:
Aussen-T/F 751 10-09-2006 05:15:02 14.3 C 7.99 g/m*3 14.3 C 0 km/h
752 10-09-2006 05:25:02 10.7 C 8.15 g/m*3 10.7 C 0 km/h
753 10-09-2006 05:35:03 10.6 C 8.1 g/m*3 10.6 C 0 km/h
754 10-09-2006 05:45:02 10.4 C 8 g/m*3 10.4 C 0 km/h
755 10-09-2006 05:55:03 10.4 C 8 g/m*3 10.4 C 0 km/h
756 10-09-2006 06:05:02 10.4 C 8 g/m*3 10.4 C 0 km/h
757 10-09-2006 06:15:01 10.4 C 8 g/m*3 10.4 C 0 km/h
758 10-09-2006 06:25:01 10.4 C 8 g/m*3 10.4 C 0 km/h
759 10-09-2006 06:35:02 10.4 C 8 g/m*3 10.4 C 0 km/h
760 10-09-2006 06:45:02 10.4 C 8 g/m*3 10.4 C 0 km/h
761 10-09-2006 06:55:03 10.4 C 8 g/m*3 10.4 C 0 km/h
762 10-09-2006 07:05:02 10.4 C 8 g/m*3 10.4 C 0 km/h
763 10-09-2006 07:15:01 10.2 C 7.9 g/m*3 10.2 C 0 km/h
764 10-09-2006 07:25:01 10.2 C 7.9 g/m*3 10.2 C 0 km/h
765 10-09-2006 07:35:01 10.2 C 7.9 g/m*3 10.2 C 0 km/h
766 10-09-2006 07:45:02 10.2 C 7.9 g/m*3 10.2 C 0 km/h
767 10-09-2006 07:55:02 10.2 C 7.9 g/m*3 10.2 C 0 km/h
768 10-09-2006 08:05:02 10.5 C 8.15 g/m*3 10.5 C 0 km/h
769 10-09-2006 08:15:01 10.5 C 8.15 g/m*3 10.5 C 0 km/h
770 10-09-2006 08:25:01 10.5 C 8.15 g/m*3 10.5 C 0 km/h
771 10-09-2006 08:35:01 10.5 C 8.15 g/m*3 10.5 C 0 km/h
772 10-09-2006 08:45:02 11.2 C 8.51 g/m*3 11.2 C 0 km/h
773 10-09-2006 08:55:02 11.5 C 8.68 g/m*3 11.5 C 0 km/h
774 10-09-2006 09:05:02 11.7 C 8.79 g/m*3 11.7 C 0 km/h
775 10-09-2006 09:15:02 11.8 C 8.84 g/m*3 11.8 C 0 km/h
Sensor: Nr:Datum:Temp:Abs-Feuchte:Windchill:Wind:
Aussen-T/F 776 10-09-2006 09:25:02 12.4 C 9.07 g/m*3 12.4 C 0 km/h
777 10-09-2006 09:35:02 12.7 C 9.02 g/m*3 12.7 C 0 km/h
778 10-09-2006 09:45:02 12.9 C 9.13 g/m*3 12.9 C 0 km/h
779 10-09-2006 09:55:02 13.6 C 8.94 g/m*3 13.6 C 0 km/h
780 10-09-2006 10:05:03 13.8 C 8.94 g/m*3 13.8 C 0 km/h
781 10-09-2006 10:15:02 14.4 C 8.9 g/m*3 14.4 C 0 km/h
782 10-09-2006 10:25:02 15 C 8.85 g/m*3 15 C 0 km/h
783 10-09-2006 10:35:02 15.4 C 8.93 g/m*3 15.4 C 0 km/h
784 10-09-2006 10:45:01 15.8 C 8.75 g/m*3 15.8 C 0 km/h
785 10-09-2006 10:55:01 16.4 C 8.93 g/m*3 16.4 C 0 km/h
786 10-09-2006 11:05:02 17 C 8.25 g/m*3 17 C 0 km/h
787 10-09-2006 11:15:02 17.4 C 8.74 g/m*3 17.4 C 0 km/h
788 10-09-2006 11:25:02 17.8 C 8.95 g/m*3 17.8 C 0 km/h
789 10-09-2006 11:35:02 18.3 C 8.91 g/m*3 18.3 C 0 km/h
790 10-09-2006 11:45:01 18.8 C 9.02 g/m*3 18.8 C 0 km/h
791 10-09-2006 11:55:01 19.5 C 8.56 g/m*3 19.5 C 0 km/h
792 10-09-2006 12:05:03 19.7 C 8.49 g/m*3 19.7 C 0 km/h
793 10-09-2006 12:15:02 20.3 C 8.79 g/m*3 20.3 C 0 km/h
794 10-09-2006 12:25:02 20.7 C 8.46 g/m*3 20.7 C 0 km/h
795 10-09-2006 12:35:02 21 C 9.16 g/m*3 21 C 0 km/h
796 10-09-2006 12:45:01 21.4 C 8.25 g/m*3 21.4 C 0 km/h
797 10-09-2006 12:55:01 21.8 C 8.44 g/m*3 21.8 C 0 km/h
798 10-09-2006 13:05:02 22 C 8.15 g/m*3 22 C 0 km/h
799 10-09-2006 13:15:01 22.3 C 8.49 g/m*3 22.3 C 0 km/h
800 10-09-2006 13:25:01 22.8 C 8.13 g/m*3 22.8 C 0 km/h
Sensor: Nr:Datum:Temp:Abs-Feuchte:Windchill:Wind:
Aussen-T/F 801 10-09-2006 13:35:03 23.3 C 7.95 g/m*3 23.3 C 0 km/h
802 10-09-2006 13:45:02 23.9 C 8.22 g/m*3 23.9 C 0 km/h
803 10-09-2006 13:55:02 24.4 C 8.23 g/m*3 24.4 C 0 km/h
804 10-09-2006 14:05:02 24.9 C 8.47 g/m*3 24.9 C 0 km/h
805 10-09-2006 14:15:02 25.5 C 8.29 g/m*3 25.5 C 0 km/h
806 10-09-2006 14:25:02 25.8 C 7.7 g/m*3 25.8 C 0 km/h
807 10-09-2006 14:35:02 26.1 C 7.83 g/m*3 26.1 C 0 km/h
808 10-09-2006 14:45:02 26.6 C 8.56 g/m*3 26.6 C 0 km/h
809 10-09-2006 14:55:02 27.1 C 8.02 g/m*3 27.1 C 0 km/h
810 10-09-2006 15:05:02 27.6 C 7.98 g/m*3 27.6 C 0 km/h
811 10-09-2006 15:15:02 27.6 C 7.71 g/m*3 27.6 C 0 km/h
812 10-09-2006 15:25:03 28 C 7.61 g/m*3 28 C 0 km/h
813 10-09-2006 15:35:02 27.7 C 8.02 g/m*3 27.7 C 0 km/h
814 10-09-2006 15:45:02 27.7 C 9.36 g/m*3 27.7 C 0 km/h
815 10-09-2006 15:55:03 27.7 C 9.36 g/m*3 27.7 C 0 km/h
816 10-09-2006 16:05:02 27.6 C 8.25 g/m*3 27.6 C 0 km/h
817 10-09-2006 16:15:02 29.1 C 8.38 g/m*3 29.1 C 0 km/h
818 10-09-2006 16:25:03 30.1 C 7.93 g/m*3 30.1 C 0 km/h
819 10-09-2006 16:35:02 30 C 7.58 g/m*3 30 C 0 km/h
820 10-09-2006 16:45:01 30.3 C 8.01 g/m*3 30.3 C 0 km/h
821 10-09-2006 16:55:01 30.2 C 7.66 g/m*3 30.2 C 0 km/h
822 10-09-2006 17:05:03 30.7 C 7.56 g/m*3 30.7 C 0 km/h
823 10-09-2006 17:15:02 30.8 C 7.28 g/m*3 30.8 C 0 km/h
824 10-09-2006 17:25:02 30.1 C 7.62 g/m*3 30.1 C 0 km/h
825 10-09-2006 17:35:02 30.1 C 8.23 g/m*3 30.1 C 0 km/h
Sensor: Nr:Datum:Temp:Abs-Feuchte:Windchill:Wind:
Aussen-T/F 826 10-09-2006 17:45:01 30.4 C 8.06 g/m*3 30.4 C 0 km/h
827 10-09-2006 17:55:01 30.4 C 8.37 g/m*3 30.4 C 0 km/h
828 10-09-2006 18:05:02 30.1 C 9.15 g/m*3 30.1 C 0 km/h
829 10-09-2006 18:15:02 30 C 8.19 g/m*3 30 C 0 km/h
830 10-09-2006 18:25:02 29.4 C 8.51 g/m*3 29.4 C 0 km/h
831 10-09-2006 18:35:02 29 C 8.04 g/m*3 29 C 0 km/h
832 10-09-2006 18:45:03 28 C 9.52 g/m*3 28 C 0 km/h
833 10-09-2006 18:55:03 27.6 C 8.51 g/m*3 27.6 C 0 km/h
834 10-09-2006 19:05:03 27.3 C 9.42 g/m*3 27.3 C 0 km/h
835 10-09-2006 19:15:02 26 C 9.25 g/m*3 26 C 0 km/h
836 10-09-2006 19:25:02 25.3 C 9.13 g/m*3 25.3 C 0 km/h
837 10-09-2006 19:35:02 24.2 C 9.24 g/m*3 24.2 C 0 km/h
838 10-09-2006 19:45:02 23.2 C 9.56 g/m*3 23.2 C 0 km/h
839 10-09-2006 19:55:02 22.6 C 9.44 g/m*3 22.6 C 0 km/h
840 10-09-2006 20:05:02 21.9 C 9.46 g/m*3 21.9 C 0 km/h
841 10-09-2006 20:15:02 21.6 C 9.29 g/m*3 21.6 C 0 km/h
842 10-09-2006 20:25:02 21.5 C 9.43 g/m*3 21.5 C 0 km/h
843 10-09-2006 20:35:02 20.8 C 9.42 g/m*3 20.8 C 0 km/h
844 10-09-2006 20:45:02 20.3 C 9.5 g/m*3 20.3 C 0 km/h
845 10-09-2006 20:55:02 19.8 C 9.57 g/m*3 19.8 C 0 km/h
846 10-09-2006 21:05:02 19.7 C 9.68 g/m*3 19.7 C 0 km/h
847 10-09-2006 21:15:01 19.5 C 9.57 g/m*3 19.5 C 0 km/h
848 10-09-2006 21:25:01 19.3 C 9.62 g/m*3 19.3 C 0 km/h
849 10-09-2006 21:35:03 19.2 C 9.73 g/m*3 19.2 C 0 km/h
850 10-09-2006 21:45:01 19.1 C 9.84 g/m*3 19.1 C 0 km/h
Sensor: Nr:Datum:Temp:Abs-Feuchte:Windchill:Wind:
Aussen-T/F 851 10-09-2006 21:55:01 19 C 9.78 g/m*3 19 C 0 km/h
852 10-09-2006 22:05:02 18.9 C 9.88 g/m*3 18.9 C 0 km/h
853 10-09-2006 22:15:02 18.7 C 9.93 g/m*3 18.7 C 0 km/h
854 10-09-2006 22:25:02 18.5 C 9.97 g/m*3 18.5 C 0 km/h
855 10-09-2006 22:35:02 18.4 C 9.91 g/m*3 18.4 C 0 km/h
856 10-09-2006 22:45:03 18.1 C 9.89 g/m*3 18.1 C 0 km/h
857 10-09-2006 22:55:03 18.1 C 10.04 g/m*3 18.1 C 0 km/h
858 10-09-2006 23:05:03 18 C 9.98 g/m*3 18 C 0 km/h
859 10-09-2006 23:15:03 17.8 C 10.17 g/m*3 17.8 C 0 km/h
860 10-09-2006 23:25:03 17.7 C 10.26 g/m*3 17.7 C 0 km/h
861 10-09-2006 23:35:02 17.4 C 10.08 g/m*3 17.4 C 0 km/h
862 10-09-2006 23:45:02 17.2 C 10.1 g/m*3 17.2 C 0 km/h
863 10-09-2006 23:55:02 17.1 C 10.04 g/m*3 17.1 C 0 km/h
864 11-09-2006 00:05:03 17 C 10.13 g/m*3 17 C 0 km/h
865 11-09-2006 00:15:02 16.8 C 10.29 g/m*3 16.8 C 0 km/h
866 11-09-2006 00:25:02 16.7 C 10.37 g/m*3 16.7 C 0 km/h
867 11-09-2006 00:35:02 16.6 C 10.31 g/m*3 16.6 C 0 km/h
868 11-09-2006 00:45:03 16.4 C 10.05 g/m*3 16.4 C 0 km/h
869 11-09-2006 00:55:03 16.4 C 10.19 g/m*3 16.4 C 0 km/h
870 11-09-2006 01:05:03 16.3 C 10.27 g/m*3 16.3 C 0 km/h
871 11-09-2006 01:15:03 16.1 C 10.14 g/m*3 16.1 C 0 km/h
872 11-09-2006 01:25:03 16 C 10.08 g/m*3 16 C 0 km/h
873 11-09-2006 01:35:03 15.8 C 10.1 g/m*3 15.8 C 0 km/h
874 11-09-2006 01:45:02 15.6 C 9.97 g/m*3 15.6 C 0 km/h
875 11-09-2006 01:55:02 15.4 C 9.99 g/m*3 15.4 C 0 km/h
Sensor: Nr:Datum:Temp:Abs-Feuchte:Windchill:Wind:
Aussen-T/F 876 11-09-2006 02:05:03 15.3 C 9.92 g/m*3 15.3 C 0 km/h
877 11-09-2006 02:15:02 15 C 9.87 g/m*3 15 C 0 km/h
878 11-09-2006 02:25:02 15.1 C 10.06 g/m*3 15.1 C 0 km/h
879 11-09-2006 02:35:02 14.9 C 10.07 g/m*3 14.9 C 0 km/h
880 11-09-2006 02:46:04 14.9 C 10.07 g/m*3 14.9 C 0 km/h
881 11-09-2006 02:56:04 14.7 C 10.07 g/m*3 14.7 C 0 km/h
882 11-09-2006 03:06:04 14.7 C 10.07 g/m*3 14.7 C 0 km/h
883 11-09-2006 03:16:04 14.5 C 9.95 g/m*3 14.5 C 0 km/h
884 11-09-2006 03:26:04 14.4 C 9.89 g/m*3 14.4 C 0 km/h
885 11-09-2006 03:36:03 14.4 C 9.89 g/m*3 14.4 C 0 km/h
886 11-09-2006 03:46:03 14.3 C 9.83 g/m*3 14.3 C 0 km/h
887 11-09-2006 03:56:03 14.1 C 9.71 g/m*3 14.1 C 0 km/h
888 11-09-2006 04:06:02 14.1 C 9.83 g/m*3 14.1 C 0 km/h
889 11-09-2006 04:16:02 14 C 9.77 g/m*3 14 C 0 km/h
890 11-09-2006 04:26:02 13.9 C 9.83 g/m*3 13.9 C 0 km/h
891 11-09-2006 04:36:03 13.7 C 9.71 g/m*3 13.7 C 0 km/h
892 11-09-2006 04:46:02 13.7 C 9.71 g/m*3 13.7 C 0 km/h
893 11-09-2006 04:56:02 13.7 C 9.71 g/m*3 13.7 C 0 km/h
894 11-09-2006 05:06:02 13.6 C 9.65 g/m*3 13.6 C 0 km/h
895 11-09-2006 05:16:02 13.5 C 9.71 g/m*3 13.5 C 0 km/h
896 11-09-2006 05:26:03 13.4 C 9.65 g/m*3 13.4 C 0 km/h
897 11-09-2006 05:36:02 13.5 C 9.83 g/m*3 13.5 C 0 km/h
898 11-09-2006 05:46:03 13.3 C 9.7 g/m*3 13.3 C 0 km/h
899 11-09-2006 05:56:03 13.2 C 9.53 g/m*3 13.2 C 0 km/h
900 11-09-2006 06:06:02 13.2 C 9.64 g/m*3 13.2 C 0 km/h
Sensor: Nr:Datum:Temp:Abs-Feuchte:Windchill:Wind:
Aussen-T/F 901 11-09-2006 06:16:02 13.1 C 9.59 g/m*3 13.1 C 0 km/h
902 11-09-2006 06:26:02 13 C 9.53 g/m*3 13 C 0 km/h
903 11-09-2006 06:36:02 13 C 9.53 g/m*3 13 C 0 km/h
904 11-09-2006 06:46:02 12.8 C 9.52 g/m*3 12.8 C 0 km/h
905 11-09-2006 06:56:02 12.8 C 9.52 g/m*3 12.8 C 0 km/h
906 11-09-2006 07:06:02 12.8 C 9.52 g/m*3 12.8 C 0 km/h
907 11-09-2006 07:16:02 12.8 C 9.52 g/m*3 12.8 C 0 km/h
908 11-09-2006 07:26:02 12.8 C 9.52 g/m*3 12.8 C 0 km/h
909 11-09-2006 07:36:01 12.9 C 9.58 g/m*3 12.9 C 0 km/h
910 11-09-2006 07:46:02 12.9 C 9.69 g/m*3 12.9 C 0 km/h
911 11-09-2006 07:56:02 13 C 9.64 g/m*3 13 C 0 km/h
912 11-09-2006 08:06:02 13 C 9.64 g/m*3 13 C 0 km/h
913 11-09-2006 08:16:02 13.1 C 9.7 g/m*3 13.1 C 0 km/h
914 11-09-2006 08:26:02 13.2 C 9.76 g/m*3 13.2 C 0 km/h
915 11-09-2006 08:36:02 13.5 C 9.94 g/m*3 13.5 C 0 km/h
916 11-09-2006 08:46:02 13.6 C 9.89 g/m*3 13.6 C 0 km/h
917 11-09-2006 08:56:02 13.7 C 9.95 g/m*3 13.7 C 0 km/h
918 11-09-2006 09:06:02 13.8 C 10.01 g/m*3 13.8 C 0 km/h
919 11-09-2006 09:16:03 14.1 C 10.07 g/m*3 14.1 C 0 km/h
920 11-09-2006 09:26:03 14.4 C 10.26 g/m*3 14.4 C 0 km/h
921 11-09-2006 09:36:03 14.9 C 10.58 g/m*3 14.9 C 0 km/h
922 11-09-2006 09:46:02 15.3 C 10.19 g/m*3 15.3 C 0 km/h
923 11-09-2006 09:56:02 15.5 C 10.18 g/m*3 15.5 C 0 km/h
924 11-09-2006 10:06:02 15.9 C 10.43 g/m*3 15.9 C 0 km/h
925 11-09-2006 10:16:02 16.2 C 10.62 g/m*3 16.2 C 0 km/h
Sensor: Nr:Datum:Temp:Abs-Feuchte:Windchill:Wind:
Aussen-T/F 926 11-09-2006 10:26:03 16.7 C 10.66 g/m*3 16.7 C 0 km/h
927 11-09-2006 10:36:03 17.3 C 10.75 g/m*3 17.3 C 0 km/h
928 11-09-2006 10:46:01 17.9 C 10.69 g/m*3 17.9 C 0 km/h
929 11-09-2006 10:56:01 18.3 C 10.63 g/m*3 18.3 C 0 km/h
930 11-09-2006 11:06:03 18.9 C 11.02 g/m*3 18.9 C 0 km/h
931 11-09-2006 11:16:01 19.3 C 10.95 g/m*3 19.3 C 0 km/h
932 11-09-2006 11:26:01 19.7 C 11.21 g/m*3 19.7 C 0 km/h
933 11-09-2006 11:36:01 20.1 C 10.95 g/m*3 20.1 C 0 km/h
934 11-09-2006 11:46:03 20.9 C 11.29 g/m*3 20.9 C 0 km/h
935 11-09-2006 11:56:03 21.6 C 11.38 g/m*3 21.6 C 0 km/h
936 11-09-2006 12:06:02 21.9 C 11.77 g/m*3 21.9 C 0 km/h
937 11-09-2006 12:16:02 22.5 C 11.39 g/m*3 22.5 C 0 km/h
938 11-09-2006 12:26:02 22.9 C 11.44 g/m*3 22.9 C 0 km/h
939 11-09-2006 12:36:02 23.5 C 11 g/m*3 23.5 C 0 km/h
940 11-09-2006 12:46:02 23.7 C 11.76 g/m*3 23.7 C 0 km/h
941 11-09-2006 12:56:02 24 C 11.53 g/m*3 24 C 0 km/h
942 11-09-2006 13:06:02 24.5 C 11.41 g/m*3 24.5 C 0 km/h
943 11-09-2006 13:16:03 24.9 C 11.67 g/m*3 24.9 C 0 km/h
944 11-09-2006 13:26:03 25.7 C 11.25 g/m*3 25.7 C 0 km/h
945 11-09-2006 13:36:02 26 C 11.69 g/m*3 26 C 0 km/h
946 11-09-2006 13:46:02 26.5 C 11.01 g/m*3 26.5 C 0 km/h
947 11-09-2006 13:56:02 27.5 C 10.58 g/m*3 27.5 C 0 km/h
948 11-09-2006 14:06:02 28 C 10.61 g/m*3 28 C 0 km/h
949 11-09-2006 14:16:02 28.4 C 10.01 g/m*3 28.4 C 0 km/h
950 11-09-2006 14:26:03 28.7 C 9.89 g/m*3 28.7 C 0 km/h
Sensor: Nr:Datum:Temp:Abs-Feuchte:Windchill:Wind:
Aussen-T/F 951 11-09-2006 14:36:02 29.1 C 9.82 g/m*3 29.1 C 0 km/h
952 11-09-2006 14:46:02 29.5 C 8.85 g/m*3 29.5 C 0 km/h
953 11-09-2006 14:56:02 29.6 C 9.2 g/m*3 29.6 C 0 km/h
954 11-09-2006 15:06:02 30 C 9.4 g/m*3 30 C 0 km/h
955 11-09-2006 15:16:02 30 C 9.4 g/m*3 30 C 0 km/h
956 11-09-2006 15:26:02 30.6 C 9.08 g/m*3 30.6 C 0 km/h
957 11-09-2006 15:36:02 30.7 C 8.5 g/m*3 30.7 C 0 km/h
958 11-09-2006 15:46:01 30.8 C 8.86 g/m*3 30.8 C 0 km/h
959 11-09-2006 15:56:01 30.9 C 8.91 g/m*3 30.9 C 0 km/h
960 11-09-2006 16:06:02 31 C 9.6 g/m*3 31 C 0 km/h
961 11-09-2006 16:16:02 31 C 8.32 g/m*3 31 C 0 km/h
962 11-09-2006 16:26:02 31.2 C 8.09 g/m*3 31.2 C 0 km/h
963 11-09-2006 16:36:02 31.3 C 9.11 g/m*3 31.3 C 0 km/h
964 11-09-2006 16:46:01 31.2 C 8.09 g/m*3 31.2 C 0 km/h
965 11-09-2006 16:56:01 31.4 C 9.48 g/m*3 31.4 C 0 km/h
966 11-09-2006 17:06:02 31.4 C 8.17 g/m*3 31.4 C 0 km/h
967 11-09-2006 17:16:02 31.5 C 8.55 g/m*3 31.5 C 0 km/h
968 11-09-2006 17:26:02 31.1 C 8.69 g/m*3 31.1 C 0 km/h
969 11-09-2006 17:36:02 31.1 C 9.97 g/m*3 31.1 C 0 km/h
970 11-09-2006 17:46:02 31 C 9.92 g/m*3 31 C 0 km/h
971 11-09-2006 17:56:02 30.9 C 10.19 g/m*3 30.9 C 0 km/h
972 11-09-2006 18:06:02 30.9 C 9.87 g/m*3 30.9 C 0 km/h
973 11-09-2006 18:16:02 30.7 C 9.76 g/m*3 30.7 C 0 km/h
974 11-09-2006 18:26:02 30.4 C 10.23 g/m*3 30.4 C 0 km/h
975 11-09-2006 18:36:03 30.1 C 10.67 g/m*3 30.1 C 0 km/h
Sensor: Nr:Datum:Temp:Abs-Feuchte:Windchill:Wind:
Aussen-T/F 976 11-09-2006 18:46:03 29.5 C 11.22 g/m*3 29.5 C 0 km/h
977 11-09-2006 18:56:03 28.9 C 11.14 g/m*3 28.9 C 0 km/h
978 11-09-2006 19:06:03 28.3 C 11.06 g/m*3 28.3 C 0 km/h
979 11-09-2006 19:16:02 27.7 C 11.5 g/m*3 27.7 C 0 km/h
980 11-09-2006 19:26:02 26.8 C 11.45 g/m*3 26.8 C 0 km/h
981 11-09-2006 19:36:03 26 C 11.2 g/m*3 26 C 0 km/h
982 11-09-2006 19:46:02 25.3 C 11.24 g/m*3 25.3 C 0 km/h
983 11-09-2006 19:56:02 24.9 C 11.45 g/m*3 24.9 C 0 km/h
984 11-09-2006 20:06:03 24.5 C 11.64 g/m*3 24.5 C 0 km/h
985 11-09-2006 20:16:03 24.1 C 11.38 g/m*3 24.1 C 0 km/h
986 11-09-2006 20:26:03 24 C 11.53 g/m*3 24 C 0 km/h
987 11-09-2006 20:36:03 23.8 C 11.62 g/m*3 23.8 C 0 km/h
988 11-09-2006 20:46:03 23.4 C 11.78 g/m*3 23.4 C 0 km/h
989 11-09-2006 20:56:03 23.3 C 11.71 g/m*3 23.3 C 0 km/h
990 11-09-2006 21:06:04 23.2 C 11.85 g/m*3 23.2 C 0 km/h
991 11-09-2006 21:16:03 22.9 C 12.06 g/m*3 22.9 C 0 km/h
992 11-09-2006 21:26:03 22.6 C 12.05 g/m*3 22.6 C 0 km/h
993 11-09-2006 21:36:02 22.2 C 12.17 g/m*3 22.2 C 0 km/h
994 11-09-2006 21:46:03 22.2 C 12.37 g/m*3 22.2 C 0 km/h
995 11-09-2006 21:56:03 21.9 C 12.35 g/m*3 21.9 C 0 km/h
996 11-09-2006 22:06:03 21.8 C 12.47 g/m*3 21.8 C 0 km/h
997 11-09-2006 22:16:03 21.6 C 12.33 g/m*3 21.6 C 0 km/h
998 11-09-2006 22:26:03 21.5 C 12.45 g/m*3 21.5 C 0 km/h
999 11-09-2006 22:36:02 21.5 C 12.45 g/m*3 21.5 C 0 km/h
1000 11-09-2006 22:46:02 21.4 C 12.37 g/m*3 21.4 C 0 km/h
Sensor: Nr:Datum:Temp:Abs-Feuchte:Windchill:Wind:
Aussen-T/F 1001 11-09-2006 22:56:02 21 C 12.46 g/m*3 21 C 0 km/h
1002 11-09-2006 23:06:02 20.8 C 12.49 g/m*3 20.8 C 0 km/h
1003 11-09-2006 23:16:02 20.6 C 12.53 g/m*3 20.6 C 0 km/h
1004 11-09-2006 23:26:02 20.4 C 12.38 g/m*3 20.4 C 0 km/h
1005 11-09-2006 23:36:02 20.2 C 12.41 g/m*3 20.2 C 0 km/h
1006 11-09-2006 23:46:02 20 C 12.44 g/m*3 20 C 0 km/h
1007 11-09-2006 23:56:03 19.8 C 12.47 g/m*3 19.8 C 0 km/h
1008 12-09-2006 00:06:02 19.7 C 12.4 g/m*3 19.7 C 0 km/h
1009 12-09-2006 00:16:03 19.5 C 12.59 g/m*3 19.5 C 0 km/h
1010 12-09-2006 00:26:03 19.5 C 12.59 g/m*3 19.5 C 0 km/h
1011 12-09-2006 00:36:03 19.4 C 12.51 g/m*3 19.4 C 0 km/h
1012 12-09-2006 00:46:03 19.3 C 12.44 g/m*3 19.3 C 0 km/h
1013 12-09-2006 00:56:03 19.2 C 12.53 g/m*3 19.2 C 0 km/h
1014 12-09-2006 01:06:03 19.1 C 12.46 g/m*3 19.1 C 0 km/h
1015 12-09-2006 01:16:03 19 C 12.39 g/m*3 19 C 0 km/h
1016 12-09-2006 01:26:03 18.9 C 12.31 g/m*3 18.9 C 0 km/h
1017 12-09-2006 01:36:03 18.8 C 12.4 g/m*3 18.8 C 0 km/h
1018 12-09-2006 01:46:02 18.6 C 12.41 g/m*3 18.6 C 0 km/h
1019 12-09-2006 01:56:02 18.4 C 12.43 g/m*3 18.4 C 0 km/h
1020 12-09-2006 02:06:02 18.2 C 12.28 g/m*3 18.2 C 0 km/h
1021 12-09-2006 02:16:02 18.1 C 12.36 g/m*3 18.1 C 0 km/h
1022 12-09-2006 02:26:02 18 C 12.29 g/m*3 18 C 0 km/h
1023 12-09-2006 02:36:02 17.9 C 12.37 g/m*3 17.9 C 0 km/h
1024 12-09-2006 02:47:03 17.8 C 12.14 g/m*3 17.8 C 0 km/h
1025 12-09-2006 02:57:03 17.7 C 12.22 g/m*3 17.7 C 0 km/h
Sensor: Nr:Datum:Temp:Abs-Feuchte:Windchill:Wind:
Aussen-T/F 1026 12-09-2006 03:07:03 17.7 C 12.22 g/m*3 17.7 C 0 km/h
1027 12-09-2006 03:17:03 17.7 C 12.22 g/m*3 17.7 C 0 km/h
1028 12-09-2006 03:27:03 17.5 C 12.23 g/m*3 17.5 C 0 km/h
1029 12-09-2006 03:37:03 17.4 C 12.15 g/m*3 17.4 C 0 km/h
1030 12-09-2006 03:47:03 17.3 C 12.08 g/m*3 17.3 C 0 km/h
1031 12-09-2006 03:57:03 17.2 C 12.01 g/m*3 17.2 C 0 km/h
1032 12-09-2006 04:07:03 17.1 C 11.94 g/m*3 17.1 C 0 km/h
1033 12-09-2006 04:17:03 17 C 11.87 g/m*3 17 C 0 km/h
1034 12-09-2006 04:27:03 16.8 C 11.72 g/m*3 16.8 C 0 km/h
1035 12-09-2006 04:37:03 16.7 C 11.8 g/m*3 16.7 C 0 km/h
1036 12-09-2006 04:47:02 16.6 C 11.72 g/m*3 16.6 C 0 km/h
1037 12-09-2006 04:57:02 16.5 C 11.65 g/m*3 16.5 C 0 km/h
1038 12-09-2006 05:07:02 16.5 C 11.51 g/m*3 16.5 C 0 km/h
1039 12-09-2006 05:17:02 16.3 C 11.52 g/m*3 16.3 C 0 km/h
1040 12-09-2006 05:27:02 16.2 C 11.45 g/m*3 16.2 C 0 km/h
1041 12-09-2006 05:37:02 16.2 C 11.45 g/m*3 16.2 C 0 km/h
1042 12-09-2006 05:47:01 16 C 11.31 g/m*3 16 C 0 km/h
1043 12-09-2006 05:57:01 15.9 C 11.38 g/m*3 15.9 C 0 km/h
1044 12-09-2006 06:07:02 15.9 C 11.38 g/m*3 15.9 C 0 km/h
1045 12-09-2006 06:17:02 15.8 C 11.31 g/m*3 15.8 C 0 km/h
1046 12-09-2006 06:27:02 15.7 C 11.24 g/m*3 15.7 C 0 km/h
1047 12-09-2006 06:37:02 15.6 C 11.17 g/m*3 15.6 C 0 km/h
1048 12-09-2006 06:47:02 15.4 C 11.04 g/m*3 15.4 C 0 km/h
1049 12-09-2006 06:57:03 15.3 C 10.97 g/m*3 15.3 C 0 km/h
1050 12-09-2006 07:07:02 15.3 C 10.97 g/m*3 15.3 C 0 km/h
Sensor: Nr:Datum:Temp:Abs-Feuchte:Windchill:Wind:
Aussen-T/F 1051 12-09-2006 07:17:02 15.2 C 11.03 g/m*3 15.2 C 0 km/h
1052 12-09-2006 07:27:02 15.3 C 11.1 g/m*3 15.3 C 0 km/h
1053 12-09-2006 07:37:02 15.3 C 11.1 g/m*3 15.3 C 0 km/h
1054 12-09-2006 07:47:02 15.3 C 11.1 g/m*3 15.3 C 0 km/h
1055 12-09-2006 07:57:02 15.4 C 11.17 g/m*3 15.4 C 0 km/h
1056 12-09-2006 08:07:02 15.3 C 11.1 g/m*3 15.3 C 0 km/h
1057 12-09-2006 08:17:01 15.3 C 11.23 g/m*3 15.3 C 0 km/h
1058 12-09-2006 08:27:01 15.3 C 11.23 g/m*3 15.3 C 0 km/h
1059 12-09-2006 08:37:01 15.3 C 11.23 g/m*3 15.3 C 0 km/h
1060 12-09-2006 08:47:02 15.6 C 11.44 g/m*3 15.6 C 0 km/h
1061 12-09-2006 08:57:02 15.8 C 11.71 g/m*3 15.8 C 0 km/h
1062 12-09-2006 09:07:02 16 C 11.72 g/m*3 16 C 0 km/h
1063 12-09-2006 09:17:02 16.2 C 11.72 g/m*3 16.2 C 0 km/h
1064 12-09-2006 09:27:02 16.3 C 11.65 g/m*3 16.3 C 0 km/h
1065 12-09-2006 09:37:01 16.5 C 11.8 g/m*3 16.5 C 0 km/h
1066 12-09-2006 09:47:02 17 C 12.15 g/m*3 17 C 0 km/h
1067 12-09-2006 09:57:02 17.5 C 12.37 g/m*3 17.5 C 0 km/h
1068 12-09-2006 10:07:02 18.1 C 12.52 g/m*3 18.1 C 0 km/h
1069 12-09-2006 10:17:02 18.5 C 12.66 g/m*3 18.5 C 0 km/h
1070 12-09-2006 10:27:02 18.9 C 12.96 g/m*3 18.9 C 0 km/h
1071 12-09-2006 10:37:01 19.3 C 12.94 g/m*3 19.3 C 0 km/h
1072 12-09-2006 10:47:02 20 C 12.96 g/m*3 20 C 0 km/h
1073 12-09-2006 10:57:02 20.4 C 13.09 g/m*3 20.4 C 0 km/h
1074 12-09-2006 11:07:02 21 C 13.19 g/m*3 21 C 0 km/h
1075 12-09-2006 11:17:02 21.3 C 13.23 g/m*3 21.3 C 0 km/h
Sensor: Nr:Datum:Temp:Abs-Feuchte:Windchill:Wind:
Aussen-T/F 1076 12-09-2006 11:27:02 22 C 13.39 g/m*3 22 C 0 km/h
1077 12-09-2006 11:37:02 22.6 C 13.46 g/m*3 22.6 C 0 km/h
1078 12-09-2006 11:47:02 23.2 C 13.31 g/m*3 23.2 C 0 km/h
1079 12-09-2006 11:57:02 23.5 C 13.53 g/m*3 23.5 C 0 km/h
1080 12-09-2006 12:07:02 23.7 C 13.48 g/m*3 23.7 C 0 km/h
1081 12-09-2006 12:17:02 24 C 13.49 g/m*3 24 C 0 km/h
1082 12-09-2006 12:27:02 24.6 C 13.05 g/m*3 24.6 C 0 km/h
1083 12-09-2006 12:37:02 25 C 13.35 g/m*3 25 C 0 km/h
1084 12-09-2006 12:47:03 25.5 C 13.02 g/m*3 25.5 C 0 km/h
1085 12-09-2006 12:57:03 25.9 C 12.83 g/m*3 25.9 C 0 km/h
1086 12-09-2006 13:07:02 26.2 C 12.31 g/m*3 26.2 C 0 km/h
1087 12-09-2006 13:17:02 27 C 11.58 g/m*3 27 C 0 km/h
1088 12-09-2006 13:27:02 27.5 C 11.38 g/m*3 27.5 C 0 km/h
1089 12-09-2006 13:37:03 27.3 C 11.25 g/m*3 27.3 C 0 km/h
1090 12-09-2006 13:47:02 28 C 10.33 g/m*3 28 C 0 km/h
1091 12-09-2006 13:57:02 28.1 C 10.66 g/m*3 28.1 C 0 km/h
1092 12-09-2006 14:07:02 28.6 C 9.84 g/m*3 28.6 C 0 km/h
1093 12-09-2006 14:17:02 29.2 C 9.58 g/m*3 29.2 C 0 km/h
1094 12-09-2006 14:27:02 29.7 C 10.44 g/m*3 29.7 C 0 km/h
1095 12-09-2006 14:37:02 30 C 9.4 g/m*3 30 C 0 km/h
1096 12-09-2006 14:47:02 30.5 C 9.66 g/m*3 30.5 C 0 km/h
1097 12-09-2006 14:57:02 30.7 C 8.82 g/m*3 30.7 C 0 km/h
1098 12-09-2006 15:07:02 30.9 C 9.23 g/m*3 30.9 C 0 km/h
1099 12-09-2006 15:17:02 31.1 C 8.69 g/m*3 31.1 C 0 km/h
1100 12-09-2006 15:27:02 31 C 8.96 g/m*3 31 C 0 km/h
Sensor: Nr:Datum:Temp:Abs-Feuchte:Windchill:Wind:
Aussen-T/F 1101 12-09-2006 15:37:02 31.2 C 8.09 g/m*3 31.2 C 0 km/h
1102 12-09-2006 15:47:02 31.3 C 8.46 g/m*3 31.3 C 0 km/h
1103 12-09-2006 15:57:02 31 C 8.32 g/m*3 31 C 0 km/h
1104 12-09-2006 16:07:02 30.7 C 7.87 g/m*3 30.7 C 0 km/h
1105 12-09-2006 16:17:01 31.8 C 8.68 g/m*3 31.8 C 0 km/h
1106 12-09-2006 16:27:01 31.8 C 7.68 g/m*3 31.8 C 0 km/h
1107 12-09-2006 16:37:01 31.9 C 8.06 g/m*3 31.9 C 0 km/h
1108 12-09-2006 16:47:02 31.9 C 8.39 g/m*3 31.9 C 0 km/h
1109 12-09-2006 16:57:02 30.9 C 8.28 g/m*3 30.9 C 0 km/h
1110 12-09-2006 17:07:02 31 C 8.32 g/m*3 31 C 0 km/h
1111 12-09-2006 17:17:02 31.5 C 9.2 g/m*3 31.5 C 0 km/h
1112 12-09-2006 17:27:03 32 C 9.11 g/m*3 32 C 0 km/h
1113 12-09-2006 17:37:02 31.8 C 8.68 g/m*3 31.8 C 0 km/h
1114 12-09-2006 17:47:03 31.8 C 9.02 g/m*3 31.8 C 0 km/h
1115 12-09-2006 17:57:03 31.6 C 8.59 g/m*3 31.6 C 0 km/h
1116 12-09-2006 18:07:02 31.6 C 9.58 g/m*3 31.6 C 0 km/h
1117 12-09-2006 18:17:02 31.4 C 9.81 g/m*3 31.4 C 0 km/h
1118 12-09-2006 18:27:03 31.1 C 9.97 g/m*3 31.1 C 0 km/h
1119 12-09-2006 18:37:02 30.6 C 10.34 g/m*3 30.6 C 0 km/h
1120 12-09-2006 18:47:02 30 C 10.92 g/m*3 30 C 0 km/h
1121 12-09-2006 18:57:03 29.5 C 10.63 g/m*3 29.5 C 0 km/h
1122 12-09-2006 19:07:01 29.3 C 10.8 g/m*3 29.3 C 0 km/h
1123 12-09-2006 19:17:01 28.9 C 11.14 g/m*3 28.9 C 0 km/h
1124 12-09-2006 19:27:01 28.3 C 11.06 g/m*3 28.3 C 0 km/h
1125 12-09-2006 19:37:03 27 C 11.07 g/m*3 27 C 0 km/h
Sensor: Nr:Datum:Temp:Abs-Feuchte:Windchill:Wind:
Aussen-T/F 1126 12-09-2006 19:47:02 25.9 C 11.14 g/m*3 25.9 C 0 km/h
1127 12-09-2006 19:57:02 25.2 C 10.94 g/m*3 25.2 C 0 km/h
1128 12-09-2006 20:07:02 24.5 C 11.19 g/m*3 24.5 C 0 km/h
1129 12-09-2006 20:17:01 24.3 C 10.84 g/m*3 24.3 C 0 km/h
1130 12-09-2006 20:27:01 24 C 10.88 g/m*3 24 C 0 km/h
1131 12-09-2006 20:37:03 23.8 C 10.97 g/m*3 23.8 C 0 km/h
1132 12-09-2006 20:47:02 23.5 C 11 g/m*3 23.5 C 0 km/h
1133 12-09-2006 20:57:02 23.5 C 11.21 g/m*3 23.5 C 0 km/h
1134 12-09-2006 21:07:02 23.3 C 11.29 g/m*3 23.3 C 0 km/h
1135 12-09-2006 21:17:02 23 C 11.1 g/m*3 23 C 0 km/h
1136 12-09-2006 21:27:03 22.8 C 11.18 g/m*3 22.8 C 0 km/h
1137 12-09-2006 21:37:02 22.9 C 11.44 g/m*3 22.9 C 0 km/h
1138 12-09-2006 21:47:02 22.7 C 11.31 g/m*3 22.7 C 0 km/h
1139 12-09-2006 21:57:02 22.5 C 11.19 g/m*3 22.5 C 0 km/h
1140 12-09-2006 22:07:02 22.3 C 11.26 g/m*3 22.3 C 0 km/h
1141 12-09-2006 22:18:03 22 C 11.06 g/m*3 22 C 0 km/h
1142 12-09-2006 22:28:03 22 C 11.26 g/m*3 22 C 0 km/h
1143 12-09-2006 22:38:03 21.9 C 11.39 g/m*3 21.9 C 0 km/h
1144 12-09-2006 22:48:03 21.7 C 11.45 g/m*3 21.7 C 0 km/h
1145 12-09-2006 22:58:03 21.6 C 11.38 g/m*3 21.6 C 0 km/h
1146 12-09-2006 23:08:03 21.5 C 11.5 g/m*3 21.5 C 0 km/h
1147 12-09-2006 23:18:03 21.3 C 11.56 g/m*3 21.3 C 0 km/h
1148 12-09-2006 23:28:03 21.2 C 11.49 g/m*3 21.2 C 0 km/h
1149 12-09-2006 23:38:03 20.8 C 11.77 g/m*3 20.8 C 0 km/h
1150 12-09-2006 23:48:04 20.6 C 11.81 g/m*3 20.6 C 0 km/h
Sensor: Nr:Datum:Temp:Abs-Feuchte:Windchill:Wind:
Aussen-T/F 1151 12-09-2006 23:58:04 20.3 C 11.78 g/m*3 20.3 C 0 km/h
1152 13-09-2006 00:08:04 20.2 C 11.89 g/m*3 20.2 C 0 km/h
1153 13-09-2006 00:18:04 20 C 11.92 g/m*3 20 C 0 km/h
1154 13-09-2006 00:28:04 19.9 C 12.03 g/m*3 19.9 C 0 km/h
1155 13-09-2006 00:38:04 19.7 C 11.89 g/m*3 19.7 C 0 km/h
1156 13-09-2006 00:48:04 19.6 C 11.82 g/m*3 19.6 C 0 km/h
1157 13-09-2006 00:58:04 19.4 C 11.85 g/m*3 19.4 C 0 km/h
1158 13-09-2006 01:08:04 19.3 C 11.78 g/m*3 19.3 C 0 km/h
1159 13-09-2006 01:18:04 19.2 C 11.71 g/m*3 19.2 C 0 km/h
1160 13-09-2006 01:28:04 19.1 C 11.8 g/m*3 19.1 C 0 km/h
1161 13-09-2006 01:38:04 18.9 C 11.99 g/m*3 18.9 C 0 km/h
1162 13-09-2006 01:48:04 18.7 C 11.85 g/m*3 18.7 C 0 km/h
1163 13-09-2006 01:58:04 18.6 C 11.78 g/m*3 18.6 C 0 km/h
1164 13-09-2006 02:08:04 18.5 C 11.71 g/m*3 18.5 C 0 km/h
1165 13-09-2006 02:18:04 18.4 C 11.8 g/m*3 18.4 C 0 km/h
1166 13-09-2006 02:28:04 18.3 C 11.88 g/m*3 18.3 C 0 km/h
1167 13-09-2006 02:38:05 18.2 C 11.81 g/m*3 18.2 C 0 km/h
1168 13-09-2006 02:48:05 18 C 11.67 g/m*3 18 C 0 km/h
1169 13-09-2006 02:58:05 17.9 C 11.91 g/m*3 17.9 C 0 km/h
1170 13-09-2006 03:08:05 17.9 C 11.91 g/m*3 17.9 C 0 km/h
1171 13-09-2006 03:18:05 17.8 C 11.84 g/m*3 17.8 C 0 km/h
1172 13-09-2006 03:28:05 17.7 C 11.77 g/m*3 17.7 C 0 km/h
1173 13-09-2006 03:38:05 17.8 C 11.99 g/m*3 17.8 C 0 km/h
1174 13-09-2006 03:48:05 17.5 C 11.93 g/m*3 17.5 C 0 km/h
1175 13-09-2006 03:58:05 17.3 C 11.79 g/m*3 17.3 C 0 km/h
Sensor: Nr:Datum:Temp:Abs-Feuchte:Windchill:Wind:
Aussen-T/F 1176 13-09-2006 04:08:05 17.2 C 11.57 g/m*3 17.2 C 0 km/h
1177 13-09-2006 04:18:05 17.1 C 11.5 g/m*3 17.1 C 0 km/h
1178 13-09-2006 04:28:05 17 C 11.58 g/m*3 17 C 0 km/h
1179 13-09-2006 04:38:05 16.8 C 11.58 g/m*3 16.8 C 0 km/h
1180 13-09-2006 04:48:05 16.8 C 11.58 g/m*3 16.8 C 0 km/h
1181 13-09-2006 04:58:05 16.6 C 11.58 g/m*3 16.6 C 0 km/h
1182 13-09-2006 05:08:05 16.6 C 11.72 g/m*3 16.6 C 0 km/h
1183 13-09-2006 05:18:05 16.5 C 11.51 g/m*3 16.5 C 0 km/h
1184 13-09-2006 05:28:05 16.3 C 11.38 g/m*3 16.3 C 0 km/h
1185 13-09-2006 05:38:06 16.3 C 11.38 g/m*3 16.3 C 0 km/h
1186 13-09-2006 05:48:06 16.2 C 11.31 g/m*3 16.2 C 0 km/h
1187 13-09-2006 05:58:06 16.1 C 11.24 g/m*3 16.1 C 0 km/h
1188 13-09-2006 06:08:06 16 C 11.17 g/m*3 16 C 0 km/h
1189 13-09-2006 06:18:06 15.8 C 11.17 g/m*3 15.8 C 0 km/h
1190 13-09-2006 06:28:06 15.8 C 11.31 g/m*3 15.8 C 0 km/h
1191 13-09-2006 06:38:06 15.7 C 11.37 g/m*3 15.7 C 0 km/h
1192 13-09-2006 06:48:06 15.6 C 11.17 g/m*3 15.6 C 0 km/h
1193 13-09-2006 06:58:06 15.6 C 11.17 g/m*3 15.6 C 0 km/h
1194 13-09-2006 07:08:06 15.5 C 11.24 g/m*3 15.5 C 0 km/h
1195 13-09-2006 07:18:06 15.3 C 11.1 g/m*3 15.3 C 0 km/h
1196 13-09-2006 07:28:06 15.3 C 11.1 g/m*3 15.3 C 0 km/h
1197 13-09-2006 07:38:06 15.3 C 11.1 g/m*3 15.3 C 0 km/h
1198 13-09-2006 07:48:06 15.4 C 11.04 g/m*3 15.4 C 0 km/h
1199 13-09-2006 07:58:06 15.5 C 11.24 g/m*3 15.5 C 0 km/h
1200 13-09-2006 08:08:06 15.6 C 11.3 g/m*3 15.6 C 0 km/h
Sensor: Nr:Datum:Temp:Abs-Feuchte:Windchill:Wind:
Aussen-T/F 1201 13-09-2006 08:18:07 15.6 C 11.17 g/m*3 15.6 C 0 km/h
1202 13-09-2006 08:28:07 15.7 C 11.37 g/m*3 15.7 C 0 km/h
1203 13-09-2006 08:38:07 15.8 C 11.44 g/m*3 15.8 C 0 km/h
1204 13-09-2006 08:48:07 16 C 11.44 g/m*3 16 C 0 km/h
1205 13-09-2006 08:58:07 16.2 C 11.72 g/m*3 16.2 C 0 km/h
1206 13-09-2006 09:08:03 16.3 C 11.79 g/m*3 16.3 C 0 km/h
1207 13-09-2006 09:18:02 16.5 C 11.94 g/m*3 16.5 C 0 km/h
1208 13-09-2006 09:28:02 16.7 C 12.08 g/m*3 16.7 C 0 km/h
1209 13-09-2006 09:38:02 17 C 12.15 g/m*3 17 C 0 km/h
1210 13-09-2006 09:48:03 17.4 C 12.3 g/m*3 17.4 C 0 km/h
1211 13-09-2006 09:58:03 17.8 C 12.45 g/m*3 17.8 C 0 km/h
1212 13-09-2006 10:08:03 18.3 C 12.51 g/m*3 18.3 C 0 km/h
1213 13-09-2006 10:18:03 18.7 C 12.65 g/m*3 18.7 C 0 km/h
1214 13-09-2006 10:28:03 19.2 C 12.7 g/m*3 19.2 C 0 km/h
1215 13-09-2006 10:38:02 19.5 C 12.75 g/m*3 19.5 C 0 km/h
1216 13-09-2006 10:48:02 20 C 12.62 g/m*3 20 C 0 km/h
1217 13-09-2006 10:58:02 20.7 C 12.6 g/m*3 20.7 C 0 km/h
1218 13-09-2006 11:08:02 21.1 C 12.53 g/m*3 21.1 C 0 km/h
1219 13-09-2006 11:18:02 21.6 C 12.9 g/m*3 21.6 C 0 km/h
1220 13-09-2006 11:28:02 22 C 12.81 g/m*3 22 C 0 km/h
1221 13-09-2006 11:38:02 22.4 C 12.91 g/m*3 22.4 C 0 km/h
1222 13-09-2006 11:48:02 23 C 12.95 g/m*3 23 C 0 km/h
1223 13-09-2006 11:58:02 23.9 C 13.41 g/m*3 23.9 C 0 km/h
1224 13-09-2006 12:08:02 23.8 C 13.12 g/m*3 23.8 C 0 km/h
1225 13-09-2006 12:18:01 24.4 C 12.91 g/m*3 24.4 C 0 km/h
Sensor: Nr:Datum:Temp:Abs-Feuchte:Windchill:Wind:
Aussen-T/F 1226 13-09-2006 12:28:01 25.2 C 12.57 g/m*3 25.2 C 0 km/h
1227 13-09-2006 12:38:01 25.4 C 12.95 g/m*3 25.4 C 0 km/h
1228 13-09-2006 12:48:02 25.6 C 11.67 g/m*3 25.6 C 0 km/h
1229 13-09-2006 12:58:02 26.1 C 12.49 g/m*3 26.1 C 0 km/h
1230 13-09-2006 13:08:02 26.6 C 11.33 g/m*3 26.6 C 0 km/h
1231 13-09-2006 13:18:01 27.1 C 11.39 g/m*3 27.1 C 0 km/h
1232 13-09-2006 13:28:01 27.6 C 11.97 g/m*3 27.6 C 0 km/h
1233 13-09-2006 13:38:01 28.3 C 10.78 g/m*3 28.3 C 0 km/h
1234 13-09-2006 13:48:02 28.9 C 9.71 g/m*3 28.9 C 0 km/h
1235 13-09-2006 13:58:02 29.4 C 10.27 g/m*3 29.4 C 0 km/h
1236 13-09-2006 14:08:02 29.7 C 9.85 g/m*3 29.7 C 0 km/h
1237 13-09-2006 14:18:02 30 C 9.4 g/m*3 30 C 0 km/h
1238 13-09-2006 14:28:02 30.4 C 9.3 g/m*3 30.4 C 0 km/h
1239 13-09-2006 14:38:01 30.6 C 8.46 g/m*3 30.6 C 0 km/h
1240 13-09-2006 14:48:02 30.9 C 8.91 g/m*3 30.9 C 0 km/h
1241 13-09-2006 14:58:02 30.4 C 8.68 g/m*3 30.4 C 0 km/h
1242 13-09-2006 15:08:02 30.6 C 9.08 g/m*3 30.6 C 0 km/h
1243 13-09-2006 15:18:02 30.7 C 8.82 g/m*3 30.7 C 0 km/h
1244 13-09-2006 15:28:02 30.9 C 8.91 g/m*3 30.9 C 0 km/h
1245 13-09-2006 15:38:01 31 C 9.28 g/m*3 31 C 0 km/h
1246 13-09-2006 15:48:02 30.6 C 8.46 g/m*3 30.6 C 0 km/h
1247 13-09-2006 15:58:03 30.9 C 8.91 g/m*3 30.9 C 0 km/h
1248 13-09-2006 16:08:02 31 C 8.96 g/m*3 31 C 0 km/h
1249 13-09-2006 16:18:02 31.1 C 9.33 g/m*3 31.1 C 0 km/h
1250 13-09-2006 16:28:02 31.2 C 8.73 g/m*3 31.2 C 0 km/h
Sensor: Nr:Datum:Temp:Abs-Feuchte:Windchill:Wind:
Aussen-T/F 1251 13-09-2006 16:38:02 30.9 C 9.55 g/m*3 30.9 C 0 km/h
1252 13-09-2006 16:48:02 30.6 C 9.4 g/m*3 30.6 C 0 km/h
1253 13-09-2006 16:58:02 30.4 C 9.61 g/m*3 30.4 C 0 km/h
1254 13-09-2006 17:08:02 30.2 C 10.42 g/m*3 30.2 C 0 km/h
1255 13-09-2006 17:18:02 29.5 C 10.92 g/m*3 29.5 C 0 km/h
1256 13-09-2006 17:28:02 30.4 C 10.85 g/m*3 30.4 C 0 km/h
1257 13-09-2006 17:38:02 30.9 C 10.19 g/m*3 30.9 C 0 km/h
1258 13-09-2006 17:48:02 31 C 10.56 g/m*3 31 C 0 km/h
1259 13-09-2006 17:58:02 30.9 C 10.19 g/m*3 30.9 C 0 km/h
1260 13-09-2006 18:08:02 30.9 C 10.5 g/m*3 30.9 C 0 km/h
1261 13-09-2006 18:18:02 30.9 C 10.82 g/m*3 30.9 C 0 km/h
1262 13-09-2006 18:28:02 30.6 C 10.96 g/m*3 30.6 C 0 km/h
1263 13-09-2006 18:38:02 30 C 10.92 g/m*3 30 C 0 km/h
1264 13-09-2006 18:48:02 29.6 C 10.98 g/m*3 29.6 C 0 km/h
1265 13-09-2006 18:58:02 28.7 C 11.3 g/m*3 28.7 C 0 km/h
1266 13-09-2006 19:08:02 27.6 C 11.17 g/m*3 27.6 C 0 km/h
1267 13-09-2006 19:18:02 26.9 C 11.26 g/m*3 26.9 C 0 km/h
1268 13-09-2006 19:28:02 26.2 C 11.08 g/m*3 26.2 C 0 km/h
1269 13-09-2006 19:38:03 25.3 C 10.77 g/m*3 25.3 C 0 km/h
1270 13-09-2006 19:48:02 24.9 C 10.99 g/m*3 24.9 C 0 km/h
1271 13-09-2006 19:58:02 24.3 C 10.62 g/m*3 24.3 C 0 km/h
1272 13-09-2006 20:08:02 24.2 C 10.56 g/m*3 24.2 C 0 km/h
1273 13-09-2006 20:18:02 23.7 C 10.69 g/m*3 23.7 C 0 km/h
1274 13-09-2006 20:28:02 23.2 C 10.81 g/m*3 23.2 C 0 km/h
1275 13-09-2006 20:38:02 23.1 C 10.96 g/m*3 23.1 C 0 km/h
Sensor: Nr:Datum:Temp:Abs-Feuchte:Windchill:Wind:
Aussen-T/F 1276 13-09-2006 20:48:02 22.9 C 11.04 g/m*3 22.9 C 0 km/h
1277 13-09-2006 20:58:03 22.8 C 10.97 g/m*3 22.8 C 0 km/h
1278 13-09-2006 21:08:02 22.5 C 10.99 g/m*3 22.5 C 0 km/h
1279 13-09-2006 21:18:02 22.4 C 10.92 g/m*3 22.4 C 0 km/h
1280 13-09-2006 21:28:02 22.3 C 10.86 g/m*3 22.3 C 0 km/h
1281 13-09-2006 21:39:48 22.1 C 10.74 g/m*3 22.1 C 0 km/h
1282 13-09-2006 21:49:48 22 C 10.87 g/m*3 22 C 0 km/h
1283 13-09-2006 21:59:48 21.9 C 11 g/m*3 21.9 C 0 km/h
1284 13-09-2006 22:09:48 21.8 C 10.94 g/m*3 21.8 C 0 km/h
1285 13-09-2006 22:19:48 21.7 C 10.87 g/m*3 21.7 C 0 km/h
1286 13-09-2006 22:29:48 21.6 C 11 g/m*3 21.6 C 0 km/h
1287 13-09-2006 22:39:48 21.5 C 10.94 g/m*3 21.5 C 0 km/h
1288 13-09-2006 22:49:48 21.2 C 10.75 g/m*3 21.2 C 0 km/h
1289 13-09-2006 22:59:48 21 C 10.81 g/m*3 21 C 0 km/h
1290 13-09-2006 23:09:48 20.9 C 10.93 g/m*3 20.9 C 0 km/h
1291 13-09-2006 23:19:48 20.8 C 11.05 g/m*3 20.8 C 0 km/h
1292 13-09-2006 23:29:48 20.6 C 10.92 g/m*3 20.6 C 0 km/h
1293 13-09-2006 23:39:48 20.3 C 10.9 g/m*3 20.3 C 0 km/h
1294 13-09-2006 23:49:48 20.3 C 11.08 g/m*3 20.3 C 0 km/h
1295 13-09-2006 23:59:49 20 C 10.89 g/m*3 20 C 0 km/h
1296 14-09-2006 00:09:49 19.9 C 11.17 g/m*3 19.9 C 0 km/h
1297 14-09-2006 00:19:49 19.7 C 11.21 g/m*3 19.7 C 0 km/h
1298 14-09-2006 00:29:49 19.6 C 11.14 g/m*3 19.6 C 0 km/h
1299 14-09-2006 00:39:49 19.6 C 11.48 g/m*3 19.6 C 0 km/h
1300 14-09-2006 00:49:49 19.4 C 11.18 g/m*3 19.4 C 0 km/h
Sensor: Nr:Datum:Temp:Abs-Feuchte:Windchill:Wind:
Aussen-T/F 1301 14-09-2006 00:59:49 19.1 C 11.15 g/m*3 19.1 C 0 km/h
1302 14-09-2006 01:09:49 19 C 11.24 g/m*3 19 C 0 km/h
1303 14-09-2006 01:19:49 18.9 C 11.34 g/m*3 18.9 C 0 km/h
1304 14-09-2006 01:29:49 18.7 C 11.53 g/m*3 18.7 C 0 km/h
1305 14-09-2006 01:39:49 18.6 C 11.46 g/m*3 18.6 C 0 km/h
1306 14-09-2006 01:49:49 18.5 C 11.39 g/m*3 18.5 C 0 km/h
1307 14-09-2006 01:59:49 18.3 C 11.41 g/m*3 18.3 C 0 km/h
1308 14-09-2006 02:09:49 18.2 C 11.35 g/m*3 18.2 C 0 km/h
1309 14-09-2006 02:19:49 18.1 C 11.28 g/m*3 18.1 C 0 km/h
1310 14-09-2006 02:29:49 17.9 C 11.45 g/m*3 17.9 C 0 km/h
1311 14-09-2006 02:39:49 17.9 C 11.45 g/m*3 17.9 C 0 km/h
1312 14-09-2006 02:49:50 17.7 C 11.47 g/m*3 17.7 C 0 km/h
1313 14-09-2006 02:59:50 17.7 C 11.62 g/m*3 17.7 C 0 km/h
1314 14-09-2006 03:09:50 17.5 C 11.78 g/m*3 17.5 C 0 km/h
1315 14-09-2006 03:19:50 17.3 C 11.49 g/m*3 17.3 C 0 km/h
1316 14-09-2006 03:29:50 17.2 C 11.42 g/m*3 17.2 C 0 km/h
1317 14-09-2006 03:39:50 17.1 C 11.35 g/m*3 17.1 C 0 km/h
1318 14-09-2006 03:49:50 16.9 C 11.36 g/m*3 16.9 C 0 km/h
1319 14-09-2006 03:59:50 16.8 C 11.29 g/m*3 16.8 C 0 km/h
1320 14-09-2006 04:09:50 16.8 C 11.29 g/m*3 16.8 C 0 km/h
1321 14-09-2006 04:19:50 16.7 C 11.23 g/m*3 16.7 C 0 km/h
1322 14-09-2006 04:29:50 16.5 C 11.23 g/m*3 16.5 C 0 km/h
1323 14-09-2006 04:39:50 16.4 C 11.17 g/m*3 16.4 C 0 km/h
1324 14-09-2006 04:49:50 16.4 C 11.17 g/m*3 16.4 C 0 km/h
1325 14-09-2006 04:59:50 16.3 C 11.24 g/m*3 16.3 C 0 km/h
Sensor: Nr:Datum:Temp:Abs-Feuchte:Windchill:Wind:
Aussen-T/F 1326 14-09-2006 05:09:50 16.2 C 11.31 g/m*3 16.2 C 0 km/h
1327 14-09-2006 05:19:50 16.1 C 11.24 g/m*3 16.1 C 0 km/h
1328 14-09-2006 05:29:50 16 C 11.17 g/m*3 16 C 0 km/h
1329 14-09-2006 05:39:50 15.7 C 11.11 g/m*3 15.7 C 0 km/h
1330 14-09-2006 05:49:51 15.6 C 11.17 g/m*3 15.6 C 0 km/h
1331 14-09-2006 05:59:51 15.4 C 11.04 g/m*3 15.4 C 0 km/h
1332 14-09-2006 06:09:51 15.2 C 10.9 g/m*3 15.2 C 0 km/h
1333 14-09-2006 06:19:51 15.2 C 10.9 g/m*3 15.2 C 0 km/h
1334 14-09-2006 06:29:51 15.1 C 10.84 g/m*3 15.1 C 0 km/h
1335 14-09-2006 06:39:51 15 C 10.77 g/m*3 15 C 0 km/h
1336 14-09-2006 06:49:51 15 C 10.77 g/m*3 15 C 0 km/h
1337 14-09-2006 06:59:51 14.9 C 10.96 g/m*3 14.9 C 0 km/h
1338 14-09-2006 07:09:51 14.8 C 10.77 g/m*3 14.8 C 0 km/h
1339 14-09-2006 07:19:51 14.9 C 10.96 g/m*3 14.9 C 0 km/h
1340 14-09-2006 07:29:02 14.9 C 10.96 g/m*3 14.9 C 0 km/h
1341 14-09-2006 07:39:02 14.8 C 10.89 g/m*3 14.8 C 0 km/h
1342 14-09-2006 07:49:02 15 C 10.9 g/m*3 15 C 0 km/h
1343 14-09-2006 07:59:02 15.2 C 11.03 g/m*3 15.2 C 0 km/h
1344 14-09-2006 08:09:02 15.3 C 11.1 g/m*3 15.3 C 0 km/h
1345 14-09-2006 08:19:02 15.3 C 11.1 g/m*3 15.3 C 0 km/h
1346 14-09-2006 08:29:02 15.8 C 11.31 g/m*3 15.8 C 0 km/h
1347 14-09-2006 08:39:02 16.1 C 11.38 g/m*3 16.1 C 0 km/h
1348 14-09-2006 08:49:02 16.3 C 11.38 g/m*3 16.3 C 0 km/h
1349 14-09-2006 08:59:02 16.5 C 11.51 g/m*3 16.5 C 0 km/h
1350 14-09-2006 09:09:03 16.6 C 11.44 g/m*3 16.6 C 0 km/h
Sensor: Nr:Datum:Temp:Abs-Feuchte:Windchill:Wind:
Aussen-T/F 1351 14-09-2006 09:19:02 16.6 C 11.3 g/m*3 16.6 C 0 km/h
1352 14-09-2006 09:29:02 16.9 C 11.36 g/m*3 16.9 C 0 km/h
1353 14-09-2006 09:39:03 17.2 C 11.72 g/m*3 17.2 C 0 km/h
1354 14-09-2006 09:49:02 17.6 C 12.15 g/m*3 17.6 C 0 km/h
1355 14-09-2006 09:59:02 18 C 11.98 g/m*3 18 C 0 km/h
1356 14-09-2006 10:09:02 18.3 C 11.88 g/m*3 18.3 C 0 km/h
1357 14-09-2006 10:19:02 18.7 C 11.69 g/m*3 18.7 C 0 km/h
1358 14-09-2006 10:29:02 19.2 C 11.05 g/m*3 19.2 C 0 km/h
1359 14-09-2006 10:39:02 19.7 C 10.87 g/m*3 19.7 C 0 km/h
1360 14-09-2006 10:49:02 20.2 C 10.49 g/m*3 20.2 C 0 km/h
1361 14-09-2006 10:59:02 20.6 C 10.56 g/m*3 20.6 C 0 km/h
1362 14-09-2006 11:09:02 21 C 10.44 g/m*3 21 C 0 km/h
1363 14-09-2006 11:19:02 21.4 C 10.5 g/m*3 21.4 C 0 km/h
1364 14-09-2006 11:29:02 21.6 C 10.24 g/m*3 21.6 C 0 km/h
1365 14-09-2006 11:39:03 22 C 9.9 g/m*3 22 C 0 km/h
1366 14-09-2006 11:49:02 22.5 C 10.19 g/m*3 22.5 C 0 km/h
1367 14-09-2006 11:59:02 22.6 C 10.04 g/m*3 22.6 C 0 km/h
1368 14-09-2006 12:09:03 23.1 C 10.13 g/m*3 23.1 C 0 km/h
1369 14-09-2006 12:19:02 23.3 C 10.04 g/m*3 23.3 C 0 km/h
1370 14-09-2006 12:29:02 23.7 C 10.27 g/m*3 23.7 C 0 km/h
1371 14-09-2006 12:39:03 23.8 C 10.76 g/m*3 23.8 C 0 km/h
1372 14-09-2006 12:49:03 23.7 C 10.48 g/m*3 23.7 C 0 km/h
1373 14-09-2006 12:59:03 24.1 C 10.94 g/m*3 24.1 C 0 km/h
1374 14-09-2006 13:09:03 24.4 C 10.9 g/m*3 24.4 C 0 km/h
1375 14-09-2006 13:19:02 24.9 C 11.45 g/m*3 24.9 C 0 km/h
Sensor: Nr:Datum:Temp:Abs-Feuchte:Windchill:Wind:
Aussen-T/F 1376 14-09-2006 13:29:02 25.6 C 10 g/m*3 25.6 C 0 km/h
1377 14-09-2006 13:39:02 26 C 10.96 g/m*3 26 C 0 km/h
1378 14-09-2006 13:49:02 26.6 C 10.57 g/m*3 26.6 C 0 km/h
1379 14-09-2006 13:59:02 27.2 C 9.63 g/m*3 27.2 C 0 km/h
1380 14-09-2006 14:09:02 27.5 C 10.58 g/m*3 27.5 C 0 km/h
1381 14-09-2006 14:19:02 28.3 C 8.85 g/m*3 28.3 C 0 km/h
1382 14-09-2006 14:29:02 28.5 C 9.5 g/m*3 28.5 C 0 km/h
1383 14-09-2006 14:39:01 28.5 C 9.22 g/m*3 28.5 C 0 km/h
1384 14-09-2006 14:49:02 28.4 C 8.9 g/m*3 28.4 C 0 km/h
1385 14-09-2006 14:59:02 28.8 C 10.51 g/m*3 28.8 C 0 km/h
1386 14-09-2006 15:09:02 29.5 C 8.85 g/m*3 29.5 C 0 km/h
1387 14-09-2006 15:19:02 30 C 8.19 g/m*3 30 C 0 km/h
1388 14-09-2006 15:29:02 30.4 C 8.37 g/m*3 30.4 C 0 km/h
1389 14-09-2006 15:39:02 30.3 C 8.32 g/m*3 30.3 C 0 km/h
1390 14-09-2006 15:49:02 30.1 C 8.54 g/m*3 30.1 C 0 km/h
1391 14-09-2006 15:59:02 29.6 C 8.9 g/m*3 29.6 C 0 km/h
1392 14-09-2006 16:09:02 29.2 C 9.87 g/m*3 29.2 C 0 km/h
1393 14-09-2006 16:19:02 29.7 C 10.44 g/m*3 29.7 C 0 km/h
1394 14-09-2006 16:29:02 30 C 9.7 g/m*3 30 C 0 km/h
1395 14-09-2006 16:39:02 30.4 C 8.37 g/m*3 30.4 C 0 km/h
1396 14-09-2006 16:49:02 30.1 C 9.15 g/m*3 30.1 C 0 km/h
1397 14-09-2006 16:59:02 29.4 C 9.39 g/m*3 29.4 C 0 km/h
1398 14-09-2006 17:09:02 28.9 C 10 g/m*3 28.9 C 0 km/h
1399 14-09-2006 17:19:02 28.2 C 10.17 g/m*3 28.2 C 0 km/h
1400 14-09-2006 17:29:02 28.2 C 10.17 g/m*3 28.2 C 0 km/h
Sensor: Nr:Datum:Temp:Abs-Feuchte:Windchill:Wind:
Aussen-T/F 1401 14-09-2006 17:39:02 26.9 C 10.49 g/m*3 26.9 C 0 km/h
1402 14-09-2006 17:49:02 26.4 C 10.7 g/m*3 26.4 C 0 km/h
1403 14-09-2006 17:59:02 26.1 C 10.53 g/m*3 26.1 C 0 km/h
1404 14-09-2006 18:09:03 25.7 C 11.01 g/m*3 25.7 C 0 km/h
1405 14-09-2006 18:19:03 25.5 C 10.89 g/m*3 25.5 C 0 km/h
1406 14-09-2006 18:29:03 25.2 C 10.94 g/m*3 25.2 C 0 km/h
1407 14-09-2006 18:39:03 25.2 C 10.94 g/m*3 25.2 C 0 km/h
1408 14-09-2006 18:49:02 24.5 C 10.74 g/m*3 24.5 C 0 km/h
1409 14-09-2006 18:59:02 24.2 C 10.56 g/m*3 24.2 C 0 km/h
1410 14-09-2006 19:09:02 23.9 C 10.38 g/m*3 23.9 C 0 km/h
1411 14-09-2006 19:19:02 23.7 C 10.27 g/m*3 23.7 C 0 km/h
1412 14-09-2006 19:29:02 23.5 C 10.36 g/m*3 23.5 C 0 km/h
1413 14-09-2006 19:39:03 23.3 C 10.45 g/m*3 23.3 C 0 km/h
1414 14-09-2006 19:49:03 23.2 C 10.39 g/m*3 23.2 C 0 km/h
1415 14-09-2006 19:59:03 23.1 C 10.34 g/m*3 23.1 C 0 km/h
1416 14-09-2006 20:09:02 23.1 C 10.13 g/m*3 23.1 C 0 km/h
1417 14-09-2006 20:19:03 23.1 C 10.13 g/m*3 23.1 C 0 km/h
1418 14-09-2006 20:29:03 23 C 10.07 g/m*3 23 C 0 km/h
1419 14-09-2006 20:39:03 22.7 C 10.3 g/m*3 22.7 C 0 km/h
1420 14-09-2006 20:49:02 22.5 C 10.19 g/m*3 22.5 C 0 km/h
1421 14-09-2006 20:59:02 22.1 C 10.15 g/m*3 22.1 C 0 km/h
1422 14-09-2006 21:09:02 21.8 C 10.36 g/m*3 21.8 C 0 km/h
1423 14-09-2006 21:19:02 21.7 C 10.3 g/m*3 21.7 C 0 km/h
1424 14-09-2006 21:29:02 21.5 C 10.37 g/m*3 21.5 C 0 km/h
1425 14-09-2006 21:39:02 21.4 C 10.5 g/m*3 21.4 C 0 km/h
Sensor: Nr:Datum:Temp:Abs-Feuchte:Windchill:Wind:
Aussen-T/F 1426 14-09-2006 21:49:01 21.2 C 10.19 g/m*3 21.2 C 0 km/h
1427 14-09-2006 21:59:01 21.1 C 10.32 g/m*3 21.1 C 0 km/h
1428 14-09-2006 22:09:02 21.1 C 10.5 g/m*3 21.1 C 0 km/h
1429 14-09-2006 22:19:02 21.2 C 10.56 g/m*3 21.2 C 0 km/h
1430 14-09-2006 22:29:02 21.2 C 10.75 g/m*3 21.2 C 0 km/h
1431 14-09-2006 22:39:02 21 C 10.62 g/m*3 21 C 0 km/h
1432 14-09-2006 22:49:02 21 C 10.62 g/m*3 21 C 0 km/h
1433 14-09-2006 22:59:02 21 C 10.62 g/m*3 21 C 0 km/h
1434 14-09-2006 23:09:01 20.9 C 10.75 g/m*3 20.9 C 0 km/h
1435 14-09-2006 23:19:01 20.8 C 10.68 g/m*3 20.8 C 0 km/h
1436 14-09-2006 23:29:01 20.7 C 10.62 g/m*3 20.7 C 0 km/h
1437 14-09-2006 23:39:01 20.4 C 10.44 g/m*3 20.4 C 0 km/h
1438 14-09-2006 23:49:02 20.3 C 10.55 g/m*3 20.3 C 0 km/h
1439 14-09-2006 23:59:02 20.1 C 10.6 g/m*3 20.1 C 0 km/h
1440 15-09-2006 00:09:02 19.8 C 10.59 g/m*3 19.8 C 0 km/h
1441 15-09-2006 00:19:03 19.7 C 10.36 g/m*3 19.7 C 0 km/h
1442 15-09-2006 00:29:03 19.8 C 10.42 g/m*3 19.8 C 0 km/h
1443 15-09-2006 00:39:03 19.7 C 10.02 g/m*3 19.7 C 0 km/h
1444 15-09-2006 00:49:02 19.7 C 10.19 g/m*3 19.7 C 0 km/h
1445 15-09-2006 00:59:03 19.5 C 10.07 g/m*3 19.5 C 0 km/h
1446 15-09-2006 01:09:02 19.5 C 10.24 g/m*3 19.5 C 0 km/h
1447 15-09-2006 01:19:02 19.5 C 10.07 g/m*3 19.5 C 0 km/h
1448 15-09-2006 01:29:02 19.3 C 10.12 g/m*3 19.3 C 0 km/h
1449 15-09-2006 01:39:03 19.1 C 10.33 g/m*3 19.1 C 0 km/h
1450 15-09-2006 01:49:02 19 C 10.43 g/m*3 19 C 0 km/h
Sensor: Nr:Datum:Temp:Abs-Feuchte:Windchill:Wind:
Aussen-T/F 1451 15-09-2006 01:59:02 18.8 C 10.31 g/m*3 18.8 C 0 km/h
1452 15-09-2006 02:09:02 18.7 C 10.09 g/m*3 18.7 C 0 km/h
1453 15-09-2006 02:19:01 18.4 C 9.91 g/m*3 18.4 C 0 km/h
1454 15-09-2006 02:29:01 18.2 C 9.79 g/m*3 18.2 C 0 km/h
1455 15-09-2006 02:39:02 18 C 9.83 g/m*3 18 C 0 km/h
1456 15-09-2006 02:50:04 17.9 C 9.92 g/m*3 17.9 C 0 km/h
1457 15-09-2006 03:00:04 17.9 C 10.23 g/m*3 17.9 C 0 km/h
1458 15-09-2006 03:10:04 17.8 C 10.02 g/m*3 17.8 C 0 km/h
1459 15-09-2006 03:20:04 17.7 C 9.96 g/m*3 17.7 C 0 km/h
1460 15-09-2006 03:30:04 17.6 C 9.9 g/m*3 17.6 C 0 km/h
1461 15-09-2006 03:40:02 17.5 C 9.84 g/m*3 17.5 C 0 km/h
1462 15-09-2006 03:50:02 17.4 C 9.93 g/m*3 17.4 C 0 km/h
1463 15-09-2006 04:00:03 17.2 C 9.81 g/m*3 17.2 C 0 km/h
1464 15-09-2006 04:10:03 17.1 C 9.75 g/m*3 17.1 C 0 km/h
1465 15-09-2006 04:20:03 17 C 9.84 g/m*3 17 C 0 km/h
1466 15-09-2006 04:30:03 17 C 9.84 g/m*3 17 C 0 km/h
1467 15-09-2006 04:40:02 17.1 C 9.9 g/m*3 17.1 C 0 km/h
1468 15-09-2006 04:50:02 17.2 C 10.1 g/m*3 17.2 C 0 km/h
1469 15-09-2006 05:00:02 17.2 C 9.96 g/m*3 17.2 C 0 km/h
1470 15-09-2006 05:10:02 17.3 C 10.02 g/m*3 17.3 C 0 km/h
1471 15-09-2006 05:20:02 17.4 C 9.93 g/m*3 17.4 C 0 km/h
1472 15-09-2006 05:30:02 17.4 C 9.93 g/m*3 17.4 C 0 km/h
1473 15-09-2006 05:40:03 17.5 C 9.84 g/m*3 17.5 C 0 km/h
1474 15-09-2006 05:50:02 17.5 C 9.84 g/m*3 17.5 C 0 km/h
1475 15-09-2006 06:00:02 17.3 C 10.02 g/m*3 17.3 C 0 km/h
Sensor: Nr:Datum:Temp:Abs-Feuchte:Windchill:Wind:
Aussen-T/F 1476 15-09-2006 06:10:03 17.3 C 9.87 g/m*3 17.3 C 0 km/h
1477 15-09-2006 06:20:03 17.2 C 9.81 g/m*3 17.2 C 0 km/h
1478 15-09-2006 06:30:03 17.3 C 9.72 g/m*3 17.3 C 0 km/h
1479 15-09-2006 06:40:03 17.3 C 9.58 g/m*3 17.3 C 0 km/h
1480 15-09-2006 06:50:02 17.4 C 9.48 g/m*3 17.4 C 0 km/h
1481 15-09-2006 07:00:02 17.3 C 9.43 g/m*3 17.3 C 0 km/h
1482 15-09-2006 07:10:03 17 C 9.55 g/m*3 17 C 0 km/h
1483 15-09-2006 07:20:02 17 C 9.55 g/m*3 17 C 0 km/h
1484 15-09-2006 07:30:02 16.9 C 9.64 g/m*3 16.9 C 0 km/h
1485 15-09-2006 07:40:03 16.6 C 9.61 g/m*3 16.6 C 0 km/h
1486 15-09-2006 07:50:02 16.7 C 9.81 g/m*3 16.7 C 0 km/h
1487 15-09-2006 08:00:02 16.6 C 9.89 g/m*3 16.6 C 0 km/h
1488 15-09-2006 08:10:02 16.8 C 9.87 g/m*3 16.8 C 0 km/h
1489 15-09-2006 08:20:02 17.1 C 9.9 g/m*3 17.1 C 0 km/h
1490 15-09-2006 08:30:02 17.3 C 9.87 g/m*3 17.3 C 0 km/h
1491 15-09-2006 08:40:01 17.5 C 9.99 g/m*3 17.5 C 0 km/h
1492 15-09-2006 08:50:02 17.7 C 9.96 g/m*3 17.7 C 0 km/h
1493 15-09-2006 09:00:02 17.8 C 9.87 g/m*3 17.8 C 0 km/h
1494 15-09-2006 09:10:02 17.9 C 9.92 g/m*3 17.9 C 0 km/h
1495 15-09-2006 09:20:02 18.2 C 9.95 g/m*3 18.2 C 0 km/h
1496 15-09-2006 09:30:02 18.4 C 10.07 g/m*3 18.4 C 0 km/h
1497 15-09-2006 09:40:02 18.7 C 9.93 g/m*3 18.7 C 0 km/h
1498 15-09-2006 09:50:02 19 C 9.61 g/m*3 19 C 0 km/h
1499 15-09-2006 10:00:02 19.2 C 10.06 g/m*3 19.2 C 0 km/h
1500 15-09-2006 10:10:02 19.3 C 10.12 g/m*3 19.3 C 0 km/h
Sensor: Nr:Datum:Temp:Abs-Feuchte:Windchill:Wind:
Aussen-T/F 1501 15-09-2006 10:20:02 19.6 C 9.96 g/m*3 19.6 C 0 km/h
1502 15-09-2006 10:30:02 20 C 9.85 g/m*3 20 C 0 km/h
1503 15-09-2006 10:40:02 20.8 C 9.78 g/m*3 20.8 C 0 km/h
1504 15-09-2006 10:50:02 21.4 C 8.81 g/m*3 21.4 C 0 km/h
1505 15-09-2006 11:00:02 21.8 C 9.21 g/m*3 21.8 C 0 km/h
1506 15-09-2006 11:10:02 22.5 C 9.19 g/m*3 22.5 C 0 km/h
1507 15-09-2006 11:20:02 22.7 C 8.89 g/m*3 22.7 C 0 km/h
1508 15-09-2006 11:30:02 22.9 C 8.99 g/m*3 22.9 C 0 km/h
1509 15-09-2006 11:40:02 23.3 C 8.99 g/m*3 23.3 C 0 km/h
1510 15-09-2006 11:50:02 23.7 C 8.98 g/m*3 23.7 C 0 km/h
1511 15-09-2006 12:00:02 23.8 C 9.25 g/m*3 23.8 C 0 km/h
1512 15-09-2006 12:10:03 24.1 C 8.75 g/m*3 24.1 C 0 km/h
1513 15-09-2006 12:20:02 24.4 C 9.12 g/m*3 24.4 C 0 km/h
1514 15-09-2006 12:30:02 24.6 C 8.78 g/m*3 24.6 C 0 km/h
1515 15-09-2006 12:40:02 24.7 C 8.83 g/m*3 24.7 C 0 km/h
1516 15-09-2006 12:50:02 25.3 C 8.43 g/m*3 25.3 C 0 km/h
1517 15-09-2006 13:00:02 25.4 C 8.71 g/m*3 25.4 C 0 km/h
1518 15-09-2006 13:10:02 25.1 C 8.8 g/m*3 25.1 C 0 km/h
1519 15-09-2006 13:20:02 25.8 C 8.91 g/m*3 25.8 C 0 km/h
1520 15-09-2006 13:30:02 26.4 C 8.71 g/m*3 26.4 C 0 km/h
1521 15-09-2006 13:40:02 26.7 C 8.86 g/m*3 26.7 C 0 km/h
1522 15-09-2006 13:50:02 26.6 C 9.06 g/m*3 26.6 C 0 km/h
1523 15-09-2006 14:00:02 26.7 C 8.86 g/m*3 26.7 C 0 km/h
1524 15-09-2006 14:10:02 26.9 C 9.21 g/m*3 26.9 C 0 km/h
1525 15-09-2006 14:20:02 26.8 C 9.42 g/m*3 26.8 C 0 km/h
Sensor: Nr:Datum:Temp:Abs-Feuchte:Windchill:Wind:
Aussen-T/F 1526 15-09-2006 14:30:02 26.9 C 8.96 g/m*3 26.9 C 0 km/h
1527 15-09-2006 14:40:02 26.9 C 8.96 g/m*3 26.9 C 0 km/h
1528 15-09-2006 14:50:02 27.3 C 8.9 g/m*3 27.3 C 0 km/h
1529 15-09-2006 15:00:02 27.5 C 9.26 g/m*3 27.5 C 0 km/h
1530 15-09-2006 15:10:02 27.4 C 9.47 g/m*3 27.4 C 0 km/h
1531 15-09-2006 15:20:01 27 C 9.01 g/m*3 27 C 0 km/h
1532 15-09-2006 15:30:01 27 C 9.01 g/m*3 27 C 0 km/h
1533 15-09-2006 15:40:03 26.7 C 9.11 g/m*3 26.7 C 0 km/h
1534 15-09-2006 15:50:02 26.7 C 9.11 g/m*3 26.7 C 0 km/h
1535 15-09-2006 16:00:02 26.8 C 9.67 g/m*3 26.8 C 0 km/h
1536 15-09-2006 16:10:02 26.7 C 10.38 g/m*3 26.7 C 0 km/h
1537 15-09-2006 16:20:02 26.2 C 9.85 g/m*3 26.2 C 0 km/h
1538 15-09-2006 16:30:02 26 C 10.23 g/m*3 26 C 0 km/h
1539 15-09-2006 16:40:02 25.9 C 10.41 g/m*3 25.9 C 0 km/h
1540 15-09-2006 16:50:02 26 C 10.96 g/m*3 26 C 0 km/h
1541 15-09-2006 17:00:02 26 C 10.71 g/m*3 26 C 0 km/h
1542 15-09-2006 17:10:02 26.4 C 10.46 g/m*3 26.4 C 0 km/h
1543 15-09-2006 17:20:01 26.3 C 11.14 g/m*3 26.3 C 0 km/h
1544 15-09-2006 17:30:01 25.7 C 11.01 g/m*3 25.7 C 0 km/h
1545 15-09-2006 17:40:01 25.3 C 11.24 g/m*3 25.3 C 0 km/h
1546 15-09-2006 17:50:02 25 C 11.28 g/m*3 25 C 0 km/h
1547 15-09-2006 18:00:02 24.3 C 11.51 g/m*3 24.3 C 0 km/h
1548 15-09-2006 18:10:02 23.5 C 12.05 g/m*3 23.5 C 0 km/h
1549 15-09-2006 18:20:02 22.9 C 12.26 g/m*3 22.9 C 0 km/h
1550 15-09-2006 18:30:02 21.8 C 12.09 g/m*3 21.8 C 0 km/h
Sensor: Nr:Datum:Temp:Abs-Feuchte:Windchill:Wind:
Aussen-T/F 1551 15-09-2006 18:40:02 22 C 11.84 g/m*3 22 C 0 km/h
1552 15-09-2006 18:50:02 22.8 C 11.58 g/m*3 22.8 C 0 km/h
1553 15-09-2006 19:00:02 22.8 C 11.38 g/m*3 22.8 C 0 km/h
1554 15-09-2006 19:10:02 22.8 C 11.38 g/m*3 22.8 C 0 km/h
1555 15-09-2006 19:20:02 22.8 C 11.18 g/m*3 22.8 C 0 km/h
1556 15-09-2006 19:30:02 22.7 C 10.91 g/m*3 22.7 C 0 km/h
1557 15-09-2006 19:40:01 22.7 C 11.11 g/m*3 22.7 C 0 km/h
1558 15-09-2006 19:50:02 22.6 C 11.05 g/m*3 22.6 C 0 km/h
1559 15-09-2006 20:00:02 22.4 C 11.12 g/m*3 22.4 C 0 km/h
1560 15-09-2006 20:10:02 22.2 C 10.8 g/m*3 22.2 C 0 km/h
1561 15-09-2006 20:20:02 22.2 C 10.8 g/m*3 22.2 C 0 km/h
1562 15-09-2006 20:30:02 22.1 C 10.74 g/m*3 22.1 C 0 km/h
1563 15-09-2006 20:40:03 22.1 C 10.74 g/m*3 22.1 C 0 km/h
1564 15-09-2006 20:50:02 22.1 C 10.74 g/m*3 22.1 C 0 km/h
1565 15-09-2006 21:00:02 22.1 C 10.74 g/m*3 22.1 C 0 km/h
1566 15-09-2006 21:10:02 22.1 C 10.74 g/m*3 22.1 C 0 km/h
1567 15-09-2006 21:20:02 22 C 10.67 g/m*3 22 C 0 km/h
1568 15-09-2006 21:30:02 21.9 C 10.81 g/m*3 21.9 C 0 km/h
1569 15-09-2006 21:40:02 21.9 C 10.81 g/m*3 21.9 C 0 km/h
1570 15-09-2006 21:50:02 21.8 C 10.74 g/m*3 21.8 C 0 km/h
1571 15-09-2006 22:00:02 21.8 C 10.74 g/m*3 21.8 C 0 km/h
1572 15-09-2006 22:10:02 21.8 C 10.74 g/m*3 21.8 C 0 km/h
1573 15-09-2006 22:20:02 21.7 C 10.68 g/m*3 21.7 C 0 km/h
1574 15-09-2006 22:30:02 21.6 C 10.62 g/m*3 21.6 C 0 km/h
1575 15-09-2006 22:40:03 21.3 C 10.62 g/m*3 21.3 C 0 km/h
Sensor: Nr:Datum:Temp:Abs-Feuchte:Windchill:Wind:
Aussen-T/F 1576 15-09-2006 22:50:02 21.2 C 10.56 g/m*3 21.2 C 0 km/h
1577 15-09-2006 23:00:02 20.8 C 10.68 g/m*3 20.8 C 0 km/h
1578 15-09-2006 23:10:02 20.8 C 10.68 g/m*3 20.8 C 0 km/h
1579 15-09-2006 23:20:02 20.4 C 10.79 g/m*3 20.4 C 0 km/h
1580 15-09-2006 23:30:02 20.2 C 10.67 g/m*3 20.2 C 0 km/h
1581 15-09-2006 23:40:02 20 C 10.54 g/m*3 20 C 0 km/h
1582 15-09-2006 23:50:01 19.9 C 10.65 g/m*3 19.9 C 0 km/h
1583 16-09-2006 00:00:01 19.6 C 10.64 g/m*3 19.6 C 0 km/h
1584 16-09-2006 00:10:01 19.4 C 10.68 g/m*3 19.4 C 0 km/h
1585 16-09-2006 00:20:02 19.2 C 10.72 g/m*3 19.2 C 0 km/h
1586 16-09-2006 00:30:02 19.1 C 10.66 g/m*3 19.1 C 0 km/h
1587 16-09-2006 00:40:02 19 C 10.76 g/m*3 19 C 0 km/h
1588 16-09-2006 00:50:02 19.1 C 10.82 g/m*3 19.1 C 0 km/h
1589 16-09-2006 01:00:02 19.1 C 10.82 g/m*3 19.1 C 0 km/h
1590 16-09-2006 01:10:02 19 C 10.76 g/m*3 19 C 0 km/h
1591 16-09-2006 01:20:02 18.9 C 11.02 g/m*3 18.9 C 0 km/h
1592 16-09-2006 01:30:02 18.8 C 11.11 g/m*3 18.8 C 0 km/h
1593 16-09-2006 01:40:02 18.8 C 11.11 g/m*3 18.8 C 0 km/h
1594 16-09-2006 01:50:02 18.7 C 11.05 g/m*3 18.7 C 0 km/h
1595 16-09-2006 02:00:02 18.7 C 11.05 g/m*3 18.7 C 0 km/h
1596 16-09-2006 02:10:02 18.7 C 10.89 g/m*3 18.7 C 0 km/h
1597 16-09-2006 02:20:02 18.7 C 11.05 g/m*3 18.7 C 0 km/h
1598 16-09-2006 02:30:02 18.6 C 10.98 g/m*3 18.6 C 0 km/h
1599 16-09-2006 02:40:02 18.5 C 11.08 g/m*3 18.5 C 0 km/h
1600 16-09-2006 02:51:04 18.5 C 11.08 g/m*3 18.5 C 0 km/h
Sensor: Nr:Datum:Temp:Abs-Feuchte:Windchill:Wind:
Aussen-T/F 1601 16-09-2006 03:01:04 18.4 C 11.01 g/m*3 18.4 C 0 km/h
1602 16-09-2006 03:11:04 18.3 C 11.1 g/m*3 18.3 C 0 km/h
1603 16-09-2006 03:21:04 18.2 C 11.04 g/m*3 18.2 C 0 km/h
1604 16-09-2006 03:31:02 18.1 C 10.97 g/m*3 18.1 C 0 km/h
1605 16-09-2006 03:41:02 18 C 10.91 g/m*3 18 C 0 km/h
1606 16-09-2006 03:51:02 18 C 11.06 g/m*3 18 C 0 km/h
1607 16-09-2006 04:01:02 18.1 C 11.12 g/m*3 18.1 C 0 km/h
1608 16-09-2006 04:11:02 17.8 C 11.23 g/m*3 17.8 C 0 km/h
1609 16-09-2006 04:21:01 17.5 C 11.03 g/m*3 17.5 C 0 km/h
1610 16-09-2006 04:31:02 17.5 C 11.18 g/m*3 17.5 C 0 km/h
1611 16-09-2006 04:41:03 17.4 C 11.12 g/m*3 17.4 C 0 km/h
1612 16-09-2006 04:51:01 17.3 C 11.05 g/m*3 17.3 C 0 km/h
1613 16-09-2006 05:01:01 17.2 C 10.98 g/m*3 17.2 C 0 km/h
1614 16-09-2006 05:11:01 17.2 C 11.13 g/m*3 17.2 C 0 km/h
1615 16-09-2006 05:21:01 17.1 C 10.92 g/m*3 17.1 C 0 km/h
1616 16-09-2006 05:31:02 17 C 11.14 g/m*3 17 C 0 km/h
1617 16-09-2006 05:41:02 16.8 C 11.29 g/m*3 16.8 C 0 km/h
1618 16-09-2006 05:51:02 16.6 C 11.16 g/m*3 16.6 C 0 km/h
1619 16-09-2006 06:01:02 16.5 C 11.09 g/m*3 16.5 C 0 km/h
1620 16-09-2006 06:11:02 16.4 C 11.03 g/m*3 16.4 C 0 km/h
1621 16-09-2006 06:21:02 16.2 C 10.89 g/m*3 16.2 C 0 km/h
1622 16-09-2006 06:31:02 16.1 C 10.97 g/m*3 16.1 C 0 km/h
1623 16-09-2006 06:41:02 16 C 10.9 g/m*3 16 C 0 km/h
1624 16-09-2006 06:51:02 15.8 C 11.17 g/m*3 15.8 C 0 km/h
1625 16-09-2006 07:01:02 15.8 C 11.17 g/m*3 15.8 C 0 km/h
Sensor: Nr:Datum:Temp:Abs-Feuchte:Windchill:Wind:
Aussen-T/F 1626 16-09-2006 07:11:02 15.6 C 11.04 g/m*3 15.6 C 0 km/h
1627 16-09-2006 07:21:02 15.6 C 11.04 g/m*3 15.6 C 0 km/h
1628 16-09-2006 07:31:02 15.5 C 10.97 g/m*3 15.5 C 0 km/h
1629 16-09-2006 07:41:02 15.4 C 10.9 g/m*3 15.4 C 0 km/h
1630 16-09-2006 07:51:02 15.6 C 11.04 g/m*3 15.6 C 0 km/h
1631 16-09-2006 08:01:02 15.7 C 11.24 g/m*3 15.7 C 0 km/h
1632 16-09-2006 08:11:02 15.8 C 11.31 g/m*3 15.8 C 0 km/h
1633 16-09-2006 08:21:02 15.8 C 11.31 g/m*3 15.8 C 0 km/h
1634 16-09-2006 08:31:02 16 C 11.31 g/m*3 16 C 0 km/h
1635 16-09-2006 08:41:02 16.2 C 11.45 g/m*3 16.2 C 0 km/h
1636 16-09-2006 08:51:02 16.4 C 11.45 g/m*3 16.4 C 0 km/h
1637 16-09-2006 09:01:02 16.6 C 11.58 g/m*3 16.6 C 0 km/h
1638 16-09-2006 09:11:02 16.8 C 11.58 g/m*3 16.8 C 0 km/h
1639 16-09-2006 09:21:02 17 C 11.58 g/m*3 17 C 0 km/h
1640 16-09-2006 09:31:02 17.3 C 11.64 g/m*3 17.3 C 0 km/h
1641 16-09-2006 09:41:02 17.6 C 11.7 g/m*3 17.6 C 0 km/h
1642 16-09-2006 09:51:02 18 C 11.83 g/m*3 18 C 0 km/h
1643 16-09-2006 10:01:02 18.6 C 11.94 g/m*3 18.6 C 0 km/h
1644 16-09-2006 10:11:02 19.1 C 11.64 g/m*3 19.1 C 0 km/h
1645 16-09-2006 10:21:01 19.3 C 11.61 g/m*3 19.3 C 0 km/h
1646 16-09-2006 10:31:01 19.7 C 12.06 g/m*3 19.7 C 0 km/h
1647 16-09-2006 10:41:01 19.8 C 12.13 g/m*3 19.8 C 0 km/h
1648 16-09-2006 10:51:02 20.4 C 11.85 g/m*3 20.4 C 0 km/h
1649 16-09-2006 11:01:02 21.2 C 11.68 g/m*3 21.2 C 0 km/h
1650 16-09-2006 11:11:02 21.8 C 11.9 g/m*3 21.8 C 0 km/h
Sensor: Nr:Datum:Temp:Abs-Feuchte:Windchill:Wind:
Aussen-T/F 1651 16-09-2006 11:21:02 22.2 C 11.58 g/m*3 22.2 C 0 km/h
1652 16-09-2006 11:31:01 22.4 C 11.32 g/m*3 22.4 C 0 km/h
1653 16-09-2006 11:41:01 22.8 C 11.99 g/m*3 22.8 C 0 km/h
1654 16-09-2006 11:51:02 23.1 C 11.58 g/m*3 23.1 C 0 km/h
1655 16-09-2006 12:01:02 23.2 C 11.43 g/m*3 23.2 C 0 km/h
1656 16-09-2006 12:11:02 23.7 C 11.55 g/m*3 23.7 C 0 km/h
1657 16-09-2006 12:21:02 23.9 C 11.25 g/m*3 23.9 C 0 km/h
1658 16-09-2006 12:31:02 23.8 C 11.83 g/m*3 23.8 C 0 km/h
1659 16-09-2006 12:41:02 24.1 C 11.38 g/m*3 24.1 C 0 km/h
1660 16-09-2006 12:51:03 24.8 C 11.84 g/m*3 24.8 C 0 km/h
1661 16-09-2006 13:01:02 25.2 C 10.94 g/m*3 25.2 C 0 km/h
1662 16-09-2006 13:11:02 25.9 C 11.14 g/m*3 25.9 C 0 km/h
1663 16-09-2006 13:21:03 26.2 C 11.32 g/m*3 26.2 C 0 km/h
1664 16-09-2006 13:31:03 26.8 C 10.94 g/m*3 26.8 C 0 km/h
1665 16-09-2006 13:41:03 27.5 C 10.85 g/m*3 27.5 C 0 km/h
1666 16-09-2006 13:51:02 27.9 C 11.09 g/m*3 27.9 C 0 km/h
1667 16-09-2006 14:01:03 28 C 10.61 g/m*3 28 C 0 km/h
1668 16-09-2006 14:11:03 27.8 C 10.76 g/m*3 27.8 C 0 km/h
1669 16-09-2006 14:21:02 27.9 C 10.82 g/m*3 27.9 C 0 km/h
1670 16-09-2006 14:31:02 28 C 10.61 g/m*3 28 C 0 km/h
1671 16-09-2006 14:41:02 28.9 C 10.86 g/m*3 28.9 C 0 km/h
1672 16-09-2006 14:51:02 29.4 C 10.27 g/m*3 29.4 C 0 km/h
1673 16-09-2006 15:01:02 29.3 C 10.22 g/m*3 29.3 C 0 km/h
1674 16-09-2006 15:11:03 29.3 C 10.51 g/m*3 29.3 C 0 km/h
1675 16-09-2006 15:21:02 28.7 C 10.17 g/m*3 28.7 C 0 km/h
Sensor: Nr:Datum:Temp:Abs-Feuchte:Windchill:Wind:
Aussen-T/F 1676 16-09-2006 15:31:02 28.7 C 11.3 g/m*3 28.7 C 0 km/h
1677 16-09-2006 15:41:02 28.7 C 11.02 g/m*3 28.7 C 0 km/h
1678 16-09-2006 15:51:02 29.1 C 10.69 g/m*3 29.1 C 0 km/h
1679 16-09-2006 16:01:02 28.8 C 11.36 g/m*3 28.8 C 0 km/h
1680 16-09-2006 16:11:02 28.1 C 11.48 g/m*3 28.1 C 0 km/h
1681 16-09-2006 16:21:02 28.4 C 11.67 g/m*3 28.4 C 0 km/h
1682 16-09-2006 16:31:01 28.8 C 11.36 g/m*3 28.8 C 0 km/h
1683 16-09-2006 16:41:01 28.1 C 11.21 g/m*3 28.1 C 0 km/h
1684 16-09-2006 16:51:02 27.3 C 10.99 g/m*3 27.3 C 0 km/h
1685 16-09-2006 17:01:02 26.9 C 12.03 g/m*3 26.9 C 0 km/h
1686 16-09-2006 17:11:02 26.3 C 11.64 g/m*3 26.3 C 0 km/h
1687 16-09-2006 17:21:02 26.3 C 11.39 g/m*3 26.3 C 0 km/h
1688 16-09-2006 17:31:02 26.6 C 11.08 g/m*3 26.6 C 0 km/h
1689 16-09-2006 17:41:02 25.9 C 11.38 g/m*3 25.9 C 0 km/h
1690 16-09-2006 17:51:02 25 C 11.28 g/m*3 25 C 0 km/h
1691 16-09-2006 18:01:02 24.5 C 11.41 g/m*3 24.5 C 0 km/h
1692 16-09-2006 18:11:02 24.3 C 11.51 g/m*3 24.3 C 0 km/h
1693 16-09-2006 18:21:02 24 C 11.31 g/m*3 24 C 0 km/h
1694 16-09-2006 18:31:02 23.7 C 11.55 g/m*3 23.7 C 0 km/h
1695 16-09-2006 18:41:02 23.5 C 11.63 g/m*3 23.5 C 0 km/h
1696 16-09-2006 18:51:01 23.4 C 11.57 g/m*3 23.4 C 0 km/h
1697 16-09-2006 19:01:01 23 C 11.51 g/m*3 23 C 0 km/h
1698 16-09-2006 19:11:01 22.7 C 11.72 g/m*3 22.7 C 0 km/h
1699 16-09-2006 19:21:02 22.4 C 11.72 g/m*3 22.4 C 0 km/h
1700 16-09-2006 19:31:02 22.1 C 11.52 g/m*3 22.1 C 0 km/h
Sensor: Nr:Datum:Temp:Abs-Feuchte:Windchill:Wind:
Aussen-T/F 1701 16-09-2006 19:41:02 21.9 C 11.77 g/m*3 21.9 C 0 km/h
1702 16-09-2006 19:51:02 21.9 C 11.77 g/m*3 21.9 C 0 km/h
1703 16-09-2006 20:01:03 21.9 C 11.77 g/m*3 21.9 C 0 km/h
1704 16-09-2006 20:11:03 21.9 C 11.77 g/m*3 21.9 C 0 km/h
1705 16-09-2006 20:21:03 21.9 C 11.77 g/m*3 21.9 C 0 km/h
1706 16-09-2006 20:31:02 21.9 C 11.77 g/m*3 21.9 C 0 km/h
1707 16-09-2006 20:41:02 21.9 C 11.77 g/m*3 21.9 C 0 km/h
1708 16-09-2006 20:51:02 21.9 C 11.77 g/m*3 21.9 C 0 km/h
1709 16-09-2006 21:01:02 21.9 C 11.77 g/m*3 21.9 C 0 km/h
1710 16-09-2006 21:11:03 21.9 C 11.77 g/m*3 21.9 C 0 km/h
1711 16-09-2006 21:21:02 21.9 C 11.77 g/m*3 21.9 C 0 km/h
1712 16-09-2006 21:31:02 21.9 C 11.77 g/m*3 21.9 C 0 km/h
1713 16-09-2006 21:41:02 21.9 C 11.77 g/m*3 21.9 C 0 km/h
1714 16-09-2006 21:51:02 21.9 C 11.77 g/m*3 21.9 C 0 km/h
1715 16-09-2006 22:01:01 21.9 C 11.77 g/m*3 21.9 C 0 km/h
1716 16-09-2006 22:11:01 18.9 C 11.66 g/m*3 18.9 C 0 km/h
1717 16-09-2006 22:21:01 18.8 C 11.76 g/m*3 18.8 C 0 km/h
1718 16-09-2006 22:31:01 18.7 C 11.69 g/m*3 18.7 C 0 km/h
1719 16-09-2006 22:41:01 18.6 C 11.62 g/m*3 18.6 C 0 km/h
1720 16-09-2006 22:51:43 18.6 C 11.78 g/m*3 18.6 C 0 km/h
1721 16-09-2006 22:54:02 18.6 C 11.78 g/m*3 18.6 C 0 km/h
1722 16-09-2006 23:04:02 18.6 C 11.78 g/m*3 18.6 C 0 km/h
1723 16-09-2006 23:14:02 18.5 C 11.71 g/m*3 18.5 C 0 km/h
1724 16-09-2006 23:24:02 18.3 C 11.73 g/m*3 18.3 C 0 km/h
1725 16-09-2006 23:34:02 18.3 C 11.73 g/m*3 18.3 C 0 km/h
Sensor: Nr:Datum:Temp:Abs-Feuchte:Windchill:Wind:
Aussen-T/F 1726 16-09-2006 23:44:03 18.3 C 11.73 g/m*3 18.3 C 0 km/h
1727 16-09-2006 23:54:02 18.2 C 11.81 g/m*3 18.2 C 0 km/h
1728 17-09-2006 00:04:02 18.2 C 11.81 g/m*3 18.2 C 0 km/h
1729 17-09-2006 00:14:02 18.1 C 11.74 g/m*3 18.1 C 0 km/h
1730 17-09-2006 00:24:03 18.1 C 11.74 g/m*3 18.1 C 0 km/h
1731 17-09-2006 00:34:03 17.9 C 11.91 g/m*3 17.9 C 0 km/h
1732 17-09-2006 00:44:03 17.8 C 11.84 g/m*3 17.8 C 0 km/h
1733 17-09-2006 00:54:03 17.7 C 11.77 g/m*3 17.7 C 0 km/h
1734 17-09-2006 01:04:02 17.8 C 11.84 g/m*3 17.8 C 0 km/h
1735 17-09-2006 01:14:02 17.9 C 11.91 g/m*3 17.9 C 0 km/h
1736 17-09-2006 01:24:03 17.6 C 11.85 g/m*3 17.6 C 0 km/h
1737 17-09-2006 01:34:03 17.6 C 11.85 g/m*3 17.6 C 0 km/h
1738 17-09-2006 01:44:03 17.6 C 11.85 g/m*3 17.6 C 0 km/h
1739 17-09-2006 01:54:02 17.6 C 11.85 g/m*3 17.6 C 0 km/h
1740 17-09-2006 02:04:02 17.6 C 11.85 g/m*3 17.6 C 0 km/h
1741 17-09-2006 02:14:02 17.6 C 11.85 g/m*3 17.6 C 0 km/h
1742 17-09-2006 02:24:02 17.5 C 11.78 g/m*3 17.5 C 0 km/h
1743 17-09-2006 02:34:02 17.5 C 11.78 g/m*3 17.5 C 0 km/h
1744 17-09-2006 02:44:02 17.5 C 11.93 g/m*3 17.5 C 0 km/h
1745 17-09-2006 02:55:03 17.3 C 11.79 g/m*3 17.3 C 0 km/h
1746 17-09-2006 03:05:03 17.3 C 11.79 g/m*3 17.3 C 0 km/h
1747 17-09-2006 03:15:03 17.2 C 11.72 g/m*3 17.2 C 0 km/h
1748 17-09-2006 03:25:03 17.1 C 11.79 g/m*3 17.1 C 0 km/h
1749 17-09-2006 03:35:02 17 C 11.72 g/m*3 17 C 0 km/h
1750 17-09-2006 03:45:02 16.9 C 11.79 g/m*3 16.9 C 0 km/h
Sensor: Nr:Datum:Temp:Abs-Feuchte:Windchill:Wind:
Aussen-T/F 1751 17-09-2006 03:55:02 17 C 11.87 g/m*3 17 C 0 km/h
1752 17-09-2006 04:05:02 17 C 11.87 g/m*3 17 C 0 km/h
1753 17-09-2006 04:15:02 17 C 11.87 g/m*3 17 C 0 km/h
1754 17-09-2006 04:25:02 17.1 C 11.94 g/m*3 17.1 C 0 km/h
1755 17-09-2006 04:35:02 17.1 C 11.94 g/m*3 17.1 C 0 km/h
1756 17-09-2006 04:45:02 17.1 C 11.94 g/m*3 17.1 C 0 km/h
1757 17-09-2006 04:55:02 17.2 C 12.01 g/m*3 17.2 C 0 km/h
1758 17-09-2006 05:05:01 17.1 C 11.79 g/m*3 17.1 C 0 km/h
1759 17-09-2006 05:15:02 17 C 11.87 g/m*3 17 C 0 km/h
1760 17-09-2006 05:25:02 16.9 C 11.94 g/m*3 16.9 C 0 km/h
1761 17-09-2006 05:35:02 17 C 12.01 g/m*3 17 C 0 km/h
1762 17-09-2006 05:45:02 17 C 12.01 g/m*3 17 C 0 km/h
1763 17-09-2006 05:55:02 17 C 12.15 g/m*3 17 C 0 km/h
1764 17-09-2006 06:05:02 17 C 12.15 g/m*3 17 C 0 km/h
1765 17-09-2006 06:15:02 17 C 12.15 g/m*3 17 C 0 km/h
1766 17-09-2006 06:25:02 16.9 C 12.23 g/m*3 16.9 C 0 km/h
1767 17-09-2006 06:35:01 16.8 C 12.01 g/m*3 16.8 C 0 km/h
1768 17-09-2006 06:45:02 16.6 C 12.01 g/m*3 16.6 C 0 km/h
1769 17-09-2006 06:55:02 16.6 C 12.01 g/m*3 16.6 C 0 km/h
1770 17-09-2006 07:05:02 16.6 C 12.01 g/m*3 16.6 C 0 km/h
1771 17-09-2006 07:15:02 16.6 C 12.01 g/m*3 16.6 C 0 km/h
1772 17-09-2006 07:25:02 16.8 C 12.15 g/m*3 16.8 C 0 km/h
1773 17-09-2006 07:35:01 16.9 C 12.37 g/m*3 16.9 C 0 km/h
1774 17-09-2006 07:45:02 17 C 12.15 g/m*3 17 C 0 km/h
1775 17-09-2006 07:55:02 17 C 12.15 g/m*3 17 C 0 km/h
Sensor: Nr:Datum:Temp:Abs-Feuchte:Windchill:Wind:
Aussen-T/F 1776 17-09-2006 08:05:02 17 C 12.15 g/m*3 17 C 0 km/h
1777 17-09-2006 08:15:02 17.2 C 12.3 g/m*3 17.2 C 0 km/h
1778 17-09-2006 08:25:02 17.2 C 12.15 g/m*3 17.2 C 0 km/h
1779 17-09-2006 08:35:02 17.4 C 12.3 g/m*3 17.4 C 0 km/h
1780 17-09-2006 08:45:02 17.5 C 12.23 g/m*3 17.5 C 0 km/h
1781 17-09-2006 08:55:02 17.6 C 12.3 g/m*3 17.6 C 0 km/h
1782 17-09-2006 09:05:02 17.5 C 12.37 g/m*3 17.5 C 0 km/h
1783 17-09-2006 09:15:02 17.9 C 12.67 g/m*3 17.9 C 0 km/h
1784 17-09-2006 09:25:02 17.9 C 12.67 g/m*3 17.9 C 0 km/h
1785 17-09-2006 09:35:02 18.2 C 12.43 g/m*3 18.2 C 0 km/h
1786 17-09-2006 09:45:03 18.3 C 12.35 g/m*3 18.3 C 0 km/h
1787 17-09-2006 09:55:03 18.5 C 12.5 g/m*3 18.5 C 0 km/h
1788 17-09-2006 10:05:03 18.9 C 12.64 g/m*3 18.9 C 0 km/h
1789 17-09-2006 10:15:02 19.1 C 12.46 g/m*3 19.1 C 0 km/h
1790 17-09-2006 10:25:02 19.5 C 12.59 g/m*3 19.5 C 0 km/h
1791 17-09-2006 10:35:03 19.7 C 12.4 g/m*3 19.7 C 0 km/h
1792 17-09-2006 10:45:02 20 C 12.27 g/m*3 20 C 0 km/h
1793 17-09-2006 10:55:02 20.3 C 12.49 g/m*3 20.3 C 0 km/h
1794 17-09-2006 11:05:03 20.4 C 12.38 g/m*3 20.4 C 0 km/h
1795 17-09-2006 11:15:02 20.3 C 12.49 g/m*3 20.3 C 0 km/h
1796 17-09-2006 11:25:02 20.2 C 12.59 g/m*3 20.2 C 0 km/h
1797 17-09-2006 11:35:03 20.3 C 12.66 g/m*3 20.3 C 0 km/h
1798 17-09-2006 11:45:02 20.4 C 12.74 g/m*3 20.4 C 0 km/h
1799 17-09-2006 11:55:02 20.6 C 12.71 g/m*3 20.6 C 0 km/h
1800 17-09-2006 12:05:03 20.8 C 12.49 g/m*3 20.8 C 0 km/h
Sensor: Nr:Datum:Temp:Abs-Feuchte:Windchill:Wind:
Aussen-T/F 1801 17-09-2006 12:15:02 20.9 C 12.57 g/m*3 20.9 C 0 km/h
1802 17-09-2006 12:25:03 20.8 C 12.67 g/m*3 20.8 C 0 km/h
1803 17-09-2006 12:35:02 21 C 12.64 g/m*3 21 C 0 km/h
1804 17-09-2006 12:45:01 20.8 C 12.67 g/m*3 20.8 C 0 km/h
1805 17-09-2006 12:55:01 21 C 12.46 g/m*3 21 C 0 km/h
1806 17-09-2006 13:05:02 21.6 C 12.52 g/m*3 21.6 C 0 km/h
1807 17-09-2006 13:15:02 21.9 C 12.54 g/m*3 21.9 C 0 km/h
1808 17-09-2006 13:25:02 22 C 12.23 g/m*3 22 C 0 km/h
1809 17-09-2006 13:35:02 21.9 C 12.35 g/m*3 21.9 C 0 km/h
1810 17-09-2006 13:45:02 21.7 C 12.21 g/m*3 21.7 C 0 km/h
1811 17-09-2006 13:55:02 21.8 C 12.28 g/m*3 21.8 C 0 km/h
1812 17-09-2006 14:05:03 21.8 C 12.09 g/m*3 21.8 C 0 km/h
1813 17-09-2006 14:15:02 22.2 C 12.17 g/m*3 22.2 C 0 km/h
1814 17-09-2006 14:25:03 22.1 C 12.1 g/m*3 22.1 C 0 km/h
1815 17-09-2006 14:35:02 21.6 C 12.14 g/m*3 21.6 C 0 km/h
1816 17-09-2006 14:45:03 21.6 C 12.14 g/m*3 21.6 C 0 km/h
1817 17-09-2006 14:55:03 21.4 C 12 g/m*3 21.4 C 0 km/h
1818 17-09-2006 15:05:03 21.8 C 12.28 g/m*3 21.8 C 0 km/h
1819 17-09-2006 15:15:02 21.6 C 11.95 g/m*3 21.6 C 0 km/h
1820 17-09-2006 15:25:02 22 C 12.23 g/m*3 22 C 0 km/h
1821 17-09-2006 15:35:03 21.9 C 12.16 g/m*3 21.9 C 0 km/h
1822 17-09-2006 15:45:01 21.6 C 11.95 g/m*3 21.6 C 0 km/h
1823 17-09-2006 15:55:01 21.6 C 12.14 g/m*3 21.6 C 0 km/h
1824 17-09-2006 16:05:02 21.5 C 12.07 g/m*3 21.5 C 0 km/h
1825 17-09-2006 16:15:02 21.5 C 11.88 g/m*3 21.5 C 0 km/h
Sensor: Nr:Datum:Temp:Abs-Feuchte:Windchill:Wind:
Aussen-T/F 1826 17-09-2006 16:25:02 21.4 C 11.81 g/m*3 21.4 C 0 km/h
1827 17-09-2006 16:35:02 21.4 C 11.81 g/m*3 21.4 C 0 km/h
1828 17-09-2006 16:45:02 21.4 C 11.62 g/m*3 21.4 C 0 km/h
1829 17-09-2006 16:55:02 21.5 C 11.5 g/m*3 21.5 C 0 km/h
1830 17-09-2006 17:05:03 21.6 C 11.57 g/m*3 21.6 C 0 km/h
1831 17-09-2006 17:15:03 21.4 C 11.62 g/m*3 21.4 C 0 km/h
1832 17-09-2006 17:25:03 21.2 C 11.68 g/m*3 21.2 C 0 km/h
1833 17-09-2006 17:35:03 20 C 12.44 g/m*3 20 C 0 km/h
1834 17-09-2006 17:45:02 19.5 C 12.59 g/m*3 19.5 C 0 km/h
1835 17-09-2006 17:55:02 19.1 C 12.79 g/m*3 19.1 C 0 km/h
1836 17-09-2006 18:05:03 18.9 C 13.45 g/m*3 18.9 C 0 km/h
1837 17-09-2006 18:15:03 18.8 C 13.53 g/m*3 18.8 C 0 km/h
1838 17-09-2006 18:25:03 18.7 C 13.77 g/m*3 18.7 C 0 km/h
1839 17-09-2006 18:35:03 18.5 C 13.77 g/m*3 18.5 C 0 km/h
1840 17-09-2006 18:45:02 18.4 C 13.84 g/m*3 18.4 C 0 km/h
1841 17-09-2006 18:55:02 18.2 C 13.83 g/m*3 18.2 C 0 km/h
1842 17-09-2006 19:05:03 18.1 C 13.75 g/m*3 18.1 C 0 km/h
1843 17-09-2006 19:15:02 18.1 C 13.91 g/m*3 18.1 C 0 km/h
1844 17-09-2006 19:25:02 18 C 13.82 g/m*3 18 C 0 km/h
1845 17-09-2006 19:35:03 17.9 C 14.05 g/m*3 17.9 C 0 km/h
1846 17-09-2006 19:45:03 17.8 C 13.96 g/m*3 17.8 C 0 km/h
1847 17-09-2006 19:55:03 17.7 C 13.88 g/m*3 17.7 C 0 km/h
1848 17-09-2006 20:05:03 17.7 C 14.03 g/m*3 17.7 C 0 km/h
1849 17-09-2006 20:15:03 17.6 C 13.95 g/m*3 17.6 C 0 km/h
1850 17-09-2006 20:25:03 17.6 C 13.95 g/m*3 17.6 C 0 km/h
Sensor: Nr:Datum:Temp:Abs-Feuchte:Windchill:Wind:
Aussen-T/F 1851 17-09-2006 20:35:03 17.6 C 13.95 g/m*3 17.6 C 0 km/h
1852 17-09-2006 20:45:03 17.5 C 13.87 g/m*3 17.5 C 0 km/h
1853 17-09-2006 20:55:03 17.4 C 13.93 g/m*3 17.4 C 0 km/h
1854 17-09-2006 21:05:05 17.3 C 13.85 g/m*3 17.3 C 0 km/h
1855 17-09-2006 21:16:03 17.4 C 13.93 g/m*3 17.4 C 0 km/h
1856 17-09-2006 21:26:03 17.3 C 13.85 g/m*3 17.3 C 0 km/h
1857 17-09-2006 21:36:03 17.4 C 13.93 g/m*3 17.4 C 0 km/h
1858 17-09-2006 21:46:03 17.3 C 13.85 g/m*3 17.3 C 0 km/h
1859 17-09-2006 21:56:03 17.2 C 13.91 g/m*3 17.2 C 0 km/h
1860 17-09-2006 22:06:03 17.2 C 13.91 g/m*3 17.2 C 0 km/h
1861 17-09-2006 22:16:03 17.2 C 13.91 g/m*3 17.2 C 0 km/h
1862 17-09-2006 22:26:03 17.2 C 13.91 g/m*3 17.2 C 0 km/h
1863 17-09-2006 22:36:03 17.2 C 13.91 g/m*3 17.2 C 0 km/h
1864 17-09-2006 22:46:03 17.1 C 13.83 g/m*3 17.1 C 0 km/h
1865 17-09-2006 22:56:03 17.2 C 13.91 g/m*3 17.2 C 0 km/h
1866 17-09-2006 23:06:03 17.1 C 13.83 g/m*3 17.1 C 0 km/h
1867 17-09-2006 23:16:03 17 C 13.75 g/m*3 17 C 0 km/h
1868 17-09-2006 23:26:04 17.2 C 13.91 g/m*3 17.2 C 0 km/h
1869 17-09-2006 23:36:04 17.2 C 13.91 g/m*3 17.2 C 0 km/h
1870 17-09-2006 23:46:04 17.2 C 13.91 g/m*3 17.2 C 0 km/h
1871 17-09-2006 23:56:04 17 C 13.6 g/m*3 17 C 0 km/h
1872 18-09-2006 00:06:04 16.9 C 13.66 g/m*3 16.9 C 0 km/h
1873 18-09-2006 00:16:04 16.8 C 13.58 g/m*3 16.8 C 0 km/h
1874 18-09-2006 00:26:04 16.8 C 13.58 g/m*3 16.8 C 0 km/h
1875 18-09-2006 00:36:04 16.8 C 13.58 g/m*3 16.8 C 0 km/h
Sensor: Nr:Datum:Temp:Abs-Feuchte:Windchill:Wind:
Aussen-T/F 1876 18-09-2006 00:46:04 16.7 C 13.36 g/m*3 16.7 C 0 km/h
1877 18-09-2006 00:56:04 16.6 C 13.28 g/m*3 16.6 C 0 km/h
1878 18-09-2006 01:06:04 16.6 C 13.28 g/m*3 16.6 C 0 km/h
1879 18-09-2006 01:16:04 16.7 C 13.5 g/m*3 16.7 C 0 km/h
1880 18-09-2006 01:26:04 16.7 C 13.5 g/m*3 16.7 C 0 km/h
1881 18-09-2006 01:36:04 16.7 C 13.5 g/m*3 16.7 C 0 km/h
1882 18-09-2006 01:46:04 16.7 C 13.36 g/m*3 16.7 C 0 km/h
1883 18-09-2006 01:56:04 16.7 C 13.36 g/m*3 16.7 C 0 km/h
1884 18-09-2006 02:06:04 16.7 C 13.36 g/m*3 16.7 C 0 km/h
1885 18-09-2006 02:16:04 16.7 C 13.36 g/m*3 16.7 C 0 km/h
1886 18-09-2006 02:26:05 16.8 C 13.44 g/m*3 16.8 C 0 km/h
1887 18-09-2006 02:36:05 16.8 C 13.44 g/m*3 16.8 C 0 km/h
1888 18-09-2006 02:46:05 16.7 C 13.36 g/m*3 16.7 C 0 km/h
1889 18-09-2006 02:56:05 16.7 C 13.36 g/m*3 16.7 C 0 km/h
1890 18-09-2006 03:06:05 16.7 C 13.36 g/m*3 16.7 C 0 km/h
1891 18-09-2006 03:16:05 16.7 C 13.36 g/m*3 16.7 C 0 km/h
1892 18-09-2006 03:26:05 16.6 C 13.28 g/m*3 16.6 C 0 km/h
1893 18-09-2006 03:36:05 16.6 C 13.14 g/m*3 16.6 C 0 km/h
1894 18-09-2006 03:46:05 16.5 C 13.06 g/m*3 16.5 C 0 km/h
1895 18-09-2006 03:56:05 16.6 C 13.14 g/m*3 16.6 C 0 km/h
1896 18-09-2006 04:06:05 16.5 C 13.06 g/m*3 16.5 C 0 km/h
1897 18-09-2006 04:16:05 16.4 C 12.98 g/m*3 16.4 C 0 km/h
1898 18-09-2006 04:26:05 16.4 C 12.98 g/m*3 16.4 C 0 km/h
1899 18-09-2006 04:36:05 16.4 C 12.98 g/m*3 16.4 C 0 km/h
1900 18-09-2006 04:46:05 16.4 C 12.98 g/m*3 16.4 C 0 km/h
Sensor: Nr:Datum:Temp:Abs-Feuchte:Windchill:Wind:
Aussen-T/F 1901 18-09-2006 04:56:05 16.2 C 12.82 g/m*3 16.2 C 0 km/h
1902 18-09-2006 05:06:05 16.2 C 12.82 g/m*3 16.2 C 0 km/h
1903 18-09-2006 05:16:05 16.2 C 12.82 g/m*3 16.2 C 0 km/h
1904 18-09-2006 05:26:06 16.2 C 12.69 g/m*3 16.2 C 0 km/h
1905 18-09-2006 05:36:06 16.1 C 12.61 g/m*3 16.1 C 0 km/h
1906 18-09-2006 05:46:06 16.2 C 12.55 g/m*3 16.2 C 0 km/h
1907 18-09-2006 05:56:06 16.1 C 12.47 g/m*3 16.1 C 0 km/h
1908 18-09-2006 06:06:06 16.1 C 12.47 g/m*3 16.1 C 0 km/h
1909 18-09-2006 06:16:06 15.9 C 12.32 g/m*3 15.9 C 0 km/h
1910 18-09-2006 06:26:06 15.8 C 12.25 g/m*3 15.8 C 0 km/h
1911 18-09-2006 06:36:06 15.9 C 12.46 g/m*3 15.9 C 0 km/h
1912 18-09-2006 06:46:06 15.8 C 12.38 g/m*3 15.8 C 0 km/h
1913 18-09-2006 06:56:06 15.8 C 12.52 g/m*3 15.8 C 0 km/h
1914 18-09-2006 07:06:06 15.7 C 12.44 g/m*3 15.7 C 0 km/h
1915 18-09-2006 07:16:06 15.8 C 12.52 g/m*3 15.8 C 0 km/h
1916 18-09-2006 07:26:06 15.9 C 12.59 g/m*3 15.9 C 0 km/h
1917 18-09-2006 07:36:06 16 C 12.67 g/m*3 16 C 0 km/h
1918 18-09-2006 07:46:06 16 C 12.53 g/m*3 16 C 0 km/h
1919 18-09-2006 07:56:06 16.1 C 12.61 g/m*3 16.1 C 0 km/h
1920 18-09-2006 08:06:03 16.1 C 12.61 g/m*3 16.1 C 0 km/h
1921 18-09-2006 08:16:02 16.2 C 12.55 g/m*3 16.2 C 0 km/h
1922 18-09-2006 08:26:02 16.2 C 12.55 g/m*3 16.2 C 0 km/h
1923 18-09-2006 08:36:02 16.2 C 12.55 g/m*3 16.2 C 0 km/h
1924 18-09-2006 08:46:03 16.2 C 12.55 g/m*3 16.2 C 0 km/h
1925 18-09-2006 08:56:03 16.2 C 12.41 g/m*3 16.2 C 0 km/h
Sensor: Nr:Datum:Temp:Abs-Feuchte:Windchill:Wind:
Aussen-T/F 1926 18-09-2006 09:06:02 16.2 C 12.27 g/m*3 16.2 C 0 km/h
1927 18-09-2006 09:16:02 16.2 C 12.27 g/m*3 16.2 C 0 km/h
1928 18-09-2006 09:26:03 16.4 C 12.42 g/m*3 16.4 C 0 km/h
1929 18-09-2006 09:36:02 16.4 C 12.42 g/m*3 16.4 C 0 km/h
1930 18-09-2006 09:46:02 16.4 C 12.42 g/m*3 16.4 C 0 km/h
1931 18-09-2006 09:56:02 16.5 C 12.36 g/m*3 16.5 C 0 km/h
1932 18-09-2006 10:06:02 16.6 C 12.29 g/m*3 16.6 C 0 km/h
1933 18-09-2006 10:16:01 16.7 C 12.36 g/m*3 16.7 C 0 km/h
1934 18-09-2006 10:26:01 16.9 C 12.37 g/m*3 16.9 C 0 km/h
1935 18-09-2006 10:36:01 16.8 C 12.44 g/m*3 16.8 C 0 km/h
1936 18-09-2006 10:46:02 16.9 C 12.37 g/m*3 16.9 C 0 km/h
1937 18-09-2006 10:56:02 17.1 C 12.08 g/m*3 17.1 C 0 km/h
1938 18-09-2006 11:06:01 17.4 C 12.15 g/m*3 17.4 C 0 km/h
1939 18-09-2006 11:16:01 17.6 C 12.15 g/m*3 17.6 C 0 km/h
1940 18-09-2006 11:26:02 17.5 C 11.78 g/m*3 17.5 C 0 km/h
1941 18-09-2006 11:36:01 17.3 C 11.64 g/m*3 17.3 C 0 km/h
1942 18-09-2006 11:46:02 17.4 C 11.56 g/m*3 17.4 C 0 km/h
1943 18-09-2006 11:56:02 17.5 C 11.78 g/m*3 17.5 C 0 km/h
1944 18-09-2006 12:06:01 17.5 C 11.63 g/m*3 17.5 C 0 km/h
1945 18-09-2006 12:16:01 17.7 C 11.77 g/m*3 17.7 C 0 km/h
1946 18-09-2006 12:26:01 18.1 C 11.59 g/m*3 18.1 C 0 km/h
1947 18-09-2006 12:36:02 18.2 C 11.5 g/m*3 18.2 C 0 km/h
1948 18-09-2006 12:46:02 18.3 C 11.26 g/m*3 18.3 C 0 km/h
1949 18-09-2006 12:56:02 18.2 C 11.35 g/m*3 18.2 C 0 km/h
1950 18-09-2006 13:06:02 18.5 C 11.08 g/m*3 18.5 C 0 km/h
Sensor: Nr:Datum:Temp:Abs-Feuchte:Windchill:Wind:
Aussen-T/F 1951 18-09-2006 13:16:01 18.1 C 10.97 g/m*3 18.1 C 0 km/h
1952 18-09-2006 13:26:01 18.5 C 11.39 g/m*3 18.5 C 0 km/h
1953 18-09-2006 13:36:02 18.7 C 11.37 g/m*3 18.7 C 0 km/h
1954 18-09-2006 13:46:02 18.7 C 11.37 g/m*3 18.7 C 0 km/h
1955 18-09-2006 13:56:02 18.5 C 11.23 g/m*3 18.5 C 0 km/h
1956 18-09-2006 14:06:02 18.5 C 11.08 g/m*3 18.5 C 0 km/h
1957 18-09-2006 14:16:02 18.6 C 11.14 g/m*3 18.6 C 0 km/h
1958 18-09-2006 14:26:02 18.6 C 11.14 g/m*3 18.6 C 0 km/h
1959 18-09-2006 14:36:02 18.6 C 11.3 g/m*3 18.6 C 0 km/h
1960 18-09-2006 14:46:02 18.4 C 11.32 g/m*3 18.4 C 0 km/h
1961 18-09-2006 14:56:02 18.2 C 11.04 g/m*3 18.2 C 0 km/h
1962 18-09-2006 15:06:02 18.3 C 11.26 g/m*3 18.3 C 0 km/h
1963 18-09-2006 15:16:02 18.4 C 11.01 g/m*3 18.4 C 0 km/h
1964 18-09-2006 15:26:02 18.5 C 10.92 g/m*3 18.5 C 0 km/h
1965 18-09-2006 15:36:01 18.5 C 11.08 g/m*3 18.5 C 0 km/h
1966 18-09-2006 15:46:02 18.5 C 11.08 g/m*3 18.5 C 0 km/h
1967 18-09-2006 15:56:02 18.7 C 11.37 g/m*3 18.7 C 0 km/h
1968 18-09-2006 16:06:02 18.6 C 11.3 g/m*3 18.6 C 0 km/h
1969 18-09-2006 16:16:02 18.5 C 11.08 g/m*3 18.5 C 0 km/h
1970 18-09-2006 16:26:02 18.4 C 11.17 g/m*3 18.4 C 0 km/h
1971 18-09-2006 16:36:02 18.2 C 11.19 g/m*3 18.2 C 0 km/h
1972 18-09-2006 16:46:02 18.1 C 11.12 g/m*3 18.1 C 0 km/h
1973 18-09-2006 16:56:02 18.4 C 11.17 g/m*3 18.4 C 0 km/h
1974 18-09-2006 17:06:03 18.6 C 11.3 g/m*3 18.6 C 0 km/h
1975 18-09-2006 17:16:04 18.7 C 11.53 g/m*3 18.7 C 0 km/h
Sensor: Nr:Datum:Temp:Abs-Feuchte:Windchill:Wind:
Aussen-T/F 1976 18-09-2006 17:26:04 18.7 C 11.53 g/m*3 18.7 C 0 km/h
1977 18-09-2006 17:36:03 18.7 C 11.69 g/m*3 18.7 C 0 km/h
1978 18-09-2006 17:46:01 18.6 C 11.62 g/m*3 18.6 C 0 km/h
1979 18-09-2006 17:56:01 18.8 C 11.92 g/m*3 18.8 C 0 km/h
1980 18-09-2006 18:06:02 18.9 C 11.66 g/m*3 18.9 C 0 km/h
1981 18-09-2006 18:16:02 18.8 C 11.76 g/m*3 18.8 C 0 km/h
1982 18-09-2006 18:26:02 18.5 C 11.71 g/m*3 18.5 C 0 km/h
1983 18-09-2006 18:36:02 18.3 C 11.73 g/m*3 18.3 C 0 km/h
1984 18-09-2006 18:46:02 18 C 11.83 g/m*3 18 C 0 km/h
1985 18-09-2006 18:56:02 17.8 C 12.14 g/m*3 17.8 C 0 km/h
1986 18-09-2006 19:06:02 17.2 C 12.15 g/m*3 17.2 C 0 km/h
1987 18-09-2006 19:16:02 17.2 C 12.3 g/m*3 17.2 C 0 km/h
1988 18-09-2006 19:26:02 17.2 C 12.45 g/m*3 17.2 C 0 km/h
1989 18-09-2006 19:36:02 17.1 C 12.52 g/m*3 17.1 C 0 km/h
1990 18-09-2006 19:46:02 17.1 C 12.52 g/m*3 17.1 C 0 km/h
1991 18-09-2006 19:56:02 17 C 12.44 g/m*3 17 C 0 km/h
1992 18-09-2006 20:06:01 16.9 C 12.51 g/m*3 16.9 C 0 km/h
1993 18-09-2006 20:16:01 16.9 C 12.51 g/m*3 16.9 C 0 km/h
1994 18-09-2006 20:26:01 16.8 C 12.44 g/m*3 16.8 C 0 km/h
1995 18-09-2006 20:36:02 16.9 C 12.51 g/m*3 16.9 C 0 km/h
1996 18-09-2006 20:46:02 16.9 C 12.51 g/m*3 16.9 C 0 km/h
1997 18-09-2006 20:56:02 16.9 C 12.37 g/m*3 16.9 C 0 km/h
1998 18-09-2006 21:06:03 17 C 12.15 g/m*3 17 C 0 km/h
1999 18-09-2006 21:16:02 17 C 12.15 g/m*3 17 C 0 km/h
2000 18-09-2006 21:26:02 17 C 12.01 g/m*3 17 C 0 km/h
Sensor: Nr:Datum:Temp:Abs-Feuchte:Windchill:Wind:
Aussen-T/F 2001 18-09-2006 21:36:02 16.9 C 12.08 g/m*3 16.9 C 0 km/h
2002 18-09-2006 21:46:02 17 C 12.01 g/m*3 17 C 0 km/h
2003 18-09-2006 21:56:02 17 C 12.01 g/m*3 17 C 0 km/h
2004 18-09-2006 22:06:02 16.9 C 12.08 g/m*3 16.9 C 0 km/h
2005 18-09-2006 22:16:02 16.9 C 12.08 g/m*3 16.9 C 0 km/h
2006 18-09-2006 22:26:02 16.9 C 12.08 g/m*3 16.9 C 0 km/h
2007 18-09-2006 22:36:02 17 C 12.01 g/m*3 17 C 0 km/h
2008 18-09-2006 22:46:02 17 C 12.01 g/m*3 17 C 0 km/h
2009 18-09-2006 22:56:02 17 C 12.01 g/m*3 17 C 0 km/h
2010 18-09-2006 23:06:01 17 C 12.01 g/m*3 17 C 0 km/h
2011 18-09-2006 23:16:01 17 C 12.01 g/m*3 17 C 0 km/h
2012 18-09-2006 23:26:01 17 C 12.01 g/m*3 17 C 0 km/h
2013 18-09-2006 23:36:02 17 C 12.01 g/m*3 17 C 0 km/h
2014 18-09-2006 23:46:02 17 C 12.01 g/m*3 17 C 0 km/h
2015 18-09-2006 23:56:02 17 C 12.01 g/m*3 17 C 0 km/h
2016 19-09-2006 00:06:01 17 C 12.01 g/m*3 17 C 0 km/h
2017 19-09-2006 00:16:03 17.1 C 12.08 g/m*3 17.1 C 0 km/h
2018 19-09-2006 00:26:03 17.2 C 12.15 g/m*3 17.2 C 0 km/h
2019 19-09-2006 00:36:02 17.1 C 12.08 g/m*3 17.1 C 0 km/h
2020 19-09-2006 00:46:02 17.1 C 12.23 g/m*3 17.1 C 0 km/h
2021 19-09-2006 00:56:02 17.1 C 12.23 g/m*3 17.1 C 0 km/h
2022 19-09-2006 01:06:03 16.9 C 12.37 g/m*3 16.9 C 0 km/h
2023 19-09-2006 01:16:02 16.8 C 12.3 g/m*3 16.8 C 0 km/h
2024 19-09-2006 01:26:02 16.8 C 12.44 g/m*3 16.8 C 0 km/h
2025 19-09-2006 01:36:02 16.7 C 12.36 g/m*3 16.7 C 0 km/h
Sensor: Nr:Datum:Temp:Abs-Feuchte:Windchill:Wind:
Aussen-T/F 2026 19-09-2006 01:46:03 16.7 C 12.36 g/m*3 16.7 C 0 km/h
2027 19-09-2006 01:56:03 16.6 C 12.43 g/m*3 16.6 C 0 km/h
2028 19-09-2006 02:06:03 16.5 C 12.36 g/m*3 16.5 C 0 km/h
2029 19-09-2006 02:16:03 16.4 C 12.14 g/m*3 16.4 C 0 km/h
2030 19-09-2006 02:26:03 16.3 C 12.07 g/m*3 16.3 C 0 km/h
2031 19-09-2006 02:36:03 16.3 C 12.07 g/m*3 16.3 C 0 km/h
2032 19-09-2006 02:47:03 16.3 C 12.07 g/m*3 16.3 C 0 km/h
2033 19-09-2006 02:57:03 16.2 C 12 g/m*3 16.2 C 0 km/h
2034 19-09-2006 03:07:04 16.1 C 11.93 g/m*3 16.1 C 0 km/h
2035 19-09-2006 03:17:04 16.1 C 11.93 g/m*3 16.1 C 0 km/h
2036 19-09-2006 03:27:04 15.8 C 11.85 g/m*3 15.8 C 0 km/h
2037 19-09-2006 03:37:02 15.8 C 11.85 g/m*3 15.8 C 0 km/h
2038 19-09-2006 03:47:02 15.8 C 11.85 g/m*3 15.8 C 0 km/h
2039 19-09-2006 03:57:02 15.8 C 11.98 g/m*3 15.8 C 0 km/h
2040 19-09-2006 04:07:02 15.8 C 11.98 g/m*3 15.8 C 0 km/h
2041 19-09-2006 04:17:02 15.7 C 11.91 g/m*3 15.7 C 0 km/h
2042 19-09-2006 04:27:02 15.4 C 11.82 g/m*3 15.4 C 0 km/h
2043 19-09-2006 04:37:02 15.5 C 11.9 g/m*3 15.5 C 0 km/h
2044 19-09-2006 04:47:02 15.3 C 11.88 g/m*3 15.3 C 0 km/h
2045 19-09-2006 04:57:02 15.2 C 11.81 g/m*3 15.2 C 0 km/h
2046 19-09-2006 05:07:02 15.4 C 11.96 g/m*3 15.4 C 0 km/h
2047 19-09-2006 05:17:02 14.7 C 11.58 g/m*3 14.7 C 0 km/h
2048 19-09-2006 05:27:03 14.6 C 11.51 g/m*3 14.6 C 0 km/h
2049 19-09-2006 05:37:02 14.5 C 11.44 g/m*3 14.5 C 0 km/h
2050 19-09-2006 05:47:02 14.3 C 11.3 g/m*3 14.3 C 0 km/h
Sensor: Nr:Datum:Temp:Abs-Feuchte:Windchill:Wind:
Aussen-T/F 2051 19-09-2006 05:57:03 14.2 C 11.11 g/m*3 14.2 C 0 km/h
2052 19-09-2006 06:07:01 14 C 10.98 g/m*3 14 C 0 km/h
2053 19-09-2006 06:17:01 13.8 C 10.84 g/m*3 13.8 C 0 km/h
2054 19-09-2006 06:27:01 13.8 C 10.84 g/m*3 13.8 C 0 km/h
2055 19-09-2006 06:37:02 13.8 C 10.96 g/m*3 13.8 C 0 km/h
2056 19-09-2006 06:47:02 13.8 C 10.96 g/m*3 13.8 C 0 km/h
2057 19-09-2006 06:57:02 13.9 C 11.15 g/m*3 13.9 C 0 km/h
2058 19-09-2006 07:07:02 13.9 C 11.15 g/m*3 13.9 C 0 km/h
2059 19-09-2006 07:17:01 13.8 C 11.08 g/m*3 13.8 C 0 km/h
2060 19-09-2006 07:27:01 13.8 C 10.96 g/m*3 13.8 C 0 km/h
2061 19-09-2006 07:37:01 13.7 C 10.89 g/m*3 13.7 C 0 km/h
2062 19-09-2006 07:47:02 13.5 C 10.76 g/m*3 13.5 C 0 km/h
2063 19-09-2006 07:57:02 13.4 C 10.69 g/m*3 13.4 C 0 km/h
2064 19-09-2006 08:07:02 13.4 C 10.69 g/m*3 13.4 C 0 km/h
2065 19-09-2006 08:17:01 13.7 C 10.89 g/m*3 13.7 C 0 km/h
2066 19-09-2006 08:27:01 13.9 C 11.03 g/m*3 13.9 C 0 km/h
2067 19-09-2006 08:37:02 14 C 10.86 g/m*3 14 C 0 km/h
2068 19-09-2006 08:47:02 14.3 C 11.06 g/m*3 14.3 C 0 km/h
2069 19-09-2006 08:57:02 14.5 C 11.07 g/m*3 14.5 C 0 km/h
2070 19-09-2006 09:07:02 14.8 C 11.15 g/m*3 14.8 C 0 km/h
2071 19-09-2006 09:17:01 15 C 11.03 g/m*3 15 C 0 km/h
2072 19-09-2006 09:27:01 15.2 C 10.9 g/m*3 15.2 C 0 km/h
2073 19-09-2006 09:37:01 15.6 C 10.91 g/m*3 15.6 C 0 km/h
2074 19-09-2006 09:47:02 16 C 10.76 g/m*3 16 C 0 km/h
2075 19-09-2006 09:57:02 16.3 C 10.68 g/m*3 16.3 C 0 km/h
Sensor: Nr:Datum:Temp:Abs-Feuchte:Windchill:Wind:
Aussen-T/F 2076 19-09-2006 10:07:01 16.4 C 10.75 g/m*3 16.4 C 0 km/h
2077 19-09-2006 10:17:01 16.6 C 10.74 g/m*3 16.6 C 0 km/h
2078 19-09-2006 10:27:01 17 C 10.56 g/m*3 17 C 0 km/h
2079 19-09-2006 10:37:02 17.2 C 10.54 g/m*3 17.2 C 0 km/h
2080 19-09-2006 10:47:02 17.6 C 10.5 g/m*3 17.6 C 0 km/h
2081 19-09-2006 10:57:02 18.1 C 10.35 g/m*3 18.1 C 0 km/h
2082 19-09-2006 11:07:01 18.4 C 10.07 g/m*3 18.4 C 0 km/h
2083 19-09-2006 11:17:01 18.2 C 10.1 g/m*3 18.2 C 0 km/h
2084 19-09-2006 11:27:01 18.5 C 10.13 g/m*3 18.5 C 0 km/h
2085 19-09-2006 11:37:01 18.3 C 9.69 g/m*3 18.3 C 0 km/h
2086 19-09-2006 11:47:02 18.5 C 9.81 g/m*3 18.5 C 0 km/h
2087 19-09-2006 11:57:02 19 C 9.78 g/m*3 19 C 0 km/h
2088 19-09-2006 12:07:01 19.2 C 9.23 g/m*3 19.2 C 0 km/h
2089 19-09-2006 12:17:01 19.5 C 9.23 g/m*3 19.5 C 0 km/h
2090 19-09-2006 12:27:01 19.8 C 9.22 g/m*3 19.8 C 0 km/h
2091 19-09-2006 12:37:01 20 C 8.99 g/m*3 20 C 0 km/h
2092 19-09-2006 12:47:02 19.9 C 9.28 g/m*3 19.9 C 0 km/h
2093 19-09-2006 12:57:02 19.9 C 9.11 g/m*3 19.9 C 0 km/h
2094 19-09-2006 13:07:01 19.8 C 9.05 g/m*3 19.8 C 0 km/h
2095 19-09-2006 13:17:01 20 C 9.33 g/m*3 20 C 0 km/h
2096 19-09-2006 13:27:01 20.5 C 9.43 g/m*3 20.5 C 0 km/h
2097 19-09-2006 13:37:01 20.6 C 9.49 g/m*3 20.6 C 0 km/h
2098 19-09-2006 13:47:02 20.3 C 9.5 g/m*3 20.3 C 0 km/h
2099 19-09-2006 13:57:02 20.3 C 9.67 g/m*3 20.3 C 0 km/h
2100 19-09-2006 14:07:01 20.1 C 9.56 g/m*3 20.1 C 0 km/h
Sensor: Nr:Datum:Temp:Abs-Feuchte:Windchill:Wind:
Aussen-T/F 2101 19-09-2006 14:17:01 19.8 C 9.57 g/m*3 19.8 C 0 km/h
2102 19-09-2006 14:27:01 20.1 C 9.73 g/m*3 20.1 C 0 km/h
2103 19-09-2006 14:37:01 19.8 C 9.57 g/m*3 19.8 C 0 km/h
2104 19-09-2006 14:47:02 19.8 C 9.74 g/m*3 19.8 C 0 km/h
2105 19-09-2006 14:57:02 20.2 C 9.79 g/m*3 20.2 C 0 km/h
2106 19-09-2006 15:07:02 20.1 C 9.56 g/m*3 20.1 C 0 km/h
2107 19-09-2006 15:17:01 20.1 C 9.56 g/m*3 20.1 C 0 km/h
2108 19-09-2006 15:27:01 20.1 C 9.73 g/m*3 20.1 C 0 km/h
2109 19-09-2006 15:37:02 20.5 C 9.61 g/m*3 20.5 C 0 km/h
2110 19-09-2006 15:47:02 20.8 C 9.6 g/m*3 20.8 C 0 km/h
2111 19-09-2006 15:57:02 20.8 C 9.42 g/m*3 20.8 C 0 km/h
2112 19-09-2006 16:07:01 20.5 C 9.25 g/m*3 20.5 C 0 km/h
2113 19-09-2006 16:17:01 20.5 C 9.07 g/m*3 20.5 C 0 km/h
2114 19-09-2006 16:27:01 20.2 C 8.92 g/m*3 20.2 C 0 km/h
2115 19-09-2006 16:37:02 19.8 C 9.05 g/m*3 19.8 C 0 km/h
2116 19-09-2006 16:47:02 19.8 C 9.39 g/m*3 19.8 C 0 km/h
2117 19-09-2006 16:57:02 19.6 C 9.12 g/m*3 19.6 C 0 km/h
2118 19-09-2006 17:07:01 19.5 C 9.4 g/m*3 19.5 C 0 km/h
2119 19-09-2006 17:17:01 19.3 C 9.45 g/m*3 19.3 C 0 km/h
2120 19-09-2006 17:27:01 19.2 C 9.4 g/m*3 19.2 C 0 km/h
2121 19-09-2006 17:37:01 19 C 9.29 g/m*3 19 C 0 km/h
2122 19-09-2006 17:47:02 18.9 C 9.4 g/m*3 18.9 C 0 km/h
2123 19-09-2006 17:57:02 18.7 C 9.61 g/m*3 18.7 C 0 km/h
2124 19-09-2006 18:07:02 18.3 C 9.85 g/m*3 18.3 C 0 km/h
2125 19-09-2006 18:17:02 18.5 C 9.97 g/m*3 18.5 C 0 km/h
Sensor: Nr:Datum:Temp:Abs-Feuchte:Windchill:Wind:
Aussen-T/F 2126 19-09-2006 18:27:02 18.4 C 10.22 g/m*3 18.4 C 0 km/h
2127 19-09-2006 18:37:01 18.2 C 10.41 g/m*3 18.2 C 0 km/h
2128 19-09-2006 18:47:02 18.3 C 10.48 g/m*3 18.3 C 0 km/h
2129 19-09-2006 18:57:03 18.1 C 10.51 g/m*3 18.1 C 0 km/h
2130 19-09-2006 19:07:02 18 C 10.44 g/m*3 18 C 0 km/h
2131 19-09-2006 19:17:02 18.1 C 10.51 g/m*3 18.1 C 0 km/h
2132 19-09-2006 19:27:02 18 C 10.44 g/m*3 18 C 0 km/h
2133 19-09-2006 19:37:02 17.9 C 10.84 g/m*3 17.9 C 0 km/h
2134 19-09-2006 19:47:02 17.6 C 10.8 g/m*3 17.6 C 0 km/h
2135 19-09-2006 19:57:02 17.4 C 10.82 g/m*3 17.4 C 0 km/h
2136 19-09-2006 20:07:02 17.3 C 10.75 g/m*3 17.3 C 0 km/h
2137 19-09-2006 20:17:02 17.1 C 10.77 g/m*3 17.1 C 0 km/h
2138 19-09-2006 20:27:02 16.7 C 10.8 g/m*3 16.7 C 0 km/h
2139 19-09-2006 20:37:02 16 C 10.49 g/m*3 16 C 0 km/h
2140 19-09-2006 20:47:02 15.6 C 10.51 g/m*3 15.6 C 0 km/h
2141 19-09-2006 20:57:02 15.3 C 10.32 g/m*3 15.3 C 0 km/h
2142 19-09-2006 21:07:02 14.9 C 9.94 g/m*3 14.9 C 0 km/h
2143 19-09-2006 21:17:02 14.2 C 9.4 g/m*3 14.2 C 0 km/h
2144 19-09-2006 21:27:02 14.5 C 9.45 g/m*3 14.5 C 0 km/h
2145 19-09-2006 21:37:02 14.3 C 9.21 g/m*3 14.3 C 0 km/h
2146 19-09-2006 21:47:02 14.1 C 9.22 g/m*3 14.1 C 0 km/h
2147 19-09-2006 21:57:02 13.9 C 9.23 g/m*3 13.9 C 0 km/h
2148 19-09-2006 22:07:02 13.8 C 9.29 g/m*3 13.8 C 0 km/h
2149 19-09-2006 22:17:02 13.7 C 9.24 g/m*3 13.7 C 0 km/h
2150 19-09-2006 22:27:02 13.7 C 9.24 g/m*3 13.7 C 0 km/h
Sensor: Nr:Datum:Temp:Abs-Feuchte:Windchill:Wind:
Aussen-T/F 2151 19-09-2006 22:37:03 13.7 C 9.24 g/m*3 13.7 C 0 km/h
2152 19-09-2006 22:47:02 13.8 C 9.17 g/m*3 13.8 C 0 km/h
2153 19-09-2006 22:57:02 13.7 C 9.12 g/m*3 13.7 C 0 km/h
2154 19-09-2006 23:07:02 13.5 C 9.12 g/m*3 13.5 C 0 km/h
2155 19-09-2006 23:17:02 13.5 C 9.12 g/m*3 13.5 C 0 km/h
2156 19-09-2006 23:27:02 13.3 C 9.13 g/m*3 13.3 C 0 km/h
2157 19-09-2006 23:37:03 13.1 C 9.01 g/m*3 13.1 C 0 km/h
2158 19-09-2006 23:47:02 13.1 C 9.01 g/m*3 13.1 C 0 km/h
2159 19-09-2006 23:57:02 13 C 9.07 g/m*3 13 C 0 km/h
2160 20-09-2006 00:07:02 13 C 9.19 g/m*3 13 C 0 km/h
2161 20-09-2006 00:17:03 12.9 C 9.24 g/m*3 12.9 C 0 km/h
2162 20-09-2006 00:27:03 12.7 C 9.13 g/m*3 12.7 C 0 km/h
2163 20-09-2006 00:37:02 12.5 C 9.02 g/m*3 12.5 C 0 km/h
2164 20-09-2006 00:47:03 12.4 C 8.96 g/m*3 12.4 C 0 km/h
2165 20-09-2006 00:57:03 12.1 C 8.9 g/m*3 12.1 C 0 km/h
2166 20-09-2006 01:07:02 12 C 8.95 g/m*3 12 C 0 km/h
2167 20-09-2006 01:17:02 12 C 8.95 g/m*3 12 C 0 km/h
2168 20-09-2006 01:27:02 11.8 C 8.95 g/m*3 11.8 C 0 km/h
2169 20-09-2006 01:37:03 11.7 C 8.89 g/m*3 11.7 C 0 km/h
2170 20-09-2006 01:47:03 11.5 C 8.88 g/m*3 11.5 C 0 km/h
2171 20-09-2006 01:57:03 11.4 C 8.83 g/m*3 11.4 C 0 km/h
2172 20-09-2006 02:07:02 11.5 C 8.88 g/m*3 11.5 C 0 km/h
2173 20-09-2006 02:17:02 11.6 C 9.04 g/m*3 11.6 C 0 km/h
2174 20-09-2006 02:27:02 11.4 C 8.83 g/m*3 11.4 C 0 km/h
2175 20-09-2006 02:37:02 11.3 C 8.87 g/m*3 11.3 C 0 km/h
Sensor: Nr:Datum:Temp:Abs-Feuchte:Windchill:Wind:
Aussen-T/F 2176 20-09-2006 02:48:04 11.2 C 8.82 g/m*3 11.2 C 0 km/h
2177 20-09-2006 02:58:05 11.1 C 8.76 g/m*3 11.1 C 0 km/h
2178 20-09-2006 03:08:05 11 C 8.71 g/m*3 11 C 0 km/h
2179 20-09-2006 03:18:04 10.9 C 8.75 g/m*3 10.9 C 0 km/h
2180 20-09-2006 03:28:04 10.8 C 8.7 g/m*3 10.8 C 0 km/h
2181 20-09-2006 03:38:02 10.7 C 8.64 g/m*3 10.7 C 0 km/h
2182 20-09-2006 03:48:03 10.7 C 8.74 g/m*3 10.7 C 0 km/h
2183 20-09-2006 03:58:03 10.6 C 8.69 g/m*3 10.6 C 0 km/h
2184 20-09-2006 04:08:02 10.6 C 8.69 g/m*3 10.6 C 0 km/h
2185 20-09-2006 04:18:03 10.5 C 8.73 g/m*3 10.5 C 0 km/h
2186 20-09-2006 04:28:03 10.6 C 8.78 g/m*3 10.6 C 0 km/h
2187 20-09-2006 04:38:03 10.8 C 8.99 g/m*3 10.8 C 0 km/h
2188 20-09-2006 04:48:03 11.1 C 9.17 g/m*3 11.1 C 0 km/h
2189 20-09-2006 04:58:03 11.4 C 9.44 g/m*3 11.4 C 0 km/h
2190 20-09-2006 05:08:03 11.6 C 9.56 g/m*3 11.6 C 0 km/h
2191 20-09-2006 05:18:02 11.8 C 9.68 g/m*3 11.8 C 0 km/h
2192 20-09-2006 05:28:02 12.1 C 9.87 g/m*3 12.1 C 0 km/h
2193 20-09-2006 05:38:02 12.2 C 9.93 g/m*3 12.2 C 0 km/h
2194 20-09-2006 05:48:02 12.3 C 9.99 g/m*3 12.3 C 0 km/h
2195 20-09-2006 05:58:03 12.4 C 10.05 g/m*3 12.4 C 0 km/h
2196 20-09-2006 06:08:02 12.5 C 10.11 g/m*3 12.5 C 0 km/h
2197 20-09-2006 06:18:02 12.5 C 10 g/m*3 12.5 C 0 km/h
2198 20-09-2006 06:28:02 12.5 C 10 g/m*3 12.5 C 0 km/h
2199 20-09-2006 06:38:03 12.5 C 9.89 g/m*3 12.5 C 0 km/h
2200 20-09-2006 06:48:02 12.6 C 9.96 g/m*3 12.6 C 0 km/h
Sensor: Nr:Datum:Temp:Abs-Feuchte:Windchill:Wind:
Aussen-T/F 2201 20-09-2006 06:58:02 12.7 C 10.02 g/m*3 12.7 C 0 km/h
2202 20-09-2006 07:08:02 12.9 C 10.14 g/m*3 12.9 C 0 km/h
2203 20-09-2006 07:18:02 12.9 C 10.03 g/m*3 12.9 C 0 km/h
2204 20-09-2006 07:28:02 13 C 9.98 g/m*3 13 C 0 km/h
2205 20-09-2006 07:38:02 13 C 9.87 g/m*3 13 C 0 km/h
2206 20-09-2006 07:48:02 13.1 C 9.81 g/m*3 13.1 C 0 km/h
2207 20-09-2006 07:58:02 13.2 C 9.87 g/m*3 13.2 C 0 km/h
2208 20-09-2006 08:08:02 13.3 C 9.94 g/m*3 13.3 C 0 km/h
2209 20-09-2006 08:18:02 13.4 C 9.88 g/m*3 13.4 C 0 km/h
2210 20-09-2006 08:28:02 13.5 C 9.83 g/m*3 13.5 C 0 km/h
2211 20-09-2006 08:38:02 13.5 C 9.83 g/m*3 13.5 C 0 km/h
2212 20-09-2006 08:48:02 13.8 C 9.89 g/m*3 13.8 C 0 km/h
2213 20-09-2006 08:58:02 14 C 9.77 g/m*3 14 C 0 km/h
2214 20-09-2006 09:08:02 14.2 C 9.65 g/m*3 14.2 C 0 km/h
2215 20-09-2006 09:18:02 14.3 C 9.58 g/m*3 14.3 C 0 km/h
2216 20-09-2006 09:28:02 14.6 C 9.64 g/m*3 14.6 C 0 km/h
2217 20-09-2006 09:38:02 14.7 C 9.44 g/m*3 14.7 C 0 km/h
2218 20-09-2006 09:48:02 14.9 C 9.43 g/m*3 14.9 C 0 km/h
2219 20-09-2006 09:58:02 14.9 C 9.3 g/m*3 14.9 C 0 km/h
2220 20-09-2006 10:08:02 14.9 C 9.3 g/m*3 14.9 C 0 km/h
2221 20-09-2006 10:18:02 15.3 C 9.27 g/m*3 15.3 C 0 km/h
2222 20-09-2006 10:28:02 15.8 C 9.29 g/m*3 15.8 C 0 km/h
2223 20-09-2006 10:38:03 15.8 C 9.15 g/m*3 15.8 C 0 km/h
2224 20-09-2006 10:48:02 16.1 C 9.32 g/m*3 16.1 C 0 km/h
2225 20-09-2006 10:58:02 16.3 C 9.43 g/m*3 16.3 C 0 km/h
Sensor: Nr:Datum:Temp:Abs-Feuchte:Windchill:Wind:
Aussen-T/F 2226 20-09-2006 11:08:02 16.4 C 9.49 g/m*3 16.4 C 0 km/h
2227 20-09-2006 11:18:02 16.5 C 9.55 g/m*3 16.5 C 0 km/h
2228 20-09-2006 11:28:02 16.3 C 9.3 g/m*3 16.3 C 0 km/h
2229 20-09-2006 11:38:02 16.6 C 9.75 g/m*3 16.6 C 0 km/h
2230 20-09-2006 11:48:02 17 C 9.69 g/m*3 17 C 0 km/h
2231 20-09-2006 11:58:02 17.3 C 9.58 g/m*3 17.3 C 0 km/h
2232 20-09-2006 12:08:02 17.6 C 9.9 g/m*3 17.6 C 0 km/h
2233 20-09-2006 12:18:02 17.9 C 9.77 g/m*3 17.9 C 0 km/h
2234 20-09-2006 12:28:02 18 C 9.52 g/m*3 18 C 0 km/h
2235 20-09-2006 12:38:02 18 C 9.37 g/m*3 18 C 0 km/h
2236 20-09-2006 12:48:02 18.3 C 9.54 g/m*3 18.3 C 0 km/h
2237 20-09-2006 12:58:02 18.7 C 9.61 g/m*3 18.7 C 0 km/h
2238 20-09-2006 13:08:02 19.1 C 9.84 g/m*3 19.1 C 0 km/h
2239 20-09-2006 13:18:02 19.8 C 9.74 g/m*3 19.8 C 0 km/h
2240 20-09-2006 13:28:02 20.4 C 9.38 g/m*3 20.4 C 0 km/h
2241 20-09-2006 13:38:01 21.1 C 9.21 g/m*3 21.1 C 0 km/h
2242 20-09-2006 13:48:02 21.3 C 8.39 g/m*3 21.3 C 0 km/h
2243 20-09-2006 13:58:02 21.2 C 8.34 g/m*3 21.2 C 0 km/h
2244 20-09-2006 14:08:02 20.9 C 8.2 g/m*3 20.9 C 0 km/h
2245 20-09-2006 14:18:02 21.3 C 8.39 g/m*3 21.3 C 0 km/h
2246 20-09-2006 14:28:03 22.7 C 8.69 g/m*3 22.7 C 0 km/h
2247 20-09-2006 14:38:02 22.8 C 8.13 g/m*3 22.8 C 0 km/h
2248 20-09-2006 14:48:02 23.5 C 7.61 g/m*3 23.5 C 0 km/h
2249 20-09-2006 14:58:02 24 C 7.83 g/m*3 24 C 0 km/h
2250 20-09-2006 15:08:02 23.9 C 7.57 g/m*3 23.9 C 0 km/h
Sensor: Nr:Datum:Temp:Abs-Feuchte:Windchill:Wind:
Aussen-T/F 2251 20-09-2006 15:18:01 24.4 C 7.57 g/m*3 24.4 C 0 km/h
2252 20-09-2006 15:28:01 24.4 C 7.12 g/m*3 24.4 C 0 km/h
2253 20-09-2006 15:38:01 24.9 C 8.24 g/m*3 24.9 C 0 km/h
2254 20-09-2006 15:48:02 24.9 C 7.55 g/m*3 24.9 C 0 km/h
2255 20-09-2006 15:58:02 25.1 C 7.87 g/m*3 25.1 C 0 km/h
2256 20-09-2006 16:08:02 25.5 C 7.58 g/m*3 25.5 C 0 km/h
2257 20-09-2006 16:18:02 25.6 C 7.86 g/m*3 25.6 C 0 km/h
2258 20-09-2006 16:28:02 24.1 C 7 g/m*3 24.1 C 0 km/h
2259 20-09-2006 16:38:01 24.9 C 7.32 g/m*3 24.9 C 0 km/h
2260 20-09-2006 16:48:02 24.4 C 7.34 g/m*3 24.4 C 0 km/h
2261 20-09-2006 16:58:02 24.5 C 7.39 g/m*3 24.5 C 0 km/h
2262 20-09-2006 17:08:02 25.2 C 7.22 g/m*3 25.2 C 0 km/h
2263 20-09-2006 17:18:01 25.6 C 7.86 g/m*3 25.6 C 0 km/h
2264 20-09-2006 17:28:01 25.6 C 7.62 g/m*3 25.6 C 0 km/h
2265 20-09-2006 17:38:02 25.8 C 7.46 g/m*3 25.8 C 0 km/h
2266 20-09-2006 17:48:02 25.8 C 7.7 g/m*3 25.8 C 0 km/h
2267 20-09-2006 17:58:02 25.1 C 7.41 g/m*3 25.1 C 0 km/h
2268 20-09-2006 18:08:02 25.2 C 8.15 g/m*3 25.2 C 0 km/h
2269 20-09-2006 18:18:02 25.1 C 7.87 g/m*3 25.1 C 0 km/h
2270 20-09-2006 18:28:02 24.6 C 7.88 g/m*3 24.6 C 0 km/h
2271 20-09-2006 18:38:02 24.6 C 8.33 g/m*3 24.6 C 0 km/h
2272 20-09-2006 18:48:02 24.3 C 8.85 g/m*3 24.3 C 0 km/h
2273 20-09-2006 18:58:02 23.5 C 8.88 g/m*3 23.5 C 0 km/h
2274 20-09-2006 19:08:02 22.3 C 8.89 g/m*3 22.3 C 0 km/h
2275 20-09-2006 19:18:02 21.4 C 9.19 g/m*3 21.4 C 0 km/h
Sensor: Nr:Datum:Temp:Abs-Feuchte:Windchill:Wind:
Aussen-T/F 2276 20-09-2006 19:28:02 20.4 C 9.2 g/m*3 20.4 C 0 km/h
2277 20-09-2006 19:38:03 19.3 C 9.29 g/m*3 19.3 C 0 km/h
2278 20-09-2006 19:48:02 18.7 C 9.45 g/m*3 18.7 C 0 km/h
2279 20-09-2006 19:58:02 18.3 C 9.38 g/m*3 18.3 C 0 km/h
2280 20-09-2006 20:08:03 17.8 C 9.56 g/m*3 17.8 C 0 km/h
2281 20-09-2006 20:18:02 17.4 C 9.48 g/m*3 17.4 C 0 km/h
2282 20-09-2006 20:28:02 17 C 9.55 g/m*3 17 C 0 km/h
2283 20-09-2006 20:38:02 16.5 C 9.55 g/m*3 16.5 C 0 km/h
2284 20-09-2006 20:48:02 16.4 C 9.63 g/m*3 16.4 C 0 km/h
2285 20-09-2006 20:58:02 16.3 C 9.71 g/m*3 16.3 C 0 km/h
2286 20-09-2006 21:08:02 16.3 C 9.71 g/m*3 16.3 C 0 km/h
2287 20-09-2006 21:18:01 16.1 C 9.6 g/m*3 16.1 C 0 km/h
2288 20-09-2006 21:28:01 16 C 9.54 g/m*3 16 C 0 km/h
2289 20-09-2006 21:38:01 16 C 9.54 g/m*3 16 C 0 km/h
2290 20-09-2006 21:48:02 15.8 C 9.56 g/m*3 15.8 C 0 km/h
2291 20-09-2006 21:58:03 15.7 C 9.63 g/m*3 15.7 C 0 km/h
2292 20-09-2006 22:08:02 15.8 C 9.69 g/m*3 15.8 C 0 km/h
2293 20-09-2006 22:18:01 15.8 C 9.69 g/m*3 15.8 C 0 km/h
2294 20-09-2006 22:28:01 15.8 C 9.56 g/m*3 15.8 C 0 km/h
2295 20-09-2006 22:38:01 15.7 C 9.63 g/m*3 15.7 C 0 km/h
2296 20-09-2006 22:48:02 15.5 C 9.65 g/m*3 15.5 C 0 km/h
2297 20-09-2006 22:58:02 15.5 C 9.65 g/m*3 15.5 C 0 km/h
2298 20-09-2006 23:08:02 15.2 C 9.61 g/m*3 15.2 C 0 km/h
2299 20-09-2006 23:18:01 14.9 C 9.69 g/m*3 14.9 C 0 km/h
2300 20-09-2006 23:28:01 15.1 C 9.68 g/m*3 15.1 C 0 km/h
Sensor: Nr:Datum:Temp:Abs-Feuchte:Windchill:Wind:
Aussen-T/F 2301 20-09-2006 23:38:02 14.8 C 9.63 g/m*3 14.8 C 0 km/h
2302 20-09-2006 23:48:02 14.7 C 9.69 g/m*3 14.7 C 0 km/h
2303 20-09-2006 23:58:02 14.7 C 9.69 g/m*3 14.7 C 0 km/h
2304 21-09-2006 00:08:03 14.5 C 9.7 g/m*3 14.5 C 0 km/h
2305 21-09-2006 00:18:03 14.3 C 9.71 g/m*3 14.3 C 0 km/h
2306 21-09-2006 00:28:03 14.3 C 9.71 g/m*3 14.3 C 0 km/h
2307 21-09-2006 00:38:02 14.1 C 9.59 g/m*3 14.1 C 0 km/h
2308 21-09-2006 00:48:02 14.1 C 9.71 g/m*3 14.1 C 0 km/h
2309 21-09-2006 00:58:02 14 C 9.65 g/m*3 14 C 0 km/h
2310 21-09-2006 01:08:02 13.9 C 9.71 g/m*3 13.9 C 0 km/h
2311 21-09-2006 01:18:02 13.8 C 9.65 g/m*3 13.8 C 0 km/h
2312 21-09-2006 01:28:02 13.5 C 9.59 g/m*3 13.5 C 0 km/h
2313 21-09-2006 01:38:02 13.5 C 9.59 g/m*3 13.5 C 0 km/h
2314 21-09-2006 01:48:02 13.4 C 9.53 g/m*3 13.4 C 0 km/h
2315 21-09-2006 01:58:02 13.1 C 9.47 g/m*3 13.1 C 0 km/h
2316 21-09-2006 02:08:02 13.1 C 9.47 g/m*3 13.1 C 0 km/h
2317 21-09-2006 02:18:02 13 C 9.41 g/m*3 13 C 0 km/h
2318 21-09-2006 02:28:02 12.8 C 9.41 g/m*3 12.8 C 0 km/h
2319 21-09-2006 02:38:03 12.7 C 9.35 g/m*3 12.7 C 0 km/h
2320 21-09-2006 02:49:04 12.7 C 9.46 g/m*3 12.7 C 0 km/h
2321 21-09-2006 02:59:04 12.8 C 9.52 g/m*3 12.8 C 0 km/h
2322 21-09-2006 03:09:04 12.8 C 9.52 g/m*3 12.8 C 0 km/h
2323 21-09-2006 03:19:04 12.8 C 9.52 g/m*3 12.8 C 0 km/h
2324 21-09-2006 03:29:04 12.8 C 9.52 g/m*3 12.8 C 0 km/h
2325 21-09-2006 03:39:02 12.8 C 9.52 g/m*3 12.8 C 0 km/h
Sensor: Nr:Datum:Temp:Abs-Feuchte:Windchill:Wind:
Aussen-T/F 2326 21-09-2006 03:49:03 12.8 C 9.52 g/m*3 12.8 C 0 km/h
2327 21-09-2006 03:59:03 12.8 C 9.52 g/m*3 12.8 C 0 km/h
2328 21-09-2006 04:09:02 12.8 C 9.52 g/m*3 12.8 C 0 km/h
2329 21-09-2006 04:19:02 11.9 C 9.32 g/m*3 11.9 C 0 km/h
2330 21-09-2006 04:29:02 11.9 C 9.32 g/m*3 11.9 C 0 km/h
2331 21-09-2006 04:39:03 11.9 C 9.32 g/m*3 11.9 C 0 km/h
2332 21-09-2006 04:49:02 11.6 C 9.15 g/m*3 11.6 C 0 km/h
2333 21-09-2006 04:59:02 11.6 C 9.15 g/m*3 11.6 C 0 km/h
2334 21-09-2006 05:09:03 11.6 C 9.15 g/m*3 11.6 C 0 km/h
2335 21-09-2006 05:19:03 11.6 C 9.15 g/m*3 11.6 C 0 km/h
2336 21-09-2006 05:29:03 11.6 C 9.15 g/m*3 11.6 C 0 km/h
2337 21-09-2006 05:39:03 11.6 C 9.15 g/m*3 11.6 C 0 km/h
2338 21-09-2006 05:49:01 11.6 C 9.15 g/m*3 11.6 C 0 km/h
2339 21-09-2006 05:59:01 11.6 C 9.15 g/m*3 11.6 C 0 km/h
2340 21-09-2006 06:09:02 11.6 C 9.15 g/m*3 11.6 C 0 km/h
2341 21-09-2006 06:19:02 11.6 C 9.15 g/m*3 11.6 C 0 km/h
2342 21-09-2006 06:29:02 11.6 C 9.15 g/m*3 11.6 C 0 km/h
2343 21-09-2006 06:39:02 11.6 C 9.15 g/m*3 11.6 C 0 km/h
2344 21-09-2006 06:49:02 11.6 C 9.15 g/m*3 11.6 C 0 km/h
2345 21-09-2006 06:59:02 11.6 C 9.15 g/m*3 11.6 C 0 km/h
2346 21-09-2006 07:09:02 11.4 C 9.34 g/m*3 11.4 C 0 km/h
2347 21-09-2006 07:19:02 11.4 C 9.34 g/m*3 11.4 C 0 km/h
2348 21-09-2006 07:29:02 11.5 C 9.4 g/m*3 11.5 C 0 km/h
2349 21-09-2006 07:39:02 11.4 C 9.34 g/m*3 11.4 C 0 km/h
2350 21-09-2006 07:49:02 11.3 C 9.28 g/m*3 11.3 C 0 km/h
Sensor: Nr:Datum:Temp:Abs-Feuchte:Windchill:Wind:
Aussen-T/F 2351 21-09-2006 07:59:02 11.2 C 9.22 g/m*3 11.2 C 0 km/h
2352 21-09-2006 08:09:02 11.2 C 9.22 g/m*3 11.2 C 0 km/h
2353 21-09-2006 08:19:02 11.2 C 9.22 g/m*3 11.2 C 0 km/h
2354 21-09-2006 08:29:02 11.4 C 9.34 g/m*3 11.4 C 0 km/h
2355 21-09-2006 08:39:02 11.6 C 9.46 g/m*3 11.6 C 0 km/h
2356 21-09-2006 08:49:03 11.7 C 9.41 g/m*3 11.7 C 0 km/h
2357 21-09-2006 08:59:03 11.7 C 9.41 g/m*3 11.7 C 0 km/h
2358 21-09-2006 09:09:02 12.1 C 9.54 g/m*3 12.1 C 0 km/h
2359 21-09-2006 09:19:02 12.4 C 9.62 g/m*3 12.4 C 0 km/h
2360 21-09-2006 09:29:02 12.6 C 9.74 g/m*3 12.6 C 0 km/h
2361 21-09-2006 09:39:02 12.7 C 9.57 g/m*3 12.7 C 0 km/h
2362 21-09-2006 09:49:03 12.7 C 9.57 g/m*3 12.7 C 0 km/h
2363 21-09-2006 09:59:03 13 C 9.87 g/m*3 13 C 0 km/h
2364 21-09-2006 10:09:03 13.2 C 9.99 g/m*3 13.2 C 0 km/h
2365 21-09-2006 10:19:02 13.5 C 10.29 g/m*3 13.5 C 0 km/h
2366 21-09-2006 10:29:02 14.1 C 10.68 g/m*3 14.1 C 0 km/h
2367 21-09-2006 10:39:02 14.5 C 10.94 g/m*3 14.5 C 0 km/h
2368 21-09-2006 10:49:02 15 C 11.16 g/m*3 15 C 0 km/h
2369 21-09-2006 10:59:03 15.6 C 11.44 g/m*3 15.6 C 0 km/h
2370 21-09-2006 11:09:02 16 C 11.44 g/m*3 16 C 0 km/h
2371 21-09-2006 11:19:01 16.8 C 11.72 g/m*3 16.8 C 0 km/h
2372 21-09-2006 11:29:01 17.5 C 11.63 g/m*3 17.5 C 0 km/h
2373 21-09-2006 11:39:03 18.2 C 11.04 g/m*3 18.2 C 0 km/h
2374 21-09-2006 11:49:02 18.9 C 11.5 g/m*3 18.9 C 0 km/h
2375 21-09-2006 11:59:02 19.3 C 10.95 g/m*3 19.3 C 0 km/h
Sensor: Nr:Datum:Temp:Abs-Feuchte:Windchill:Wind:
Aussen-T/F 2376 21-09-2006 12:09:02 19.9 C 10.82 g/m*3 19.9 C 0 km/h
2377 21-09-2006 12:19:02 20.4 C 10.26 g/m*3 20.4 C 0 km/h
2378 21-09-2006 12:29:02 20.8 C 10.14 g/m*3 20.8 C 0 km/h
2379 21-09-2006 12:39:02 21.2 C 10.01 g/m*3 21.2 C 0 km/h
2380 21-09-2006 12:49:02 21.4 C 10.31 g/m*3 21.4 C 0 km/h
2381 21-09-2006 12:59:02 21.9 C 9.84 g/m*3 21.9 C 0 km/h
2382 21-09-2006 13:09:02 22.3 C 9.87 g/m*3 22.3 C 0 km/h
2383 21-09-2006 13:19:02 22.7 C 9.9 g/m*3 22.7 C 0 km/h
2384 21-09-2006 13:29:02 23.1 C 9.92 g/m*3 23.1 C 0 km/h
2385 21-09-2006 13:39:02 23.5 C 9.31 g/m*3 23.5 C 0 km/h
2386 21-09-2006 13:49:01 24 C 8.92 g/m*3 24 C 0 km/h
2387 21-09-2006 13:59:01 24.5 C 9.18 g/m*3 24.5 C 0 km/h
2388 21-09-2006 14:09:02 25 C 9.21 g/m*3 25 C 0 km/h
2389 21-09-2006 14:19:02 25.6 C 9.28 g/m*3 25.6 C 0 km/h
2390 21-09-2006 14:29:02 25.9 C 8.96 g/m*3 25.9 C 0 km/h
2391 21-09-2006 14:39:02 26.4 C 8.96 g/m*3 26.4 C 0 km/h
2392 21-09-2006 14:49:02 26.5 C 9.01 g/m*3 26.5 C 0 km/h
2393 21-09-2006 14:59:03 26.6 C 8.56 g/m*3 26.6 C 0 km/h
2394 21-09-2006 15:09:02 26.8 C 8.91 g/m*3 26.8 C 0 km/h
2395 21-09-2006 15:19:02 27.3 C 8.37 g/m*3 27.3 C 0 km/h
2396 21-09-2006 15:29:02 27.3 C 8.63 g/m*3 27.3 C 0 km/h
2397 21-09-2006 15:39:03 27.7 C 8.83 g/m*3 27.7 C 0 km/h
2398 21-09-2006 15:49:02 27.7 C 8.56 g/m*3 27.7 C 0 km/h
2399 21-09-2006 15:59:02 27.7 C 8.29 g/m*3 27.7 C 0 km/h
2400 21-09-2006 16:09:03 28 C 8.16 g/m*3 28 C 0 km/h
Sensor: Nr:Datum:Temp:Abs-Feuchte:Windchill:Wind:
Aussen-T/F 2401 21-09-2006 16:19:02 28.5 C 8.38 g/m*3 28.5 C 0 km/h
2402 21-09-2006 16:29:02 28.7 C 8.48 g/m*3 28.7 C 0 km/h
2403 21-09-2006 16:39:03 28.8 C 7.96 g/m*3 28.8 C 0 km/h
2404 21-09-2006 16:49:02 28.4 C 8.34 g/m*3 28.4 C 0 km/h
2405 21-09-2006 16:59:03 28.4 C 8.34 g/m*3 28.4 C 0 km/h
2406 21-09-2006 17:09:02 28.7 C 8.48 g/m*3 28.7 C 0 km/h
2407 21-09-2006 17:19:02 28.8 C 9.38 g/m*3 28.8 C 0 km/h
2408 21-09-2006 17:29:02 29.1 C 9.82 g/m*3 29.1 C 0 km/h
2409 21-09-2006 17:39:02 29.1 C 9.53 g/m*3 29.1 C 0 km/h
2410 21-09-2006 17:49:02 28.8 C 9.94 g/m*3 28.8 C 0 km/h
2411 21-09-2006 17:59:02 28.5 C 9.78 g/m*3 28.5 C 0 km/h
2412 21-09-2006 18:09:02 28.1 C 9.02 g/m*3 28.1 C 0 km/h
2413 21-09-2006 18:19:01 27.3 C 9.42 g/m*3 27.3 C 0 km/h
2414 21-09-2006 18:29:01 27.1 C 9.83 g/m*3 27.1 C 0 km/h
2415 21-09-2006 18:39:02 26.7 C 10.12 g/m*3 26.7 C 0 km/h
2416 21-09-2006 18:49:02 26.2 C 10.09 g/m*3 26.2 C 0 km/h
2417 21-09-2006 18:59:02 25.2 C 9.78 g/m*3 25.2 C 0 km/h
2418 21-09-2006 19:09:03 24.7 C 9.28 g/m*3 24.7 C 0 km/h
2419 21-09-2006 19:19:02 23.9 C 10.17 g/m*3 23.9 C 0 km/h
2420 21-09-2006 19:29:02 23.1 C 10.13 g/m*3 23.1 C 0 km/h
2421 21-09-2006 19:39:02 22.5 C 10.19 g/m*3 22.5 C 0 km/h
2422 21-09-2006 19:49:03 21.8 C 10.36 g/m*3 21.8 C 0 km/h
2423 21-09-2006 19:59:03 21.4 C 10.31 g/m*3 21.4 C 0 km/h
2424 21-09-2006 20:09:03 21 C 10.44 g/m*3 21 C 0 km/h
2425 21-09-2006 20:19:02 20.6 C 10.38 g/m*3 20.6 C 0 km/h
Sensor: Nr:Datum:Temp:Abs-Feuchte:Windchill:Wind:
Aussen-T/F 2426 21-09-2006 20:29:02 20.3 C 10.38 g/m*3 20.3 C 0 km/h
2427 21-09-2006 20:39:02 20 C 10.54 g/m*3 20 C 0 km/h
2428 21-09-2006 20:49:02 19.8 C 10.76 g/m*3 19.8 C 0 km/h
2429 21-09-2006 20:59:02 19.7 C 10.87 g/m*3 19.7 C 0 km/h
2430 21-09-2006 21:09:02 19.4 C 10.84 g/m*3 19.4 C 0 km/h
2431 21-09-2006 21:19:02 19.3 C 10.78 g/m*3 19.3 C 0 km/h
2432 21-09-2006 21:29:02 19.2 C 10.88 g/m*3 19.2 C 0 km/h
2433 21-09-2006 21:39:02 19.2 C 10.88 g/m*3 19.2 C 0 km/h
2434 21-09-2006 21:49:02 19.1 C 10.98 g/m*3 19.1 C 0 km/h
2435 21-09-2006 21:59:02 19 C 11.08 g/m*3 19 C 0 km/h
2436 21-09-2006 22:09:02 18.8 C 11.11 g/m*3 18.8 C 0 km/h
2437 21-09-2006 22:19:02 18.8 C 11.27 g/m*3 18.8 C 0 km/h
2438 21-09-2006 22:29:02 19.1 C 10.98 g/m*3 19.1 C 0 km/h
2439 21-09-2006 22:39:01 19.1 C 10.82 g/m*3 19.1 C 0 km/h
2440 21-09-2006 22:49:02 19.2 C 10.72 g/m*3 19.2 C 0 km/h
2441 21-09-2006 22:59:02 19.2 C 10.72 g/m*3 19.2 C 0 km/h
2442 21-09-2006 23:09:02 19.6 C 10.47 g/m*3 19.6 C 0 km/h
2443 21-09-2006 23:19:02 19.4 C 10.51 g/m*3 19.4 C 0 km/h
2444 21-09-2006 23:29:02 19.4 C 10.51 g/m*3 19.4 C 0 km/h
2445 21-09-2006 23:39:02 19.1 C 10.49 g/m*3 19.1 C 0 km/h
2446 21-09-2006 23:49:02 19 C 10.43 g/m*3 19 C 0 km/h
2447 21-09-2006 23:59:02 18.9 C 10.69 g/m*3 18.9 C 0 km/h
2448 22-09-2006 00:09:02 18.8 C 10.63 g/m*3 18.8 C 0 km/h
2449 22-09-2006 00:19:03 18.8 C 10.63 g/m*3 18.8 C 0 km/h
2450 22-09-2006 00:29:03 18.6 C 10.66 g/m*3 18.6 C 0 km/h
Sensor: Nr:Datum:Temp:Abs-Feuchte:Windchill:Wind:
Aussen-T/F 2451 22-09-2006 00:39:02 18.8 C 10.63 g/m*3 18.8 C 0 km/h
2452 22-09-2006 00:49:02 19 C 10.27 g/m*3 19 C 0 km/h
2453 22-09-2006 00:59:02 18.9 C 10.37 g/m*3 18.9 C 0 km/h
2454 22-09-2006 01:09:02 19.2 C 10.22 g/m*3 19.2 C 0 km/h
2455 22-09-2006 01:19:02 19.1 C 10.16 g/m*3 19.1 C 0 km/h
2456 22-09-2006 01:29:02 19.3 C 10.12 g/m*3 19.3 C 0 km/h
2457 22-09-2006 01:39:02 19.4 C 10.18 g/m*3 19.4 C 0 km/h
2458 22-09-2006 01:49:03 19.5 C 10.07 g/m*3 19.5 C 0 km/h
2459 22-09-2006 01:59:03 19.4 C 10.18 g/m*3 19.4 C 0 km/h
2460 22-09-2006 02:09:01 19.4 C 10.18 g/m*3 19.4 C 0 km/h
2461 22-09-2006 02:19:03 19.5 C 10.07 g/m*3 19.5 C 0 km/h
2462 22-09-2006 02:29:03 19.5 C 10.07 g/m*3 19.5 C 0 km/h
2463 22-09-2006 02:39:02 19.4 C 10.01 g/m*3 19.4 C 0 km/h
2464 22-09-2006 02:50:04 19.4 C 10.01 g/m*3 19.4 C 0 km/h
2465 22-09-2006 03:00:04 19.3 C 10.12 g/m*3 19.3 C 0 km/h
2466 22-09-2006 03:10:04 19.3 C 10.12 g/m*3 19.3 C 0 km/h
2467 22-09-2006 03:20:04 19.1 C 10 g/m*3 19.1 C 0 km/h
2468 22-09-2006 03:30:04 19 C 10.1 g/m*3 19 C 0 km/h
2469 22-09-2006 03:40:02 18.9 C 10.21 g/m*3 18.9 C 0 km/h
2470 22-09-2006 03:50:02 18.6 C 10.19 g/m*3 18.6 C 0 km/h
2471 22-09-2006 04:00:02 18.6 C 10.19 g/m*3 18.6 C 0 km/h
2472 22-09-2006 04:10:02 18.9 C 10.21 g/m*3 18.9 C 0 km/h
2473 22-09-2006 04:20:02 18.9 C 10.21 g/m*3 18.9 C 0 km/h
2474 22-09-2006 04:30:02 19 C 10.1 g/m*3 19 C 0 km/h
2475 22-09-2006 04:40:03 18.9 C 10.04 g/m*3 18.9 C 0 km/h
Sensor: Nr:Datum:Temp:Abs-Feuchte:Windchill:Wind:
Aussen-T/F 2476 22-09-2006 04:50:02 18.9 C 10.04 g/m*3 18.9 C 0 km/h
2477 22-09-2006 05:00:02 18.7 C 10.09 g/m*3 18.7 C 0 km/h
2478 22-09-2006 05:10:03 18.2 C 10.1 g/m*3 18.2 C 0 km/h
2479 22-09-2006 05:20:03 18.2 C 10.26 g/m*3 18.2 C 0 km/h
2480 22-09-2006 05:30:03 17.8 C 10.32 g/m*3 17.8 C 0 km/h
2481 22-09-2006 05:40:03 17.3 C 10.31 g/m*3 17.3 C 0 km/h
2482 22-09-2006 05:50:01 17 C 10.42 g/m*3 17 C 0 km/h
2483 22-09-2006 06:00:01 16.6 C 10.45 g/m*3 16.6 C 0 km/h
2484 22-09-2006 06:10:01 16.4 C 10.47 g/m*3 16.4 C 0 km/h
2485 22-09-2006 06:20:02 16.1 C 10.42 g/m*3 16.1 C 0 km/h
2486 22-09-2006 06:30:02 15.8 C 10.5 g/m*3 15.8 C 0 km/h
2487 22-09-2006 06:40:02 15.6 C 10.51 g/m*3 15.6 C 0 km/h
2488 22-09-2006 06:50:02 15.4 C 10.51 g/m*3 15.4 C 0 km/h
2489 22-09-2006 07:00:02 15.3 C 10.58 g/m*3 15.3 C 0 km/h
2490 22-09-2006 07:10:03 15 C 10.39 g/m*3 15 C 0 km/h
2491 22-09-2006 07:20:02 15 C 10.39 g/m*3 15 C 0 km/h
2492 22-09-2006 07:30:02 14.9 C 10.45 g/m*3 14.9 C 0 km/h
2493 22-09-2006 07:40:02 14.8 C 10.39 g/m*3 14.8 C 0 km/h
2494 22-09-2006 07:50:02 14.8 C 10.39 g/m*3 14.8 C 0 km/h
2495 22-09-2006 08:00:02 14.8 C 10.51 g/m*3 14.8 C 0 km/h
2496 22-09-2006 08:10:02 14.7 C 10.45 g/m*3 14.7 C 0 km/h
2497 22-09-2006 08:20:02 14.7 C 10.45 g/m*3 14.7 C 0 km/h
2498 22-09-2006 08:30:02 14.6 C 10.39 g/m*3 14.6 C 0 km/h
2499 22-09-2006 08:40:02 14.6 C 10.51 g/m*3 14.6 C 0 km/h
2500 22-09-2006 08:50:02 14.6 C 10.51 g/m*3 14.6 C 0 km/h
Sensor: Nr:Datum:Temp:Abs-Feuchte:Windchill:Wind:
Aussen-T/F 2501 22-09-2006 09:00:02 14.6 C 10.51 g/m*3 14.6 C 0 km/h
2502 22-09-2006 09:10:02 14.6 C 10.51 g/m*3 14.6 C 0 km/h
2503 22-09-2006 09:20:02 14.8 C 10.77 g/m*3 14.8 C 0 km/h
2504 22-09-2006 09:30:02 15 C 10.77 g/m*3 15 C 0 km/h
2505 22-09-2006 09:40:02 15.3 C 10.97 g/m*3 15.3 C 0 km/h
2506 22-09-2006 09:50:03 15.5 C 10.84 g/m*3 15.5 C 0 km/h
2507 22-09-2006 10:00:03 15.9 C 10.97 g/m*3 15.9 C 0 km/h
2508 22-09-2006 10:10:03 16.3 C 10.96 g/m*3 16.3 C 0 km/h
2509 22-09-2006 10:20:03 16.8 C 11.01 g/m*3 16.8 C 0 km/h
2510 22-09-2006 10:30:03 17.2 C 10.98 g/m*3 17.2 C 0 km/h
2511 22-09-2006 10:40:02 17.7 C 11.01 g/m*3 17.7 C 0 km/h
2512 22-09-2006 10:50:02 18.1 C 11.12 g/m*3 18.1 C 0 km/h
2513 22-09-2006 11:00:02 18.2 C 11.19 g/m*3 18.2 C 0 km/h
2514 22-09-2006 11:10:03 18.7 C 11.37 g/m*3 18.7 C 0 km/h
2515 22-09-2006 11:20:02 19.2 C 11.38 g/m*3 19.2 C 0 km/h
2516 22-09-2006 11:30:02 19.6 C 11.48 g/m*3 19.6 C 0 km/h
2517 22-09-2006 11:40:03 20 C 11.41 g/m*3 20 C 0 km/h
2518 22-09-2006 11:50:03 20.4 C 11.32 g/m*3 20.4 C 0 km/h
2519 22-09-2006 12:00:03 21.1 C 11.42 g/m*3 21.1 C 0 km/h
2520 22-09-2006 12:10:03 21.2 C 11.49 g/m*3 21.2 C 0 km/h
2521 22-09-2006 12:20:02 21.4 C 11.62 g/m*3 21.4 C 0 km/h
2522 22-09-2006 12:30:02 21.6 C 11.38 g/m*3 21.6 C 0 km/h
2523 22-09-2006 12:40:02 21.8 C 11.7 g/m*3 21.8 C 0 km/h
2524 22-09-2006 12:50:01 22.5 C 11.19 g/m*3 22.5 C 0 km/h
2525 22-09-2006 13:00:01 23.1 C 10.34 g/m*3 23.1 C 0 km/h
Sensor: Nr:Datum:Temp:Abs-Feuchte:Windchill:Wind:
Aussen-T/F 2526 22-09-2006 13:10:02 23.6 C 10.42 g/m*3 23.6 C 0 km/h
2527 22-09-2006 13:20:02 24.1 C 10.72 g/m*3 24.1 C 0 km/h
2528 22-09-2006 13:30:02 24.6 C 9 g/m*3 24.6 C 0 km/h
2529 22-09-2006 13:40:02 25.7 C 8.38 g/m*3 25.7 C 0 km/h
2530 22-09-2006 13:50:02 25.8 C 8.43 g/m*3 25.8 C 0 km/h
2531 22-09-2006 14:00:02 26.3 C 8.66 g/m*3 26.3 C 0 km/h
2532 22-09-2006 14:10:03 26.7 C 8.1 g/m*3 26.7 C 0 km/h
2533 22-09-2006 14:20:03 26.8 C 8.14 g/m*3 26.8 C 0 km/h
2534 22-09-2006 14:30:03 27.1 C 8.02 g/m*3 27.1 C 0 km/h
2535 22-09-2006 14:40:02 27.7 C 8.29 g/m*3 27.7 C 0 km/h
2536 22-09-2006 14:50:02 28.1 C 7.93 g/m*3 28.1 C 0 km/h
2537 22-09-2006 15:00:02 28.3 C 7.46 g/m*3 28.3 C 0 km/h
2538 22-09-2006 15:10:02 28.2 C 7.42 g/m*3 28.2 C 0 km/h
2539 22-09-2006 15:20:02 28.6 C 7.59 g/m*3 28.6 C 0 km/h
2540 22-09-2006 15:30:02 29.7 C 7.76 g/m*3 29.7 C 0 km/h
2541 22-09-2006 15:40:02 30 C 8.49 g/m*3 30 C 0 km/h
2542 22-09-2006 15:50:02 29.7 C 7.76 g/m*3 29.7 C 0 km/h
2543 22-09-2006 16:00:02 29.5 C 7.67 g/m*3 29.5 C 0 km/h
2544 22-09-2006 16:10:03 29.2 C 8.42 g/m*3 29.2 C 0 km/h
2545 22-09-2006 16:20:02 28.1 C 9.57 g/m*3 28.1 C 0 km/h
2546 22-09-2006 16:30:02 28.2 C 9.9 g/m*3 28.2 C 0 km/h
2547 22-09-2006 16:40:02 28.6 C 9.84 g/m*3 28.6 C 0 km/h
2548 22-09-2006 16:50:02 28.5 C 9.78 g/m*3 28.5 C 0 km/h
2549 22-09-2006 17:00:02 28.5 C 8.66 g/m*3 28.5 C 0 km/h
2550 22-09-2006 17:10:02 27.6 C 8.78 g/m*3 27.6 C 0 km/h
Sensor: Nr:Datum:Temp:Abs-Feuchte:Windchill:Wind:
Aussen-T/F 2551 22-09-2006 17:20:01 27.1 C 8.8 g/m*3 27.1 C 0 km/h
2552 22-09-2006 17:30:01 26.6 C 9.57 g/m*3 26.6 C 0 km/h
2553 22-09-2006 17:40:02 26.3 C 9.41 g/m*3 26.3 C 0 km/h
2554 22-09-2006 17:50:02 26.3 C 9.9 g/m*3 26.3 C 0 km/h
2555 22-09-2006 18:00:02 26 C 9.49 g/m*3 26 C 0 km/h
2556 22-09-2006 18:10:02 25.7 C 9.58 g/m*3 25.7 C 0 km/h
2557 22-09-2006 18:20:02 25.6 C 10 g/m*3 25.6 C 0 km/h
2558 22-09-2006 18:30:02 24.9 C 10.07 g/m*3 24.9 C 0 km/h
2559 22-09-2006 18:40:01 24.5 C 9.62 g/m*3 24.5 C 0 km/h
2560 22-09-2006 18:50:02 23.8 C 10.33 g/m*3 23.8 C 0 km/h
2561 22-09-2006 19:00:02 23.5 C 10.15 g/m*3 23.5 C 0 km/h
2562 22-09-2006 19:10:03 23.1 C 9.92 g/m*3 23.1 C 0 km/h
2563 22-09-2006 19:20:02 23.1 C 9.92 g/m*3 23.1 C 0 km/h
2564 22-09-2006 19:30:02 22.7 C 10.3 g/m*3 22.7 C 0 km/h
2565 22-09-2006 19:40:02 22.5 C 9.79 g/m*3 22.5 C 0 km/h
2566 22-09-2006 19:50:02 22.5 C 10.19 g/m*3 22.5 C 0 km/h
2567 22-09-2006 20:00:03 22.4 C 9.93 g/m*3 22.4 C 0 km/h
2568 22-09-2006 20:10:03 22.2 C 10.01 g/m*3 22.2 C 0 km/h
2569 22-09-2006 20:20:02 22.1 C 9.96 g/m*3 22.1 C 0 km/h
2570 22-09-2006 20:30:02 22.3 C 9.68 g/m*3 22.3 C 0 km/h
2571 22-09-2006 20:40:02 22.4 C 9.73 g/m*3 22.4 C 0 km/h
2572 22-09-2006 20:50:02 22.4 C 9.73 g/m*3 22.4 C 0 km/h
2573 22-09-2006 21:00:02 22.3 C 9.68 g/m*3 22.3 C 0 km/h
2574 22-09-2006 21:10:02 22.3 C 9.48 g/m*3 22.3 C 0 km/h
2575 22-09-2006 21:20:02 22.3 C 9.68 g/m*3 22.3 C 0 km/h
Sensor: Nr:Datum:Temp:Abs-Feuchte:Windchill:Wind:
Aussen-T/F 2576 22-09-2006 21:30:02 22.1 C 9.56 g/m*3 22.1 C 0 km/h
2577 22-09-2006 21:40:01 22.1 C 9.76 g/m*3 22.1 C 0 km/h
2578 22-09-2006 21:50:02 21.6 C 10.24 g/m*3 21.6 C 0 km/h
2579 22-09-2006 22:00:02 21.4 C 10.5 g/m*3 21.4 C 0 km/h
2580 22-09-2006 22:10:02 20.9 C 10.56 g/m*3 20.9 C 0 km/h
2581 22-09-2006 22:20:01 20.5 C 10.5 g/m*3 20.5 C 0 km/h
2582 22-09-2006 22:30:01 20.3 C 10.73 g/m*3 20.3 C 0 km/h
2583 22-09-2006 22:40:02 20.1 C 10.6 g/m*3 20.1 C 0 km/h
2584 22-09-2006 22:50:02 20 C 10.54 g/m*3 20 C 0 km/h
2585 22-09-2006 23:00:02 20 C 10.71 g/m*3 20 C 0 km/h
2586 22-09-2006 23:10:02 19.7 C 10.7 g/m*3 19.7 C 0 km/h
2587 22-09-2006 23:20:01 19.6 C 10.8 g/m*3 19.6 C 0 km/h
2588 22-09-2006 23:30:01 19.4 C 10.84 g/m*3 19.4 C 0 km/h
2589 22-09-2006 23:40:02 19.2 C 11.05 g/m*3 19.2 C 0 km/h
2590 22-09-2006 23:50:02 19.1 C 11.15 g/m*3 19.1 C 0 km/h
2591 23-09-2006 00:00:02 18.9 C 11.18 g/m*3 18.9 C 0 km/h
2592 23-09-2006 00:10:01 18.7 C 11.21 g/m*3 18.7 C 0 km/h
2593 23-09-2006 00:20:02 18.6 C 11.14 g/m*3 18.6 C 0 km/h
2594 23-09-2006 00:30:02 18.4 C 11.17 g/m*3 18.4 C 0 km/h
2595 23-09-2006 00:40:02 18.2 C 11.04 g/m*3 18.2 C 0 km/h
2596 23-09-2006 00:50:03 18 C 11.21 g/m*3 18 C 0 km/h
2597 23-09-2006 01:00:03 17.9 C 11.3 g/m*3 17.9 C 0 km/h
2598 23-09-2006 01:10:03 17.7 C 11.16 g/m*3 17.7 C 0 km/h
2599 23-09-2006 01:20:03 17.7 C 11.32 g/m*3 17.7 C 0 km/h
2600 23-09-2006 01:30:03 17.5 C 11.18 g/m*3 17.5 C 0 km/h
Sensor: Nr:Datum:Temp:Abs-Feuchte:Windchill:Wind:
Aussen-T/F 2601 23-09-2006 01:40:03 17.4 C 11.12 g/m*3 17.4 C 0 km/h
2602 23-09-2006 01:50:02 17.2 C 10.98 g/m*3 17.2 C 0 km/h
2603 23-09-2006 02:00:02 17.2 C 10.98 g/m*3 17.2 C 0 km/h
2604 23-09-2006 02:10:03 17 C 11 g/m*3 17 C 0 km/h
2605 23-09-2006 02:20:02 17 C 11 g/m*3 17 C 0 km/h
2606 23-09-2006 02:30:03 16.8 C 11.15 g/m*3 16.8 C 0 km/h
2607 23-09-2006 02:40:02 16.6 C 11.02 g/m*3 16.6 C 0 km/h
2608 23-09-2006 02:51:03 16.6 C 11.16 g/m*3 16.6 C 0 km/h
2609 23-09-2006 03:01:04 16.5 C 11.09 g/m*3 16.5 C 0 km/h
2610 23-09-2006 03:11:04 16.4 C 11.03 g/m*3 16.4 C 0 km/h
2611 23-09-2006 03:21:04 16.2 C 11.03 g/m*3 16.2 C 0 km/h
2612 23-09-2006 03:31:02 16.2 C 11.03 g/m*3 16.2 C 0 km/h
2613 23-09-2006 03:41:02 16.1 C 11.1 g/m*3 16.1 C 0 km/h
2614 23-09-2006 03:51:03 16 C 11.04 g/m*3 16 C 0 km/h
2615 23-09-2006 04:01:02 15.9 C 11.1 g/m*3 15.9 C 0 km/h
2616 23-09-2006 04:11:03 15.8 C 11.04 g/m*3 15.8 C 0 km/h
2617 23-09-2006 04:21:02 15.7 C 11.11 g/m*3 15.7 C 0 km/h
2618 23-09-2006 04:31:02 15.6 C 11.04 g/m*3 15.6 C 0 km/h
2619 23-09-2006 04:41:02 15.5 C 10.97 g/m*3 15.5 C 0 km/h
2620 23-09-2006 04:51:02 15.4 C 10.9 g/m*3 15.4 C 0 km/h
2621 23-09-2006 05:01:02 15.2 C 10.9 g/m*3 15.2 C 0 km/h
2622 23-09-2006 05:11:02 15.2 C 10.9 g/m*3 15.2 C 0 km/h
2623 23-09-2006 05:21:02 15.1 C 10.84 g/m*3 15.1 C 0 km/h
2624 23-09-2006 05:31:02 15.1 C 10.84 g/m*3 15.1 C 0 km/h
2625 23-09-2006 05:41:02 14.9 C 10.83 g/m*3 14.9 C 0 km/h
Sensor: Nr:Datum:Temp:Abs-Feuchte:Windchill:Wind:
Aussen-T/F 2626 23-09-2006 05:51:03 14.8 C 10.77 g/m*3 14.8 C 0 km/h
2627 23-09-2006 06:01:02 14.7 C 10.7 g/m*3 14.7 C 0 km/h
2628 23-09-2006 06:11:02 14.6 C 10.64 g/m*3 14.6 C 0 km/h
2629 23-09-2006 06:21:02 14.6 C 10.76 g/m*3 14.6 C 0 km/h
2630 23-09-2006 06:31:02 14.5 C 10.7 g/m*3 14.5 C 0 km/h
2631 23-09-2006 06:41:02 14.4 C 10.63 g/m*3 14.4 C 0 km/h
2632 23-09-2006 06:51:02 14.4 C 10.75 g/m*3 14.4 C 0 km/h
2633 23-09-2006 07:01:01 14.3 C 10.69 g/m*3 14.3 C 0 km/h
2634 23-09-2006 07:11:01 14.3 C 10.69 g/m*3 14.3 C 0 km/h
2635 23-09-2006 07:21:01 14.5 C 10.94 g/m*3 14.5 C 0 km/h
2636 23-09-2006 07:31:01 14.5 C 10.94 g/m*3 14.5 C 0 km/h
2637 23-09-2006 07:41:01 14.6 C 10.89 g/m*3 14.6 C 0 km/h
2638 23-09-2006 07:51:02 14.7 C 11.08 g/m*3 14.7 C 0 km/h
2639 23-09-2006 08:01:01 15 C 11.16 g/m*3 15 C 0 km/h
2640 23-09-2006 08:11:01 15.1 C 11.09 g/m*3 15.1 C 0 km/h
2641 23-09-2006 08:21:01 15.4 C 11.3 g/m*3 15.4 C 0 km/h
2642 23-09-2006 08:31:01 15.4 C 11.17 g/m*3 15.4 C 0 km/h
2643 23-09-2006 08:41:01 15.4 C 11.17 g/m*3 15.4 C 0 km/h
2644 23-09-2006 08:51:02 15.5 C 11.1 g/m*3 15.5 C 0 km/h
2645 23-09-2006 09:01:02 15.6 C 11.3 g/m*3 15.6 C 0 km/h
2646 23-09-2006 09:11:02 15.6 C 11.3 g/m*3 15.6 C 0 km/h
2647 23-09-2006 09:21:02 15.8 C 11.44 g/m*3 15.8 C 0 km/h
2648 23-09-2006 09:31:02 16.2 C 11.45 g/m*3 16.2 C 0 km/h
2649 23-09-2006 09:41:02 16.8 C 11.44 g/m*3 16.8 C 0 km/h
2650 23-09-2006 09:51:02 17 C 11.43 g/m*3 17 C 0 km/h
Sensor: Nr:Datum:Temp:Abs-Feuchte:Windchill:Wind:
Aussen-T/F 2651 23-09-2006 10:01:02 17.5 C 11.48 g/m*3 17.5 C 0 km/h
2652 23-09-2006 10:11:02 18.1 C 10.66 g/m*3 18.1 C 0 km/h
2653 23-09-2006 10:21:02 18.5 C 10.92 g/m*3 18.5 C 0 km/h
2654 23-09-2006 10:31:03 18.7 C 10.89 g/m*3 18.7 C 0 km/h
2655 23-09-2006 10:41:03 19.1 C 10.98 g/m*3 19.1 C 0 km/h
2656 23-09-2006 10:51:02 19.6 C 10.8 g/m*3 19.6 C 0 km/h
2657 23-09-2006 11:01:03 20.1 C 10.6 g/m*3 20.1 C 0 km/h
2658 23-09-2006 11:11:03 20.1 C 10.43 g/m*3 20.1 C 0 km/h
2659 23-09-2006 11:21:02 20.3 C 11.08 g/m*3 20.3 C 0 km/h
2660 23-09-2006 11:31:02 20.4 C 10.97 g/m*3 20.4 C 0 km/h
2661 23-09-2006 11:41:02 20.4 C 11.5 g/m*3 20.4 C 0 km/h
2662 23-09-2006 11:51:02 20.9 C 11.11 g/m*3 20.9 C 0 km/h
2663 23-09-2006 12:01:02 21.2 C 11.49 g/m*3 21.2 C 0 km/h
2664 23-09-2006 12:11:02 22.1 C 11.32 g/m*3 22.1 C 0 km/h
2665 23-09-2006 12:21:02 22.4 C 11.32 g/m*3 22.4 C 0 km/h
2666 23-09-2006 12:31:02 22.5 C 11.19 g/m*3 22.5 C 0 km/h
2667 23-09-2006 12:41:02 23 C 10.69 g/m*3 23 C 0 km/h
2668 23-09-2006 12:51:02 23.1 C 10.96 g/m*3 23.1 C 0 km/h
2669 23-09-2006 13:01:02 23.4 C 10.93 g/m*3 23.4 C 0 km/h
2670 23-09-2006 13:11:03 23.6 C 11.06 g/m*3 23.6 C 0 km/h
2671 23-09-2006 13:21:02 23.8 C 11.62 g/m*3 23.8 C 0 km/h
2672 23-09-2006 13:31:02 24 C 10.44 g/m*3 24 C 0 km/h
2673 23-09-2006 13:41:02 24.4 C 10.68 g/m*3 24.4 C 0 km/h
2674 23-09-2006 13:51:02 24.5 C 11.41 g/m*3 24.5 C 0 km/h
2675 23-09-2006 14:01:02 25.6 C 10.24 g/m*3 25.6 C 0 km/h
Sensor: Nr:Datum:Temp:Abs-Feuchte:Windchill:Wind:
Aussen-T/F 2676 23-09-2006 14:11:02 26.1 C 11.02 g/m*3 26.1 C 0 km/h
2677 23-09-2006 14:21:02 26.3 C 9.9 g/m*3 26.3 C 0 km/h
2678 23-09-2006 14:31:02 27 C 9.52 g/m*3 27 C 0 km/h
2679 23-09-2006 14:41:02 27.3 C 9.68 g/m*3 27.3 C 0 km/h
2680 23-09-2006 14:51:02 27.7 C 9.63 g/m*3 27.7 C 0 km/h
2681 23-09-2006 15:01:02 27.9 C 9.47 g/m*3 27.9 C 0 km/h
2682 23-09-2006 15:11:02 28.1 C 9.3 g/m*3 28.1 C 0 km/h
2683 23-09-2006 15:21:02 27.9 C 8.92 g/m*3 27.9 C 0 km/h
2684 23-09-2006 15:31:02 27.9 C 9.47 g/m*3 27.9 C 0 km/h
2685 23-09-2006 15:41:02 28.6 C 9.84 g/m*3 28.6 C 0 km/h
2686 23-09-2006 15:51:02 28 C 8.7 g/m*3 28 C 0 km/h
2687 23-09-2006 16:01:02 28.2 C 8.8 g/m*3 28.2 C 0 km/h
2688 23-09-2006 16:11:02 28.8 C 8.81 g/m*3 28.8 C 0 km/h
2689 23-09-2006 16:21:02 28.8 C 9.38 g/m*3 28.8 C 0 km/h
2690 23-09-2006 16:31:02 28.9 C 8.86 g/m*3 28.9 C 0 km/h
2691 23-09-2006 16:41:02 28.4 C 8.9 g/m*3 28.4 C 0 km/h
2692 23-09-2006 16:51:02 28.4 C 9.17 g/m*3 28.4 C 0 km/h
2693 23-09-2006 17:01:03 27.4 C 9.47 g/m*3 27.4 C 0 km/h
2694 23-09-2006 17:11:03 27.1 C 9.58 g/m*3 27.1 C 0 km/h
2695 23-09-2006 17:21:02 26.7 C 10.88 g/m*3 26.7 C 0 km/h
2696 23-09-2006 17:31:02 26.9 C 9.98 g/m*3 26.9 C 0 km/h
2697 23-09-2006 17:41:02 26.9 C 11.01 g/m*3 26.9 C 0 km/h
2698 23-09-2006 17:51:02 26.7 C 10.38 g/m*3 26.7 C 0 km/h
2699 23-09-2006 18:01:02 26.9 C 10.24 g/m*3 26.9 C 0 km/h
2700 23-09-2006 18:11:02 26.9 C 10.24 g/m*3 26.9 C 0 km/h
Sensor: Nr:Datum:Temp:Abs-Feuchte:Windchill:Wind:
Aussen-T/F 2701 23-09-2006 18:21:02 26.9 C 11.26 g/m*3 26.9 C 0 km/h
2702 23-09-2006 18:31:02 26.4 C 11.2 g/m*3 26.4 C 0 km/h
2703 23-09-2006 18:41:02 25.5 C 10.89 g/m*3 25.5 C 0 km/h
2704 23-09-2006 18:51:02 24.6 C 11.25 g/m*3 24.6 C 0 km/h
2705 23-09-2006 19:01:02 23.9 C 11.47 g/m*3 23.9 C 0 km/h
2706 23-09-2006 19:11:02 23.3 C 11.08 g/m*3 23.3 C 0 km/h
2707 23-09-2006 19:21:02 22.9 C 11.24 g/m*3 22.9 C 0 km/h
2708 23-09-2006 19:31:02 22.3 C 11.26 g/m*3 22.3 C 0 km/h
2709 23-09-2006 19:41:02 22 C 11.06 g/m*3 22 C 0 km/h
2710 23-09-2006 19:51:03 21.5 C 11.13 g/m*3 21.5 C 0 km/h
2711 23-09-2006 20:01:02 21.3 C 11.18 g/m*3 21.3 C 0 km/h
2712 23-09-2006 20:11:02 21.2 C 11.3 g/m*3 21.2 C 0 km/h
2713 23-09-2006 20:21:02 20.9 C 11.29 g/m*3 20.9 C 0 km/h
2714 23-09-2006 20:31:02 20.7 C 11.34 g/m*3 20.7 C 0 km/h
2715 23-09-2006 20:41:02 20.6 C 11.45 g/m*3 20.6 C 0 km/h
2716 23-09-2006 20:51:02 20.5 C 11.39 g/m*3 20.5 C 0 km/h
2717 23-09-2006 21:01:02 20.5 C 11.57 g/m*3 20.5 C 0 km/h
2718 23-09-2006 21:11:02 20.4 C 11.5 g/m*3 20.4 C 0 km/h
2719 23-09-2006 21:21:01 20.3 C 11.61 g/m*3 20.3 C 0 km/h
2720 23-09-2006 21:31:01 20.3 C 11.78 g/m*3 20.3 C 0 km/h
2721 23-09-2006 21:41:01 20 C 11.75 g/m*3 20 C 0 km/h
2722 23-09-2006 21:51:02 19.8 C 11.96 g/m*3 19.8 C 0 km/h
2723 23-09-2006 22:01:02 19.7 C 11.89 g/m*3 19.7 C 0 km/h
2724 23-09-2006 22:11:02 19.5 C 11.92 g/m*3 19.5 C 0 km/h
2725 23-09-2006 22:21:01 19.5 C 11.92 g/m*3 19.5 C 0 km/h
Sensor: Nr:Datum:Temp:Abs-Feuchte:Windchill:Wind:
Aussen-T/F 2726 23-09-2006 22:31:02 19.5 C 12.08 g/m*3 19.5 C 0 km/h
2727 23-09-2006 22:41:02 19.5 C 12.08 g/m*3 19.5 C 0 km/h
2728 23-09-2006 22:51:02 19.3 C 11.94 g/m*3 19.3 C 0 km/h
2729 23-09-2006 23:01:02 19.2 C 12.04 g/m*3 19.2 C 0 km/h
2730 23-09-2006 23:11:02 19 C 11.9 g/m*3 19 C 0 km/h
2731 23-09-2006 23:21:02 18.9 C 12.15 g/m*3 18.9 C 0 km/h
2732 23-09-2006 23:31:02 18.8 C 12.08 g/m*3 18.8 C 0 km/h
2733 23-09-2006 23:41:02 18.7 C 12.01 g/m*3 18.7 C 0 km/h
2734 23-09-2006 23:51:02 18.6 C 12.1 g/m*3 18.6 C 0 km/h
2735 24-09-2006 00:01:02 18.5 C 12.02 g/m*3 18.5 C 0 km/h
2736 24-09-2006 00:11:02 18.3 C 12.04 g/m*3 18.3 C 0 km/h
2737 24-09-2006 00:21:03 18.3 C 12.2 g/m*3 18.3 C 0 km/h
2738 24-09-2006 00:31:02 18.3 C 12.2 g/m*3 18.3 C 0 km/h
2739 24-09-2006 00:41:02 18.2 C 12.12 g/m*3 18.2 C 0 km/h
2740 24-09-2006 00:51:02 18.1 C 12.05 g/m*3 18.1 C 0 km/h
2741 24-09-2006 01:01:02 17.9 C 12.06 g/m*3 17.9 C 0 km/h
2742 24-09-2006 01:11:03 17.8 C 11.99 g/m*3 17.8 C 0 km/h
2743 24-09-2006 01:21:02 17.8 C 12.14 g/m*3 17.8 C 0 km/h
2744 24-09-2006 01:31:03 17.7 C 12.07 g/m*3 17.7 C 0 km/h
2745 24-09-2006 01:41:03 17.6 C 12 g/m*3 17.6 C 0 km/h
2746 24-09-2006 01:51:02 17.7 C 11.92 g/m*3 17.7 C 0 km/h
2747 24-09-2006 02:01:02 17.7 C 11.92 g/m*3 17.7 C 0 km/h
2748 24-09-2006 02:11:02 17.7 C 11.92 g/m*3 17.7 C 0 km/h
2749 24-09-2006 02:21:01 17.6 C 11.85 g/m*3 17.6 C 0 km/h
2750 24-09-2006 02:31:02 17.4 C 11.56 g/m*3 17.4 C 0 km/h
Sensor: Nr:Datum:Temp:Abs-Feuchte:Windchill:Wind:
Aussen-T/F 2751 24-09-2006 02:41:02 17.2 C 11.57 g/m*3 17.2 C 0 km/h
2752 24-09-2006 02:52:05 17.2 C 11.57 g/m*3 17.2 C 0 km/h
2753 24-09-2006 03:02:05 17.2 C 11.72 g/m*3 17.2 C 0 km/h
2754 24-09-2006 03:12:04 17.1 C 11.5 g/m*3 17.1 C 0 km/h
2755 24-09-2006 03:22:04 17 C 11.43 g/m*3 17 C 0 km/h
2756 24-09-2006 03:32:02 17 C 11.43 g/m*3 17 C 0 km/h
2757 24-09-2006 03:42:02 17 C 11.43 g/m*3 17 C 0 km/h
2758 24-09-2006 03:52:02 17.2 C 11.57 g/m*3 17.2 C 0 km/h
2759 24-09-2006 04:02:02 17.2 C 11.57 g/m*3 17.2 C 0 km/h
2760 24-09-2006 04:12:02 17.2 C 11.57 g/m*3 17.2 C 0 km/h
2761 24-09-2006 04:22:02 17.1 C 11.65 g/m*3 17.1 C 0 km/h
2762 24-09-2006 04:32:02 17 C 11.58 g/m*3 17 C 0 km/h
2763 24-09-2006 04:42:02 17 C 11.58 g/m*3 17 C 0 km/h
2764 24-09-2006 04:52:02 17.1 C 11.35 g/m*3 17.1 C 0 km/h
2765 24-09-2006 05:02:02 17.1 C 11.35 g/m*3 17.1 C 0 km/h
2766 24-09-2006 05:12:02 17.2 C 11.28 g/m*3 17.2 C 0 km/h
2767 24-09-2006 05:22:02 17.2 C 11.28 g/m*3 17.2 C 0 km/h
2768 24-09-2006 05:32:03 17.1 C 11.21 g/m*3 17.1 C 0 km/h
2769 24-09-2006 05:42:03 17.2 C 11.13 g/m*3 17.2 C 0 km/h
2770 24-09-2006 05:52:02 17.1 C 11.06 g/m*3 17.1 C 0 km/h
2771 24-09-2006 06:02:02 17 C 11.14 g/m*3 17 C 0 km/h
2772 24-09-2006 06:12:02 17 C 11.14 g/m*3 17 C 0 km/h
2773 24-09-2006 06:22:02 17 C 11 g/m*3 17 C 0 km/h
2774 24-09-2006 06:32:01 16.8 C 11.01 g/m*3 16.8 C 0 km/h
2775 24-09-2006 06:42:01 16.8 C 11.01 g/m*3 16.8 C 0 km/h
Sensor: Nr:Datum:Temp:Abs-Feuchte:Windchill:Wind:
Aussen-T/F 2776 24-09-2006 06:52:02 16.8 C 11.01 g/m*3 16.8 C 0 km/h
2777 24-09-2006 07:02:02 16.9 C 11.08 g/m*3 16.9 C 0 km/h
2778 24-09-2006 07:12:02 16.8 C 10.87 g/m*3 16.8 C 0 km/h
2779 24-09-2006 07:22:02 16.7 C 10.94 g/m*3 16.7 C 0 km/h
2780 24-09-2006 07:32:02 16.8 C 11.01 g/m*3 16.8 C 0 km/h
2781 24-09-2006 07:42:02 16.8 C 10.87 g/m*3 16.8 C 0 km/h
2782 24-09-2006 07:52:02 16.8 C 10.72 g/m*3 16.8 C 0 km/h
2783 24-09-2006 08:02:02 16.8 C 10.72 g/m*3 16.8 C 0 km/h
2784 24-09-2006 08:12:02 16.9 C 10.79 g/m*3 16.9 C 0 km/h
2785 24-09-2006 08:22:02 16.9 C 10.79 g/m*3 16.9 C 0 km/h
2786 24-09-2006 08:32:02 17 C 10.71 g/m*3 17 C 0 km/h
2787 24-09-2006 08:42:02 17 C 10.71 g/m*3 17 C 0 km/h
2788 24-09-2006 08:52:02 17.2 C 10.84 g/m*3 17.2 C 0 km/h
2789 24-09-2006 09:02:02 17.3 C 10.9 g/m*3 17.3 C 0 km/h
2790 24-09-2006 09:12:02 17.5 C 11.03 g/m*3 17.5 C 0 km/h
2791 24-09-2006 09:22:02 17.6 C 10.95 g/m*3 17.6 C 0 km/h
2792 24-09-2006 09:32:03 18 C 10.91 g/m*3 18 C 0 km/h
2793 24-09-2006 09:42:03 18.3 C 10.79 g/m*3 18.3 C 0 km/h
2794 24-09-2006 09:52:02 18.7 C 10.73 g/m*3 18.7 C 0 km/h
2795 24-09-2006 10:02:02 18.8 C 10.31 g/m*3 18.8 C 0 km/h
2796 24-09-2006 10:12:02 19 C 10.1 g/m*3 19 C 0 km/h
2797 24-09-2006 10:22:03 19.5 C 10.24 g/m*3 19.5 C 0 km/h
2798 24-09-2006 10:32:02 19.8 C 10.76 g/m*3 19.8 C 0 km/h
2799 24-09-2006 10:42:02 19.8 C 10.76 g/m*3 19.8 C 0 km/h
2800 24-09-2006 10:52:02 20.2 C 10.49 g/m*3 20.2 C 0 km/h
Sensor: Nr:Datum:Temp:Abs-Feuchte:Windchill:Wind:
Aussen-T/F 2801 24-09-2006 11:02:02 20.4 C 10.26 g/m*3 20.4 C 0 km/h
2802 24-09-2006 11:12:02 20.9 C 10.2 g/m*3 20.9 C 0 km/h
2803 24-09-2006 11:22:02 21.2 C 10.56 g/m*3 21.2 C 0 km/h
2804 24-09-2006 11:32:02 21.4 C 10.31 g/m*3 21.4 C 0 km/h
2805 24-09-2006 11:42:02 21.7 C 10.87 g/m*3 21.7 C 0 km/h
2806 24-09-2006 11:52:02 21.8 C 10.74 g/m*3 21.8 C 0 km/h
2807 24-09-2006 12:02:02 22.4 C 10.33 g/m*3 22.4 C 0 km/h
2808 24-09-2006 12:12:02 22.8 C 10.97 g/m*3 22.8 C 0 km/h
2809 24-09-2006 12:22:01 23 C 10.69 g/m*3 23 C 0 km/h
2810 24-09-2006 12:32:03 23.3 C 10.66 g/m*3 23.3 C 0 km/h
2811 24-09-2006 12:42:03 23.4 C 10.72 g/m*3 23.4 C 0 km/h
2812 24-09-2006 12:52:01 23.3 C 10.87 g/m*3 23.3 C 0 km/h
2813 24-09-2006 13:02:02 23.7 C 11.12 g/m*3 23.7 C 0 km/h
2814 24-09-2006 13:12:02 24.4 C 10.9 g/m*3 24.4 C 0 km/h
2815 24-09-2006 13:22:02 24.6 C 11.03 g/m*3 24.6 C 0 km/h
2816 24-09-2006 13:32:02 24.9 C 10.53 g/m*3 24.9 C 0 km/h
2817 24-09-2006 13:42:02 24.5 C 10.52 g/m*3 24.5 C 0 km/h
2818 24-09-2006 13:52:03 24.5 C 10.97 g/m*3 24.5 C 0 km/h
2819 24-09-2006 14:02:03 24.6 C 11.03 g/m*3 24.6 C 0 km/h
2820 24-09-2006 14:12:03 25.2 C 11.17 g/m*3 25.2 C 0 km/h
2821 24-09-2006 14:22:02 25.8 C 11.32 g/m*3 25.8 C 0 km/h
2822 24-09-2006 14:32:03 25.7 C 10.77 g/m*3 25.7 C 0 km/h
2823 24-09-2006 14:42:03 26.5 C 10.76 g/m*3 26.5 C 0 km/h
2824 24-09-2006 14:52:01 26.9 C 11.01 g/m*3 26.9 C 0 km/h
2825 24-09-2006 15:02:02 27.8 C 10.76 g/m*3 27.8 C 0 km/h
Sensor: Nr:Datum:Temp:Abs-Feuchte:Windchill:Wind:
Aussen-T/F 2826 24-09-2006 15:12:02 28.1 C 10.66 g/m*3 28.1 C 0 km/h
2827 24-09-2006 15:22:02 28.3 C 11.06 g/m*3 28.3 C 0 km/h
2828 24-09-2006 15:32:02 29.2 C 10.16 g/m*3 29.2 C 0 km/h
2829 24-09-2006 15:42:02 29.5 C 10.63 g/m*3 29.5 C 0 km/h
2830 24-09-2006 15:52:01 29.6 C 9.79 g/m*3 29.6 C 0 km/h
2831 24-09-2006 16:02:02 29.3 C 9.05 g/m*3 29.3 C 0 km/h
2832 24-09-2006 16:12:02 28.6 C 9.84 g/m*3 28.6 C 0 km/h
2833 24-09-2006 16:22:01 29.1 C 9.53 g/m*3 29.1 C 0 km/h
2834 24-09-2006 16:32:02 29 C 9.77 g/m*3 29 C 0 km/h
2835 24-09-2006 16:42:02 28.5 C 9.5 g/m*3 28.5 C 0 km/h
2836 24-09-2006 16:52:02 28.2 C 9.62 g/m*3 28.2 C 0 km/h
2837 24-09-2006 17:02:02 28.9 C 10 g/m*3 28.9 C 0 km/h
2838 24-09-2006 17:12:03 29.5 C 10.03 g/m*3 29.5 C 0 km/h
2839 24-09-2006 17:22:02 30 C 10.31 g/m*3 30 C 0 km/h
2840 24-09-2006 17:32:01 30 C 10.01 g/m*3 30 C 0 km/h
2841 24-09-2006 17:42:01 29.2 C 10.16 g/m*3 29.2 C 0 km/h
2842 24-09-2006 17:52:02 28.9 C 10.28 g/m*3 28.9 C 0 km/h
2843 24-09-2006 18:02:03 28.4 C 10.01 g/m*3 28.4 C 0 km/h
2844 24-09-2006 18:12:03 28 C 10.06 g/m*3 28 C 0 km/h
2845 24-09-2006 18:22:03 27.5 C 10.05 g/m*3 27.5 C 0 km/h
2846 24-09-2006 18:32:03 26.7 C 10.12 g/m*3 26.7 C 0 km/h
2847 24-09-2006 18:42:03 26 C 9.98 g/m*3 26 C 0 km/h
2848 24-09-2006 18:52:02 24.8 C 10.24 g/m*3 24.8 C 0 km/h
2849 24-09-2006 19:02:02 24.1 C 10.5 g/m*3 24.1 C 0 km/h
2850 24-09-2006 19:12:02 23.6 C 10.63 g/m*3 23.6 C 0 km/h
Sensor: Nr:Datum:Temp:Abs-Feuchte:Windchill:Wind:
Aussen-T/F 2851 24-09-2006 19:22:02 23.1 C 10.96 g/m*3 23.1 C 0 km/h
2852 24-09-2006 19:32:02 23.1 C 11.37 g/m*3 23.1 C 0 km/h
2853 24-09-2006 19:42:02 22.5 C 11.19 g/m*3 22.5 C 0 km/h
2854 24-09-2006 19:52:03 22.3 C 11.06 g/m*3 22.3 C 0 km/h
2855 24-09-2006 20:02:03 22.1 C 10.93 g/m*3 22.1 C 0 km/h
2856 24-09-2006 20:12:03 21.6 C 10.62 g/m*3 21.6 C 0 km/h
2857 24-09-2006 20:22:03 21.3 C 10.62 g/m*3 21.3 C 0 km/h
2858 24-09-2006 20:32:02 21.1 C 10.5 g/m*3 21.1 C 0 km/h
2859 24-09-2006 20:42:02 20.8 C 10.68 g/m*3 20.8 C 0 km/h
2860 24-09-2006 20:52:02 20.8 C 10.86 g/m*3 20.8 C 0 km/h
2861 24-09-2006 21:02:03 20.7 C 10.8 g/m*3 20.7 C 0 km/h
2862 24-09-2006 21:12:03 20.5 C 10.68 g/m*3 20.5 C 0 km/h
2863 24-09-2006 21:22:02 20.6 C 10.92 g/m*3 20.6 C 0 km/h
2864 24-09-2006 21:32:02 20.4 C 10.79 g/m*3 20.4 C 0 km/h
2865 24-09-2006 21:42:02 20.3 C 10.9 g/m*3 20.3 C 0 km/h
2866 24-09-2006 21:52:03 20 C 10.89 g/m*3 20 C 0 km/h
2867 24-09-2006 22:02:02 19.8 C 11.27 g/m*3 19.8 C 0 km/h
2868 24-09-2006 22:12:02 19.6 C 11.14 g/m*3 19.6 C 0 km/h
2869 24-09-2006 22:22:02 19.5 C 11.08 g/m*3 19.5 C 0 km/h
2870 24-09-2006 22:32:02 19.5 C 11.24 g/m*3 19.5 C 0 km/h
2871 24-09-2006 22:42:02 19.3 C 11.28 g/m*3 19.3 C 0 km/h
2872 24-09-2006 22:52:02 19.2 C 11.38 g/m*3 19.2 C 0 km/h
2873 24-09-2006 23:02:02 19.1 C 11.47 g/m*3 19.1 C 0 km/h
2874 24-09-2006 23:12:02 18.9 C 11.34 g/m*3 18.9 C 0 km/h
2875 24-09-2006 23:22:01 18.8 C 11.43 g/m*3 18.8 C 0 km/h
Sensor: Nr:Datum:Temp:Abs-Feuchte:Windchill:Wind:
Aussen-T/F 2876 24-09-2006 23:32:02 18.6 C 11.46 g/m*3 18.6 C 0 km/h
2877 24-09-2006 23:42:02 18.3 C 11.26 g/m*3 18.3 C 0 km/h
2878 24-09-2006 23:52:02 18.3 C 11.41 g/m*3 18.3 C 0 km/h
2879 25-09-2006 00:02:02 18.5 C 11.39 g/m*3 18.5 C 0 km/h
2880 25-09-2006 00:12:02 18.4 C 11.32 g/m*3 18.4 C 0 km/h
2881 25-09-2006 00:22:02 18.3 C 11.41 g/m*3 18.3 C 0 km/h
2882 25-09-2006 00:32:02 18.1 C 11.43 g/m*3 18.1 C 0 km/h
2883 25-09-2006 00:42:02 17.9 C 11.6 g/m*3 17.9 C 0 km/h
2884 25-09-2006 00:52:03 17.9 C 11.6 g/m*3 17.9 C 0 km/h
2885 25-09-2006 01:02:03 17.9 C 11.6 g/m*3 17.9 C 0 km/h
2886 25-09-2006 01:12:03 18.1 C 11.43 g/m*3 18.1 C 0 km/h
2887 25-09-2006 01:22:02 18.2 C 11.35 g/m*3 18.2 C 0 km/h
2888 25-09-2006 01:32:02 18.2 C 11.35 g/m*3 18.2 C 0 km/h
2889 25-09-2006 01:42:02 18.1 C 11.43 g/m*3 18.1 C 0 km/h
2890 25-09-2006 01:52:02 17.9 C 11.45 g/m*3 17.9 C 0 km/h
2891 25-09-2006 02:02:02 17.8 C 11.54 g/m*3 17.8 C 0 km/h
2892 25-09-2006 02:12:02 17.5 C 11.48 g/m*3 17.5 C 0 km/h
2893 25-09-2006 02:22:02 17.3 C 11.49 g/m*3 17.3 C 0 km/h
2894 25-09-2006 02:32:02 17.2 C 11.57 g/m*3 17.2 C 0 km/h
2895 25-09-2006 02:42:02 17.1 C 11.5 g/m*3 17.1 C 0 km/h
2896 25-09-2006 02:53:03 17.2 C 11.57 g/m*3 17.2 C 0 km/h
2897 25-09-2006 03:03:03 17.3 C 11.64 g/m*3 17.3 C 0 km/h
2898 25-09-2006 03:13:04 17.5 C 11.63 g/m*3 17.5 C 0 km/h
2899 25-09-2006 03:23:04 17.6 C 11.7 g/m*3 17.6 C 0 km/h
2900 25-09-2006 03:33:02 17.5 C 11.63 g/m*3 17.5 C 0 km/h
Sensor: Nr:Datum:Temp:Abs-Feuchte:Windchill:Wind:
Aussen-T/F 2901 25-09-2006 03:43:02 17.2 C 11.57 g/m*3 17.2 C 0 km/h
2902 25-09-2006 03:53:02 17.1 C 11.5 g/m*3 17.1 C 0 km/h
2903 25-09-2006 04:03:02 17.1 C 11.65 g/m*3 17.1 C 0 km/h
2904 25-09-2006 04:13:03 17.1 C 11.5 g/m*3 17.1 C 0 km/h
2905 25-09-2006 04:23:03 17 C 11.43 g/m*3 17 C 0 km/h
2906 25-09-2006 04:33:03 16.9 C 11.51 g/m*3 16.9 C 0 km/h
2907 25-09-2006 04:43:03 16.7 C 11.51 g/m*3 16.7 C 0 km/h
2908 25-09-2006 04:53:02 16.7 C 11.65 g/m*3 16.7 C 0 km/h
2909 25-09-2006 05:03:01 16.7 C 11.51 g/m*3 16.7 C 0 km/h
2910 25-09-2006 05:13:01 16.7 C 11.51 g/m*3 16.7 C 0 km/h
2911 25-09-2006 05:23:02 16.7 C 11.51 g/m*3 16.7 C 0 km/h
2912 25-09-2006 05:33:02 16.6 C 11.58 g/m*3 16.6 C 0 km/h
2913 25-09-2006 05:43:02 16.6 C 11.58 g/m*3 16.6 C 0 km/h
2914 25-09-2006 05:53:02 16.6 C 11.72 g/m*3 16.6 C 0 km/h
2915 25-09-2006 06:03:03 16.6 C 11.72 g/m*3 16.6 C 0 km/h
2916 25-09-2006 06:13:03 16.7 C 11.8 g/m*3 16.7 C 0 km/h
2917 25-09-2006 06:23:03 16.7 C 11.65 g/m*3 16.7 C 0 km/h
2918 25-09-2006 06:33:02 16.7 C 11.65 g/m*3 16.7 C 0 km/h
2919 25-09-2006 06:43:02 16.7 C 11.65 g/m*3 16.7 C 0 km/h
2920 25-09-2006 06:53:02 16.6 C 11.72 g/m*3 16.6 C 0 km/h
2921 25-09-2006 07:03:02 16.5 C 11.65 g/m*3 16.5 C 0 km/h
2922 25-09-2006 07:13:02 16.4 C 11.58 g/m*3 16.4 C 0 km/h
2923 25-09-2006 07:23:02 16.5 C 11.65 g/m*3 16.5 C 0 km/h
2924 25-09-2006 07:33:02 16.6 C 11.72 g/m*3 16.6 C 0 km/h
2925 25-09-2006 07:43:02 16.7 C 11.65 g/m*3 16.7 C 0 km/h
Sensor: Nr:Datum:Temp:Abs-Feuchte:Windchill:Wind:
Aussen-T/F 2926 25-09-2006 07:53:03 16.7 C 11.65 g/m*3 16.7 C 0 km/h
2927 25-09-2006 08:03:02 16.7 C 11.51 g/m*3 16.7 C 0 km/h
2928 25-09-2006 08:13:02 16.8 C 11.58 g/m*3 16.8 C 0 km/h
2929 25-09-2006 08:23:02 17 C 11.58 g/m*3 17 C 0 km/h
2930 25-09-2006 08:33:03 17.3 C 11.64 g/m*3 17.3 C 0 km/h
2931 25-09-2006 08:43:03 17.5 C 11.78 g/m*3 17.5 C 0 km/h
2932 25-09-2006 08:53:02 17.6 C 11.7 g/m*3 17.6 C 0 km/h
2933 25-09-2006 09:03:03 17.6 C 11.7 g/m*3 17.6 C 0 km/h
2934 25-09-2006 09:13:03 17.7 C 11.62 g/m*3 17.7 C 0 km/h
2935 25-09-2006 09:23:02 17.5 C 11.63 g/m*3 17.5 C 0 km/h
2936 25-09-2006 09:33:02 17.5 C 11.63 g/m*3 17.5 C 0 km/h
2937 25-09-2006 09:43:02 17.3 C 11.93 g/m*3 17.3 C 0 km/h
2938 25-09-2006 09:53:03 17.4 C 12.15 g/m*3 17.4 C 0 km/h
2939 25-09-2006 10:03:02 17.5 C 12.23 g/m*3 17.5 C 0 km/h
2940 25-09-2006 10:13:02 17.5 C 12.08 g/m*3 17.5 C 0 km/h
2941 25-09-2006 10:23:02 17.4 C 12 g/m*3 17.4 C 0 km/h
2942 25-09-2006 10:33:03 17.5 C 12.08 g/m*3 17.5 C 0 km/h
2943 25-09-2006 10:43:03 17.6 C 12 g/m*3 17.6 C 0 km/h
2944 25-09-2006 10:53:02 17.7 C 12.07 g/m*3 17.7 C 0 km/h
2945 25-09-2006 11:03:03 17.9 C 12.21 g/m*3 17.9 C 0 km/h
2946 25-09-2006 11:13:03 18.1 C 12.05 g/m*3 18.1 C 0 km/h
2947 25-09-2006 11:23:02 18.3 C 12.04 g/m*3 18.3 C 0 km/h
2948 25-09-2006 11:33:03 18.5 C 12.02 g/m*3 18.5 C 0 km/h
2949 25-09-2006 11:43:03 18.7 C 12.01 g/m*3 18.7 C 0 km/h
2950 25-09-2006 11:53:02 18.9 C 11.99 g/m*3 18.9 C 0 km/h
Sensor: Nr:Datum:Temp:Abs-Feuchte:Windchill:Wind:
Aussen-T/F 2951 25-09-2006 12:03:03 19.1 C 11.8 g/m*3 19.1 C 0 km/h
2952 25-09-2006 12:13:03 19.1 C 11.8 g/m*3 19.1 C 0 km/h
2953 25-09-2006 12:23:02 19.4 C 11.85 g/m*3 19.4 C 0 km/h
2954 25-09-2006 12:33:02 19.6 C 11.82 g/m*3 19.6 C 0 km/h
2955 25-09-2006 12:43:02 19.9 C 11.85 g/m*3 19.9 C 0 km/h
2956 25-09-2006 12:53:02 20 C 11.58 g/m*3 20 C 0 km/h
2957 25-09-2006 13:03:03 20.4 C 11.5 g/m*3 20.4 C 0 km/h
2958 25-09-2006 13:13:03 20.4 C 11.32 g/m*3 20.4 C 0 km/h
2959 25-09-2006 13:23:02 20.5 C 11.39 g/m*3 20.5 C 0 km/h
2960 25-09-2006 13:33:01 20.6 C 11.45 g/m*3 20.6 C 0 km/h
2961 25-09-2006 13:43:01 20.6 C 11.45 g/m*3 20.6 C 0 km/h
2962 25-09-2006 13:53:03 20.8 C 11.59 g/m*3 20.8 C 0 km/h
2963 25-09-2006 14:03:02 21 C 11.72 g/m*3 21 C 0 km/h
2964 25-09-2006 14:13:02 21.5 C 11.69 g/m*3 21.5 C 0 km/h
2965 25-09-2006 14:23:02 21.8 C 11.32 g/m*3 21.8 C 0 km/h
2966 25-09-2006 14:33:03 22.1 C 11.32 g/m*3 22.1 C 0 km/h
2967 25-09-2006 14:43:03 22 C 10.87 g/m*3 22 C 0 km/h
2968 25-09-2006 14:53:01 22 C 10.87 g/m*3 22 C 0 km/h
2969 25-09-2006 15:03:03 22.2 C 10.8 g/m*3 22.2 C 0 km/h
2970 25-09-2006 15:13:03 22.1 C 10.74 g/m*3 22.1 C 0 km/h
2971 25-09-2006 15:23:02 22.7 C 10.91 g/m*3 22.7 C 0 km/h
2972 25-09-2006 15:33:01 22.9 C 10.63 g/m*3 22.9 C 0 km/h
2973 25-09-2006 15:43:01 22.5 C 9.39 g/m*3 22.5 C 0 km/h
2974 25-09-2006 15:53:02 22.8 C 9.75 g/m*3 22.8 C 0 km/h
2975 25-09-2006 16:03:03 22.7 C 9.9 g/m*3 22.7 C 0 km/h
Sensor: Nr:Datum:Temp:Abs-Feuchte:Windchill:Wind:
Aussen-T/F 2976 25-09-2006 16:13:03 22.2 C 9.62 g/m*3 22.2 C 0 km/h
2977 25-09-2006 16:23:02 22.1 C 9.37 g/m*3 22.1 C 0 km/h
2978 25-09-2006 16:33:02 21.9 C 9.84 g/m*3 21.9 C 0 km/h
2979 25-09-2006 16:43:02 21.5 C 9.62 g/m*3 21.5 C 0 km/h
2980 25-09-2006 16:53:02 21 C 9.53 g/m*3 21 C 0 km/h
2981 25-09-2006 17:03:02 20.8 C 9.42 g/m*3 20.8 C 0 km/h
2982 25-09-2006 17:13:02 20.8 C 9.23 g/m*3 20.8 C 0 km/h
2983 25-09-2006 17:23:02 20.8 C 9.42 g/m*3 20.8 C 0 km/h
2984 25-09-2006 17:33:01 20.7 C 9.18 g/m*3 20.7 C 0 km/h
2985 25-09-2006 17:43:01 20.5 C 9.07 g/m*3 20.5 C 0 km/h
2986 25-09-2006 17:53:02 20.4 C 9.02 g/m*3 20.4 C 0 km/h
2987 25-09-2006 18:03:02 20.3 C 8.97 g/m*3 20.3 C 0 km/h
2988 25-09-2006 18:13:02 20.2 C 8.92 g/m*3 20.2 C 0 km/h
2989 25-09-2006 18:23:02 20 C 8.99 g/m*3 20 C 0 km/h
2990 25-09-2006 18:33:02 19.9 C 9.11 g/m*3 19.9 C 0 km/h
2991 25-09-2006 18:43:02 19.7 C 9 g/m*3 19.7 C 0 km/h
2992 25-09-2006 18:53:02 19.7 C 9.17 g/m*3 19.7 C 0 km/h
2993 25-09-2006 19:03:02 19.6 C 9.12 g/m*3 19.6 C 0 km/h
2994 25-09-2006 19:13:02 19.5 C 9.23 g/m*3 19.5 C 0 km/h
2995 25-09-2006 19:23:02 19.4 C 9.18 g/m*3 19.4 C 0 km/h
2996 25-09-2006 19:33:02 19.3 C 9.29 g/m*3 19.3 C 0 km/h
2997 25-09-2006 19:43:02 19.2 C 9.4 g/m*3 19.2 C 0 km/h
2998 25-09-2006 19:53:02 19.1 C 9.34 g/m*3 19.1 C 0 km/h
2999 25-09-2006 20:03:02 19 C 9.45 g/m*3 19 C 0 km/h
3000 25-09-2006 20:13:02 18.9 C 9.56 g/m*3 18.9 C 0 km/h
Sensor: Nr:Datum:Temp:Abs-Feuchte:Windchill:Wind:
Aussen-T/F 3001 25-09-2006 20:23:02 18.8 C 9.66 g/m*3 18.8 C 0 km/h
3002 25-09-2006 20:33:03 18.6 C 9.71 g/m*3 18.6 C 0 km/h
3003 25-09-2006 20:43:03 18.5 C 9.81 g/m*3 18.5 C 0 km/h
3004 25-09-2006 20:53:02 18.5 C 9.81 g/m*3 18.5 C 0 km/h
3005 25-09-2006 21:03:02 18.3 C 10.01 g/m*3 18.3 C 0 km/h
3006 25-09-2006 21:13:02 17.7 C 10.86 g/m*3 17.7 C 0 km/h
3007 25-09-2006 21:23:02 17.3 C 11.05 g/m*3 17.3 C 0 km/h
3008 25-09-2006 21:33:03 17 C 11.14 g/m*3 17 C 0 km/h
3009 25-09-2006 21:43:03 16.9 C 11.36 g/m*3 16.9 C 0 km/h
3010 25-09-2006 21:53:02 16.9 C 11.51 g/m*3 16.9 C 0 km/h
3011 25-09-2006 22:03:02 16.9 C 11.36 g/m*3 16.9 C 0 km/h
3012 25-09-2006 22:13:02 16.9 C 11.36 g/m*3 16.9 C 0 km/h
3013 25-09-2006 22:23:02 16.8 C 11.29 g/m*3 16.8 C 0 km/h
3014 25-09-2006 22:33:03 16.8 C 11.29 g/m*3 16.8 C 0 km/h
3015 25-09-2006 22:43:03 16.8 C 11.29 g/m*3 16.8 C 0 km/h
3016 25-09-2006 22:53:02 16.8 C 11.29 g/m*3 16.8 C 0 km/h
3017 25-09-2006 23:03:02 16.7 C 11.23 g/m*3 16.7 C 0 km/h
3018 25-09-2006 23:13:02 16.7 C 11.23 g/m*3 16.7 C 0 km/h
3019 25-09-2006 23:23:02 16.7 C 11.23 g/m*3 16.7 C 0 km/h
3020 25-09-2006 23:33:03 16.6 C 11.16 g/m*3 16.6 C 0 km/h
3021 25-09-2006 23:43:03 16.6 C 11.02 g/m*3 16.6 C 0 km/h
3022 25-09-2006 23:53:02 16.6 C 11.02 g/m*3 16.6 C 0 km/h
3023 26-09-2006 00:03:02 16.6 C 10.88 g/m*3 16.6 C 0 km/h
3024 26-09-2006 00:13:02 16.6 C 10.74 g/m*3 16.6 C 0 km/h
3025 26-09-2006 00:23:03 16.6 C 10.74 g/m*3 16.6 C 0 km/h
Sensor: Nr:Datum:Temp:Abs-Feuchte:Windchill:Wind:
Aussen-T/F 3026 26-09-2006 00:33:02 16.6 C 10.74 g/m*3 16.6 C 0 km/h
3027 26-09-2006 00:43:02 16.5 C 10.67 g/m*3 16.5 C 0 km/h
3028 26-09-2006 00:53:03 16.5 C 10.67 g/m*3 16.5 C 0 km/h
3029 26-09-2006 01:03:03 16.6 C 10.74 g/m*3 16.6 C 0 km/h
3030 26-09-2006 01:13:03 16.4 C 10.75 g/m*3 16.4 C 0 km/h
3031 26-09-2006 01:23:02 16.4 C 10.75 g/m*3 16.4 C 0 km/h
3032 26-09-2006 01:33:02 16.4 C 10.75 g/m*3 16.4 C 0 km/h
3033 26-09-2006 01:43:02 16.4 C 10.75 g/m*3 16.4 C 0 km/h
3034 26-09-2006 01:53:02 16.4 C 10.75 g/m*3 16.4 C 0 km/h
3035 26-09-2006 02:03:02 16.3 C 10.68 g/m*3 16.3 C 0 km/h
3036 26-09-2006 02:13:02 16.3 C 10.68 g/m*3 16.3 C 0 km/h
3037 26-09-2006 02:23:02 16.2 C 10.62 g/m*3 16.2 C 0 km/h
3038 26-09-2006 02:33:02 16.1 C 10.55 g/m*3 16.1 C 0 km/h
3039 26-09-2006 02:43:02 16 C 10.63 g/m*3 16 C 0 km/h
3040 26-09-2006 02:54:03 16 C 10.63 g/m*3 16 C 0 km/h
3041 26-09-2006 03:04:03 16 C 10.63 g/m*3 16 C 0 km/h
3042 26-09-2006 03:14:04 16 C 10.63 g/m*3 16 C 0 km/h
3043 26-09-2006 03:24:04 15.9 C 10.7 g/m*3 15.9 C 0 km/h
3044 26-09-2006 03:34:02 16 C 10.76 g/m*3 16 C 0 km/h
3045 26-09-2006 03:44:02 16 C 10.76 g/m*3 16 C 0 km/h
3046 26-09-2006 03:54:02 15.9 C 10.83 g/m*3 15.9 C 0 km/h
3047 26-09-2006 04:04:02 16 C 10.76 g/m*3 16 C 0 km/h
3048 26-09-2006 04:14:02 15.9 C 10.83 g/m*3 15.9 C 0 km/h
3049 26-09-2006 04:24:02 15.8 C 10.77 g/m*3 15.8 C 0 km/h
3050 26-09-2006 04:34:02 15.8 C 10.77 g/m*3 15.8 C 0 km/h
Sensor: Nr:Datum:Temp:Abs-Feuchte:Windchill:Wind:
Aussen-T/F 3051 26-09-2006 04:44:02 15.7 C 10.84 g/m*3 15.7 C 0 km/h
3052 26-09-2006 04:54:03 15.6 C 10.77 g/m*3 15.6 C 0 km/h
3053 26-09-2006 05:04:03 15.4 C 10.77 g/m*3 15.4 C 0 km/h
3054 26-09-2006 05:14:03 15.4 C 10.77 g/m*3 15.4 C 0 km/h
3055 26-09-2006 05:24:02 15.2 C 10.64 g/m*3 15.2 C 0 km/h
3056 26-09-2006 05:34:02 15.5 C 10.84 g/m*3 15.5 C 0 km/h
3057 26-09-2006 05:44:02 15.5 C 10.84 g/m*3 15.5 C 0 km/h
3058 26-09-2006 05:54:02 15.5 C 10.84 g/m*3 15.5 C 0 km/h
3059 26-09-2006 06:04:02 15.6 C 10.77 g/m*3 15.6 C 0 km/h
3060 26-09-2006 06:14:02 15.5 C 10.84 g/m*3 15.5 C 0 km/h
3061 26-09-2006 06:24:02 15.4 C 10.77 g/m*3 15.4 C 0 km/h
3062 26-09-2006 06:34:01 15.2 C 10.77 g/m*3 15.2 C 0 km/h
3063 26-09-2006 06:44:01 15.2 C 10.9 g/m*3 15.2 C 0 km/h
3064 26-09-2006 06:54:02 15.2 C 10.9 g/m*3 15.2 C 0 km/h
3065 26-09-2006 07:04:02 15.2 C 10.9 g/m*3 15.2 C 0 km/h
3066 26-09-2006 07:14:02 15.2 C 10.9 g/m*3 15.2 C 0 km/h
3067 26-09-2006 07:24:02 15.2 C 10.9 g/m*3 15.2 C 0 km/h
3068 26-09-2006 07:34:02 15.2 C 10.9 g/m*3 15.2 C 0 km/h
3069 26-09-2006 07:44:02 15.2 C 10.9 g/m*3 15.2 C 0 km/h
3070 26-09-2006 07:54:03 15.2 C 11.03 g/m*3 15.2 C 0 km/h
3071 26-09-2006 08:04:02 15.2 C 11.16 g/m*3 15.2 C 0 km/h
3072 26-09-2006 08:14:02 15 C 11.16 g/m*3 15 C 0 km/h
3073 26-09-2006 08:24:02 15 C 11.28 g/m*3 15 C 0 km/h
3074 26-09-2006 08:34:02 15 C 11.28 g/m*3 15 C 0 km/h
3075 26-09-2006 08:44:02 15 C 11.41 g/m*3 15 C 0 km/h
Sensor: Nr:Datum:Temp:Abs-Feuchte:Windchill:Wind:
Aussen-T/F 3076 26-09-2006 08:54:02 15 C 11.41 g/m*3 15 C 0 km/h
3077 26-09-2006 09:04:02 15.1 C 11.48 g/m*3 15.1 C 0 km/h
3078 26-09-2006 09:14:02 15.3 C 11.62 g/m*3 15.3 C 0 km/h
3079 26-09-2006 09:24:02 15.4 C 11.69 g/m*3 15.4 C 0 km/h
3080 26-09-2006 09:34:02 15.6 C 11.84 g/m*3 15.6 C 0 km/h
3081 26-09-2006 09:44:02 15.6 C 11.7 g/m*3 15.6 C 0 km/h
3082 26-09-2006 09:54:02 15.8 C 11.85 g/m*3 15.8 C 0 km/h
3083 26-09-2006 10:04:02 16.3 C 11.65 g/m*3 16.3 C 0 km/h
3084 26-09-2006 10:14:02 16.6 C 11.58 g/m*3 16.6 C 0 km/h
3085 26-09-2006 10:24:01 16.9 C 11.51 g/m*3 16.9 C 0 km/h
3086 26-09-2006 10:34:02 17.2 C 11.42 g/m*3 17.2 C 0 km/h
3087 26-09-2006 10:44:02 17.1 C 11.21 g/m*3 17.1 C 0 km/h
3088 26-09-2006 10:54:02 17.6 C 11.4 g/m*3 17.6 C 0 km/h
3089 26-09-2006 11:04:02 17.6 C 11.25 g/m*3 17.6 C 0 km/h
3090 26-09-2006 11:14:02 17.5 C 11.03 g/m*3 17.5 C 0 km/h
3091 26-09-2006 11:24:02 17.5 C 11.03 g/m*3 17.5 C 0 km/h
3092 26-09-2006 11:34:02 17.9 C 11.3 g/m*3 17.9 C 0 km/h
3093 26-09-2006 11:44:02 17.9 C 10.84 g/m*3 17.9 C 0 km/h
3094 26-09-2006 11:54:02 18 C 10.75 g/m*3 18 C 0 km/h
3095 26-09-2006 12:04:03 18 C 10.6 g/m*3 18 C 0 km/h
3096 26-09-2006 12:14:03 18.2 C 10.72 g/m*3 18.2 C 0 km/h
3097 26-09-2006 12:24:02 18.5 C 10.92 g/m*3 18.5 C 0 km/h
3098 26-09-2006 12:34:03 19.1 C 10.66 g/m*3 19.1 C 0 km/h
3099 26-09-2006 12:44:03 19.5 C 10.41 g/m*3 19.5 C 0 km/h
3100 26-09-2006 12:54:02 19.7 C 10.53 g/m*3 19.7 C 0 km/h
Sensor: Nr:Datum:Temp:Abs-Feuchte:Windchill:Wind:
Aussen-T/F 3101 26-09-2006 13:04:02 19.5 C 10.41 g/m*3 19.5 C 0 km/h
3102 26-09-2006 13:14:02 19.9 C 10.48 g/m*3 19.9 C 0 km/h
3103 26-09-2006 13:24:01 20.7 C 10.26 g/m*3 20.7 C 0 km/h
3104 26-09-2006 13:34:01 20.9 C 10.2 g/m*3 20.9 C 0 km/h
3105 26-09-2006 13:44:01 20.9 C 10.2 g/m*3 20.9 C 0 km/h
3106 26-09-2006 13:54:03 20.9 C 10.02 g/m*3 20.9 C 0 km/h
3107 26-09-2006 14:04:02 21.2 C 10.01 g/m*3 21.2 C 0 km/h
3108 26-09-2006 14:14:02 21.5 C 9.99 g/m*3 21.5 C 0 km/h
3109 26-09-2006 14:24:02 21.7 C 9.92 g/m*3 21.7 C 0 km/h
3110 26-09-2006 14:34:02 21.6 C 9.86 g/m*3 21.6 C 0 km/h
3111 26-09-2006 14:44:02 21.1 C 9.77 g/m*3 21.1 C 0 km/h
3112 26-09-2006 14:54:02 20.7 C 9.9 g/m*3 20.7 C 0 km/h
3113 26-09-2006 15:04:02 20.2 C 9.97 g/m*3 20.2 C 0 km/h
3114 26-09-2006 15:14:02 19.7 C 10.19 g/m*3 19.7 C 0 km/h
3115 26-09-2006 15:24:02 18.4 C 11.32 g/m*3 18.4 C 0 km/h
3116 26-09-2006 15:34:02 17.6 C 12 g/m*3 17.6 C 0 km/h
3117 26-09-2006 15:44:02 17.6 C 12.45 g/m*3 17.6 C 0 km/h
3118 26-09-2006 15:54:02 17.3 C 12.37 g/m*3 17.3 C 0 km/h
3119 26-09-2006 16:04:02 17.5 C 12.67 g/m*3 17.5 C 0 km/h
3120 26-09-2006 16:14:02 17.9 C 12.98 g/m*3 17.9 C 0 km/h
3121 26-09-2006 16:24:03 18.3 C 12.82 g/m*3 18.3 C 0 km/h
3122 26-09-2006 16:34:03 18.5 C 12.82 g/m*3 18.5 C 0 km/h
3123 26-09-2006 16:44:03 18.7 C 12.81 g/m*3 18.7 C 0 km/h
3124 26-09-2006 16:54:01 18.9 C 12.8 g/m*3 18.9 C 0 km/h
3125 26-09-2006 17:04:02 18.9 C 12.8 g/m*3 18.9 C 0 km/h
Sensor: Nr:Datum:Temp:Abs-Feuchte:Windchill:Wind:
Aussen-T/F 3126 26-09-2006 17:14:02 19 C 12.71 g/m*3 19 C 0 km/h
3127 26-09-2006 17:24:02 18.9 C 12.8 g/m*3 18.9 C 0 km/h
3128 26-09-2006 17:34:01 18.7 C 12.49 g/m*3 18.7 C 0 km/h
3129 26-09-2006 17:44:01 18.4 C 12.43 g/m*3 18.4 C 0 km/h
3130 26-09-2006 17:54:02 18.3 C 12.51 g/m*3 18.3 C 0 km/h
3131 26-09-2006 18:04:02 18.1 C 12.36 g/m*3 18.1 C 0 km/h
3132 26-09-2006 18:14:02 17.9 C 12.37 g/m*3 17.9 C 0 km/h
3133 26-09-2006 18:24:02 17.8 C 12.29 g/m*3 17.8 C 0 km/h
3134 26-09-2006 18:34:02 17.5 C 12.23 g/m*3 17.5 C 0 km/h
3135 26-09-2006 18:44:02 17.3 C 12.08 g/m*3 17.3 C 0 km/h
3136 26-09-2006 18:54:02 17.1 C 11.94 g/m*3 17.1 C 0 km/h
3137 26-09-2006 19:04:03 17 C 11.87 g/m*3 17 C 0 km/h
3138 26-09-2006 19:14:03 17 C 12.01 g/m*3 17 C 0 km/h
3139 26-09-2006 19:24:02 16.9 C 12.08 g/m*3 16.9 C 0 km/h
3140 26-09-2006 19:34:02 16.9 C 12.08 g/m*3 16.9 C 0 km/h
3141 26-09-2006 19:44:02 16.9 C 12.08 g/m*3 16.9 C 0 km/h
3142 26-09-2006 19:54:03 16.9 C 12.08 g/m*3 16.9 C 0 km/h
3143 26-09-2006 20:04:02 16.9 C 12.08 g/m*3 16.9 C 0 km/h
3144 26-09-2006 20:14:02 16.8 C 12.01 g/m*3 16.8 C 0 km/h
3145 26-09-2006 20:24:02 16.8 C 12.01 g/m*3 16.8 C 0 km/h
3146 26-09-2006 20:34:03 16.8 C 12.01 g/m*3 16.8 C 0 km/h
3147 26-09-2006 20:44:03 16.7 C 11.94 g/m*3 16.7 C 0 km/h
3148 26-09-2006 20:54:02 16.7 C 11.94 g/m*3 16.7 C 0 km/h
3149 26-09-2006 21:04:04 16.8 C 12.01 g/m*3 16.8 C 0 km/h
3150 26-09-2006 21:14:04 16.7 C 11.8 g/m*3 16.7 C 0 km/h
Sensor: Nr:Datum:Temp:Abs-Feuchte:Windchill:Wind:
Aussen-T/F 3151 26-09-2006 21:24:03 16.8 C 11.87 g/m*3 16.8 C 0 km/h
3152 26-09-2006 21:34:05 16.7 C 11.8 g/m*3 16.7 C 0 km/h
3153 26-09-2006 21:44:05 16.7 C 11.8 g/m*3 16.7 C 0 km/h
3154 26-09-2006 21:54:03 16.7 C 11.8 g/m*3 16.7 C 0 km/h
3155 26-09-2006 22:04:04 16.6 C 11.72 g/m*3 16.6 C 0 km/h
3156 26-09-2006 22:14:04 16.6 C 11.58 g/m*3 16.6 C 0 km/h
3157 26-09-2006 22:24:04 16.6 C 11.72 g/m*3 16.6 C 0 km/h
3158 26-09-2006 22:34:03 16.7 C 11.65 g/m*3 16.7 C 0 km/h
3159 26-09-2006 22:44:03 16.6 C 11.58 g/m*3 16.6 C 0 km/h
3160 26-09-2006 22:54:03 16.6 C 11.58 g/m*3 16.6 C 0 km/h
3161 26-09-2006 23:04:02 16.5 C 11.51 g/m*3 16.5 C 0 km/h
3162 26-09-2006 23:14:02 16.3 C 11.38 g/m*3 16.3 C 0 km/h
3163 26-09-2006 23:24:02 16.1 C 11.24 g/m*3 16.1 C 0 km/h
3164 26-09-2006 23:34:02 15.8 C 11.17 g/m*3 15.8 C 0 km/h
3165 26-09-2006 23:44:02 15.5 C 11.1 g/m*3 15.5 C 0 km/h
3166 26-09-2006 23:54:02 15.3 C 10.97 g/m*3 15.3 C 0 km/h
3167 27-09-2006 00:04:02 15.4 C 11.04 g/m*3 15.4 C 0 km/h
3168 27-09-2006 00:14:03 15.4 C 11.04 g/m*3 15.4 C 0 km/h
3169 27-09-2006 00:24:02 15.4 C 11.04 g/m*3 15.4 C 0 km/h
3170 27-09-2006 00:34:01 15.3 C 10.84 g/m*3 15.3 C 0 km/h
3171 27-09-2006 00:44:01 15.1 C 10.71 g/m*3 15.1 C 0 km/h
3172 27-09-2006 00:54:02 15.1 C 10.84 g/m*3 15.1 C 0 km/h
3173 27-09-2006 01:04:02 15 C 10.77 g/m*3 15 C 0 km/h
3174 27-09-2006 01:14:02 14.7 C 10.7 g/m*3 14.7 C 0 km/h
3175 27-09-2006 01:24:02 14.6 C 10.76 g/m*3 14.6 C 0 km/h
Sensor: Nr:Datum:Temp:Abs-Feuchte:Windchill:Wind:
Aussen-T/F 3176 27-09-2006 01:34:02 14.6 C 10.76 g/m*3 14.6 C 0 km/h
3177 27-09-2006 01:44:03 14.5 C 10.82 g/m*3 14.5 C 0 km/h
3178 27-09-2006 01:54:02 14.6 C 11.01 g/m*3 14.6 C 0 km/h
3179 27-09-2006 02:04:02 14.6 C 11.01 g/m*3 14.6 C 0 km/h
3180 27-09-2006 02:14:02 14.7 C 11.08 g/m*3 14.7 C 0 km/h
3181 27-09-2006 02:24:02 14.8 C 11.15 g/m*3 14.8 C 0 km/h
3182 27-09-2006 02:34:03 14.8 C 11.15 g/m*3 14.8 C 0 km/h
3183 27-09-2006 02:44:03 14.7 C 11.08 g/m*3 14.7 C 0 km/h
3184 27-09-2006 02:55:04 14.7 C 11.08 g/m*3 14.7 C 0 km/h
3185 27-09-2006 03:05:04 14.7 C 11.08 g/m*3 14.7 C 0 km/h
3186 27-09-2006 03:15:04 14.6 C 11.01 g/m*3 14.6 C 0 km/h
3187 27-09-2006 03:25:04 14.5 C 10.94 g/m*3 14.5 C 0 km/h
3188 27-09-2006 03:35:02 14.6 C 11.01 g/m*3 14.6 C 0 km/h
3189 27-09-2006 03:45:02 14.7 C 10.95 g/m*3 14.7 C 0 km/h
3190 27-09-2006 03:55:02 14.7 C 10.95 g/m*3 14.7 C 0 km/h
3191 27-09-2006 04:05:02 14.7 C 10.83 g/m*3 14.7 C 0 km/h
3192 27-09-2006 04:15:02 14.7 C 10.95 g/m*3 14.7 C 0 km/h
3193 27-09-2006 04:25:02 14.7 C 10.95 g/m*3 14.7 C 0 km/h
3194 27-09-2006 04:35:02 14.7 C 10.95 g/m*3 14.7 C 0 km/h
3195 27-09-2006 04:45:02 14.7 C 10.95 g/m*3 14.7 C 0 km/h
3196 27-09-2006 04:55:02 14.7 C 10.83 g/m*3 14.7 C 0 km/h
3197 27-09-2006 05:05:02 14.6 C 10.76 g/m*3 14.6 C 0 km/h
3198 27-09-2006 05:15:02 14.6 C 10.89 g/m*3 14.6 C 0 km/h
3199 27-09-2006 05:25:02 14.5 C 10.82 g/m*3 14.5 C 0 km/h
3200 27-09-2006 05:35:03 14.3 C 10.81 g/m*3 14.3 C 0 km/h
Sensor: Nr:Datum:Temp:Abs-Feuchte:Windchill:Wind:
Aussen-T/F 3201 27-09-2006 05:45:02 14.1 C 10.68 g/m*3 14.1 C 0 km/h
3202 27-09-2006 05:55:02 14.1 C 10.68 g/m*3 14.1 C 0 km/h
3203 27-09-2006 06:05:02 14.2 C 10.75 g/m*3 14.2 C 0 km/h
3204 27-09-2006 06:15:01 14.2 C 10.75 g/m*3 14.2 C 0 km/h
3205 27-09-2006 06:25:01 14.2 C 10.62 g/m*3 14.2 C 0 km/h
3206 27-09-2006 06:35:01 14.1 C 10.56 g/m*3 14.1 C 0 km/h
3207 27-09-2006 06:45:02 14.1 C 10.56 g/m*3 14.1 C 0 km/h
3208 27-09-2006 06:55:02 14 C 10.49 g/m*3 14 C 0 km/h
3209 27-09-2006 07:05:02 14 C 10.49 g/m*3 14 C 0 km/h
3210 27-09-2006 07:15:02 13.9 C 10.55 g/m*3 13.9 C 0 km/h
3211 27-09-2006 07:25:02 13.9 C 10.55 g/m*3 13.9 C 0 km/h
3212 27-09-2006 07:35:01 13.7 C 10.42 g/m*3 13.7 C 0 km/h
3213 27-09-2006 07:45:02 13.5 C 10.41 g/m*3 13.5 C 0 km/h
3214 27-09-2006 07:55:02 13.4 C 10.35 g/m*3 13.4 C 0 km/h
3215 27-09-2006 08:05:02 13.2 C 10.22 g/m*3 13.2 C 0 km/h
3216 27-09-2006 08:15:02 13.1 C 10.27 g/m*3 13.1 C 0 km/h
3217 27-09-2006 08:25:02 13 C 10.21 g/m*3 13 C 0 km/h
3218 27-09-2006 08:35:02 13 C 10.32 g/m*3 13 C 0 km/h
3219 27-09-2006 08:45:03 13 C 10.32 g/m*3 13 C 0 km/h
3220 27-09-2006 08:55:03 13.1 C 10.38 g/m*3 13.1 C 0 km/h
3221 27-09-2006 09:05:02 13.1 C 10.38 g/m*3 13.1 C 0 km/h
3222 27-09-2006 09:15:02 13.2 C 10.33 g/m*3 13.2 C 0 km/h
3223 27-09-2006 09:25:02 13.4 C 10.46 g/m*3 13.4 C 0 km/h
3224 27-09-2006 09:35:02 13.6 C 10.47 g/m*3 13.6 C 0 km/h
3225 27-09-2006 09:45:02 13.7 C 10.42 g/m*3 13.7 C 0 km/h
Sensor: